<?xml version="1.0" encoding="UTF-8" standalone="no" ?>
<gpx xmlns="http://www.topografix.com/GPX/1/1" xmlns:xsi="http://www.w3.org/2001/XMLSchema-instance" xsi:schemaLocation="http://www.topografix.com/GPX/1/1 http://www.topografix.com/GPX/1/1/gpx.xsd" version="1.1" creator="VisuGPX - https://www.visugpx.com">
  <metadata>
    <name>Raquettes à Nistos</name>
    <desc><![CDATA[Randonnée en montagne]]></desc>
  </metadata>
  <trk>
    <name><![CDATA[6 févr. 2014 09:44:57]]></name>
    <cmt><![CDATA[6 févr. 2014 09:44:57]]></cmt>
    <trkseg>
      <trkpt lat="42.94395" lon="0.45679">
        <ele>1545</ele>
        <time>2014-02-06T08:44:58Z</time>
      </trkpt>
      <trkpt lat="42.94398" lon="0.4568">
        <ele>1560</ele>
        <time>2014-02-06T08:45:37Z</time>
      </trkpt>
      <trkpt lat="42.94401" lon="0.45682">
        <ele>1562</ele>
        <time>2014-02-06T08:45:43Z</time>
      </trkpt>
      <trkpt lat="42.944" lon="0.45677">
        <ele>1576</ele>
        <time>2014-02-06T08:48:30Z</time>
      </trkpt>
      <trkpt lat="42.94406" lon="0.45672">
        <ele>1582</ele>
        <time>2014-02-06T08:49:05Z</time>
      </trkpt>
      <trkpt lat="42.94403" lon="0.45667">
        <ele>1585</ele>
        <time>2014-02-06T08:49:10Z</time>
      </trkpt>
      <trkpt lat="42.94402" lon="0.4566">
        <ele>1591</ele>
        <time>2014-02-06T08:49:17Z</time>
      </trkpt>
      <trkpt lat="42.94402" lon="0.45665">
        <ele>1603</ele>
        <time>2014-02-06T08:50:15Z</time>
      </trkpt>
      <trkpt lat="42.94406" lon="0.45664">
        <ele>1592</ele>
        <time>2014-02-06T08:51:44Z</time>
      </trkpt>
      <trkpt lat="42.94411" lon="0.45663">
        <ele>1591</ele>
        <time>2014-02-06T08:52:11Z</time>
      </trkpt>
      <trkpt lat="42.94413" lon="0.45656">
        <ele>1589</ele>
        <time>2014-02-06T08:52:15Z</time>
      </trkpt>
      <trkpt lat="42.94415" lon="0.45649">
        <ele>1588</ele>
        <time>2014-02-06T08:52:19Z</time>
      </trkpt>
      <trkpt lat="42.94413" lon="0.45642">
        <ele>1587</ele>
        <time>2014-02-06T08:52:23Z</time>
      </trkpt>
      <trkpt lat="42.94411" lon="0.45636">
        <ele>1586</ele>
        <time>2014-02-06T08:52:27Z</time>
      </trkpt>
      <trkpt lat="42.94409" lon="0.45629">
        <ele>1586</ele>
        <time>2014-02-06T08:52:32Z</time>
      </trkpt>
      <trkpt lat="42.94407" lon="0.45625">
        <ele>1587</ele>
        <time>2014-02-06T08:52:50Z</time>
      </trkpt>
      <trkpt lat="42.94404" lon="0.45627">
        <ele>1591</ele>
        <time>2014-02-06T08:55:49Z</time>
      </trkpt>
      <trkpt lat="42.94406" lon="0.45625">
        <ele>1589</ele>
        <time>2014-02-06T08:59:42Z</time>
      </trkpt>
      <trkpt lat="42.94404" lon="0.45621">
        <ele>1589</ele>
        <time>2014-02-06T09:00:17Z</time>
      </trkpt>
      <trkpt lat="42.94403" lon="0.45614">
        <ele>1587</ele>
        <time>2014-02-06T09:00:25Z</time>
      </trkpt>
      <trkpt lat="42.944" lon="0.4561">
        <ele>1587</ele>
        <time>2014-02-06T09:00:30Z</time>
      </trkpt>
      <trkpt lat="42.94396" lon="0.45606">
        <ele>1589</ele>
        <time>2014-02-06T09:00:43Z</time>
      </trkpt>
      <trkpt lat="42.94392" lon="0.45604">
        <ele>1591</ele>
        <time>2014-02-06T09:01:57Z</time>
      </trkpt>
      <trkpt lat="42.94393" lon="0.45604">
        <ele>1591</ele>
        <time>2014-02-06T09:05:09Z</time>
      </trkpt>
      <trkpt lat="42.94391" lon="0.45595">
        <ele>1590</ele>
        <time>2014-02-06T09:05:27Z</time>
      </trkpt>
      <trkpt lat="42.9439" lon="0.45592">
        <ele>1590</ele>
        <time>2014-02-06T09:05:33Z</time>
      </trkpt>
      <trkpt lat="42.94392" lon="0.45583">
        <ele>1592</ele>
        <time>2014-02-06T09:06:04Z</time>
      </trkpt>
      <trkpt lat="42.94391" lon="0.45577">
        <ele>1593</ele>
        <time>2014-02-06T09:06:12Z</time>
      </trkpt>
      <trkpt lat="42.94391" lon="0.4557">
        <ele>1592</ele>
        <time>2014-02-06T09:06:22Z</time>
      </trkpt>
      <trkpt lat="42.94392" lon="0.45566">
        <ele>1593</ele>
        <time>2014-02-06T09:06:48Z</time>
      </trkpt>
      <trkpt lat="42.9439" lon="0.45562">
        <ele>1591</ele>
        <time>2014-02-06T09:07:34Z</time>
      </trkpt>
      <trkpt lat="42.94389" lon="0.45555">
        <ele>1591</ele>
        <time>2014-02-06T09:07:38Z</time>
      </trkpt>
      <trkpt lat="42.94387" lon="0.4555">
        <ele>1591</ele>
        <time>2014-02-06T09:07:43Z</time>
      </trkpt>
      <trkpt lat="42.94387" lon="0.45544">
        <ele>1591</ele>
        <time>2014-02-06T09:07:49Z</time>
      </trkpt>
      <trkpt lat="42.94386" lon="0.45537">
        <ele>1591</ele>
        <time>2014-02-06T09:07:54Z</time>
      </trkpt>
      <trkpt lat="42.94384" lon="0.4553">
        <ele>1589</ele>
        <time>2014-02-06T09:07:59Z</time>
      </trkpt>
      <trkpt lat="42.94385" lon="0.45523">
        <ele>1587</ele>
        <time>2014-02-06T09:08:03Z</time>
      </trkpt>
      <trkpt lat="42.94384" lon="0.45516">
        <ele>1586</ele>
        <time>2014-02-06T09:08:08Z</time>
      </trkpt>
      <trkpt lat="42.94383" lon="0.4551">
        <ele>1586</ele>
        <time>2014-02-06T09:08:14Z</time>
      </trkpt>
      <trkpt lat="42.94379" lon="0.45505">
        <ele>1586</ele>
        <time>2014-02-06T09:08:21Z</time>
      </trkpt>
      <trkpt lat="42.94376" lon="0.455">
        <ele>1587</ele>
        <time>2014-02-06T09:08:27Z</time>
      </trkpt>
      <trkpt lat="42.94371" lon="0.45498">
        <ele>1586</ele>
        <time>2014-02-06T09:08:33Z</time>
      </trkpt>
      <trkpt lat="42.94373" lon="0.45491">
        <ele>1584</ele>
        <time>2014-02-06T09:08:41Z</time>
      </trkpt>
      <trkpt lat="42.94374" lon="0.45487">
        <ele>1582</ele>
        <time>2014-02-06T09:08:48Z</time>
      </trkpt>
      <trkpt lat="42.94372" lon="0.45482">
        <ele>1582</ele>
        <time>2014-02-06T09:09:07Z</time>
      </trkpt>
      <trkpt lat="42.94369" lon="0.45476">
        <ele>1582</ele>
        <time>2014-02-06T09:09:13Z</time>
      </trkpt>
      <trkpt lat="42.94368" lon="0.45471">
        <ele>1582</ele>
        <time>2014-02-06T09:09:18Z</time>
      </trkpt>
      <trkpt lat="42.94365" lon="0.45464">
        <ele>1580</ele>
        <time>2014-02-06T09:09:25Z</time>
      </trkpt>
      <trkpt lat="42.94368" lon="0.45459">
        <ele>1582</ele>
        <time>2014-02-06T09:09:31Z</time>
      </trkpt>
      <trkpt lat="42.94366" lon="0.45452">
        <ele>1584</ele>
        <time>2014-02-06T09:09:38Z</time>
      </trkpt>
      <trkpt lat="42.94366" lon="0.45446">
        <ele>1586</ele>
        <time>2014-02-06T09:09:44Z</time>
      </trkpt>
      <trkpt lat="42.94365" lon="0.4544">
        <ele>1587</ele>
        <time>2014-02-06T09:09:51Z</time>
      </trkpt>
      <trkpt lat="42.94361" lon="0.45436">
        <ele>1588</ele>
        <time>2014-02-06T09:09:57Z</time>
      </trkpt>
      <trkpt lat="42.94361" lon="0.45433">
        <ele>1588</ele>
        <time>2014-02-06T09:10:03Z</time>
      </trkpt>
      <trkpt lat="42.94359" lon="0.45428">
        <ele>1588</ele>
        <time>2014-02-06T09:10:35Z</time>
      </trkpt>
      <trkpt lat="42.94354" lon="0.45429">
        <ele>1588</ele>
        <time>2014-02-06T09:10:41Z</time>
      </trkpt>
      <trkpt lat="42.94349" lon="0.45428">
        <ele>1589</ele>
        <time>2014-02-06T09:10:46Z</time>
      </trkpt>
      <trkpt lat="42.94344" lon="0.45427">
        <ele>1589</ele>
        <time>2014-02-06T09:10:52Z</time>
      </trkpt>
      <trkpt lat="42.94341" lon="0.45423">
        <ele>1591</ele>
        <time>2014-02-06T09:10:59Z</time>
      </trkpt>
      <trkpt lat="42.94337" lon="0.4542">
        <ele>1592</ele>
        <time>2014-02-06T09:11:07Z</time>
      </trkpt>
      <trkpt lat="42.94332" lon="0.45416">
        <ele>1594</ele>
        <time>2014-02-06T09:11:12Z</time>
      </trkpt>
      <trkpt lat="42.94328" lon="0.45415">
        <ele>1594</ele>
        <time>2014-02-06T09:11:17Z</time>
      </trkpt>
      <trkpt lat="42.94323" lon="0.45413">
        <ele>1595</ele>
        <time>2014-02-06T09:11:22Z</time>
      </trkpt>
      <trkpt lat="42.94318" lon="0.45409">
        <ele>1594</ele>
        <time>2014-02-06T09:11:29Z</time>
      </trkpt>
      <trkpt lat="42.94316" lon="0.45407">
        <ele>1595</ele>
        <time>2014-02-06T09:11:36Z</time>
      </trkpt>
      <trkpt lat="42.94313" lon="0.45408">
        <ele>1599</ele>
        <time>2014-02-06T09:12:52Z</time>
      </trkpt>
      <trkpt lat="42.94307" lon="0.45412">
        <ele>1601</ele>
        <time>2014-02-06T09:13:18Z</time>
      </trkpt>
      <trkpt lat="42.94303" lon="0.45411">
        <ele>1603</ele>
        <time>2014-02-06T09:14:15Z</time>
      </trkpt>
      <trkpt lat="42.94298" lon="0.45411">
        <ele>1604</ele>
        <time>2014-02-06T09:14:34Z</time>
      </trkpt>
      <trkpt lat="42.94293" lon="0.45409">
        <ele>1606</ele>
        <time>2014-02-06T09:14:41Z</time>
      </trkpt>
      <trkpt lat="42.9429" lon="0.45402">
        <ele>1605</ele>
        <time>2014-02-06T09:14:47Z</time>
      </trkpt>
      <trkpt lat="42.94287" lon="0.45397">
        <ele>1604</ele>
        <time>2014-02-06T09:14:52Z</time>
      </trkpt>
      <trkpt lat="42.94285" lon="0.45391">
        <ele>1604</ele>
        <time>2014-02-06T09:14:57Z</time>
      </trkpt>
      <trkpt lat="42.94283" lon="0.45386">
        <ele>1604</ele>
        <time>2014-02-06T09:15:02Z</time>
      </trkpt>
      <trkpt lat="42.94279" lon="0.4538">
        <ele>1602</ele>
        <time>2014-02-06T09:15:05Z</time>
      </trkpt>
      <trkpt lat="42.94276" lon="0.45374">
        <ele>1600</ele>
        <time>2014-02-06T09:15:10Z</time>
      </trkpt>
      <trkpt lat="42.94274" lon="0.45368">
        <ele>1600</ele>
        <time>2014-02-06T09:15:14Z</time>
      </trkpt>
      <trkpt lat="42.94272" lon="0.45362">
        <ele>1601</ele>
        <time>2014-02-06T09:15:18Z</time>
      </trkpt>
      <trkpt lat="42.9427" lon="0.45356">
        <ele>1601</ele>
        <time>2014-02-06T09:15:22Z</time>
      </trkpt>
      <trkpt lat="42.94268" lon="0.45347">
        <ele>1602</ele>
        <time>2014-02-06T09:15:29Z</time>
      </trkpt>
      <trkpt lat="42.94266" lon="0.45337">
        <ele>1603</ele>
        <time>2014-02-06T09:15:36Z</time>
      </trkpt>
      <trkpt lat="42.94266" lon="0.45331">
        <ele>1605</ele>
        <time>2014-02-06T09:15:42Z</time>
      </trkpt>
      <trkpt lat="42.94263" lon="0.45331">
        <ele>1607</ele>
        <time>2014-02-06T09:15:52Z</time>
      </trkpt>
      <trkpt lat="42.94262" lon="0.45324">
        <ele>1606</ele>
        <time>2014-02-06T09:15:59Z</time>
      </trkpt>
      <trkpt lat="42.94262" lon="0.4533">
        <ele>1604</ele>
        <time>2014-02-06T09:16:47Z</time>
      </trkpt>
      <trkpt lat="42.94263" lon="0.45325">
        <ele>1606</ele>
        <time>2014-02-06T09:17:21Z</time>
      </trkpt>
      <trkpt lat="42.9426" lon="0.45319">
        <ele>1607</ele>
        <time>2014-02-06T09:17:25Z</time>
      </trkpt>
      <trkpt lat="42.94257" lon="0.45314">
        <ele>1607</ele>
        <time>2014-02-06T09:17:29Z</time>
      </trkpt>
      <trkpt lat="42.94253" lon="0.45302">
        <ele>1617</ele>
        <time>2014-02-06T09:17:46Z</time>
      </trkpt>
      <trkpt lat="42.94249" lon="0.45299">
        <ele>1621</ele>
        <time>2014-02-06T09:17:53Z</time>
      </trkpt>
      <trkpt lat="42.94247" lon="0.45293">
        <ele>1623</ele>
        <time>2014-02-06T09:17:59Z</time>
      </trkpt>
      <trkpt lat="42.94244" lon="0.45287">
        <ele>1625</ele>
        <time>2014-02-06T09:18:05Z</time>
      </trkpt>
      <trkpt lat="42.94245" lon="0.4528">
        <ele>1627</ele>
        <time>2014-02-06T09:18:15Z</time>
      </trkpt>
      <trkpt lat="42.94243" lon="0.45274">
        <ele>1628</ele>
        <time>2014-02-06T09:18:24Z</time>
      </trkpt>
      <trkpt lat="42.94242" lon="0.4527">
        <ele>1629</ele>
        <time>2014-02-06T09:18:31Z</time>
      </trkpt>
      <trkpt lat="42.94239" lon="0.45265">
        <ele>1628</ele>
        <time>2014-02-06T09:18:37Z</time>
      </trkpt>
      <trkpt lat="42.94235" lon="0.4526">
        <ele>1627</ele>
        <time>2014-02-06T09:18:42Z</time>
      </trkpt>
      <trkpt lat="42.94232" lon="0.45256">
        <ele>1625</ele>
        <time>2014-02-06T09:18:46Z</time>
      </trkpt>
      <trkpt lat="42.9423" lon="0.4525">
        <ele>1624</ele>
        <time>2014-02-06T09:18:54Z</time>
      </trkpt>
      <trkpt lat="42.94228" lon="0.45245">
        <ele>1625</ele>
        <time>2014-02-06T09:18:59Z</time>
      </trkpt>
      <trkpt lat="42.94228" lon="0.45238">
        <ele>1626</ele>
        <time>2014-02-06T09:19:07Z</time>
      </trkpt>
      <trkpt lat="42.9423" lon="0.45235">
        <ele>1625</ele>
        <time>2014-02-06T09:19:30Z</time>
      </trkpt>
      <trkpt lat="42.94234" lon="0.45234">
        <ele>1623</ele>
        <time>2014-02-06T09:20:32Z</time>
      </trkpt>
      <trkpt lat="42.94235" lon="0.4523">
        <ele>1624</ele>
        <time>2014-02-06T09:20:38Z</time>
      </trkpt>
      <trkpt lat="42.94229" lon="0.45228">
        <ele>1625</ele>
        <time>2014-02-06T09:20:57Z</time>
      </trkpt>
      <trkpt lat="42.94223" lon="0.45226">
        <ele>1627</ele>
        <time>2014-02-06T09:21:01Z</time>
      </trkpt>
      <trkpt lat="42.94218" lon="0.45225">
        <ele>1628</ele>
        <time>2014-02-06T09:21:05Z</time>
      </trkpt>
      <trkpt lat="42.94211" lon="0.45224">
        <ele>1628</ele>
        <time>2014-02-06T09:21:09Z</time>
      </trkpt>
      <trkpt lat="42.94206" lon="0.45225">
        <ele>1629</ele>
        <time>2014-02-06T09:21:14Z</time>
      </trkpt>
      <trkpt lat="42.94202" lon="0.45226">
        <ele>1630</ele>
        <time>2014-02-06T09:21:24Z</time>
      </trkpt>
      <trkpt lat="42.94198" lon="0.45228">
        <ele>1632</ele>
        <time>2014-02-06T09:21:31Z</time>
      </trkpt>
      <trkpt lat="42.94196" lon="0.45235">
        <ele>1633</ele>
        <time>2014-02-06T09:21:39Z</time>
      </trkpt>
      <trkpt lat="42.94191" lon="0.45234">
        <ele>1633</ele>
        <time>2014-02-06T09:21:44Z</time>
      </trkpt>
      <trkpt lat="42.94186" lon="0.45235">
        <ele>1634</ele>
        <time>2014-02-06T09:21:56Z</time>
      </trkpt>
      <trkpt lat="42.94182" lon="0.45231">
        <ele>1635</ele>
        <time>2014-02-06T09:22:06Z</time>
      </trkpt>
      <trkpt lat="42.94172" lon="0.45231">
        <ele>1641</ele>
        <time>2014-02-06T09:22:35Z</time>
      </trkpt>
      <trkpt lat="42.94171" lon="0.45228">
        <ele>1643</ele>
        <time>2014-02-06T09:22:46Z</time>
      </trkpt>
      <trkpt lat="42.94167" lon="0.4523">
        <ele>1644</ele>
        <time>2014-02-06T09:22:57Z</time>
      </trkpt>
      <trkpt lat="42.94166" lon="0.45225">
        <ele>1646</ele>
        <time>2014-02-06T09:24:40Z</time>
      </trkpt>
      <trkpt lat="42.94163" lon="0.45219">
        <ele>1648</ele>
        <time>2014-02-06T09:24:45Z</time>
      </trkpt>
      <trkpt lat="42.9416" lon="0.45213">
        <ele>1649</ele>
        <time>2014-02-06T09:24:50Z</time>
      </trkpt>
      <trkpt lat="42.94157" lon="0.45208">
        <ele>1650</ele>
        <time>2014-02-06T09:24:54Z</time>
      </trkpt>
      <trkpt lat="42.94153" lon="0.45202">
        <ele>1650</ele>
        <time>2014-02-06T09:24:59Z</time>
      </trkpt>
      <trkpt lat="42.9415" lon="0.45198">
        <ele>1650</ele>
        <time>2014-02-06T09:25:04Z</time>
      </trkpt>
      <trkpt lat="42.94145" lon="0.45194">
        <ele>1650</ele>
        <time>2014-02-06T09:25:09Z</time>
      </trkpt>
      <trkpt lat="42.94141" lon="0.4519">
        <ele>1651</ele>
        <time>2014-02-06T09:25:13Z</time>
      </trkpt>
      <trkpt lat="42.94137" lon="0.45187">
        <ele>1651</ele>
        <time>2014-02-06T09:25:18Z</time>
      </trkpt>
      <trkpt lat="42.94132" lon="0.45183">
        <ele>1652</ele>
        <time>2014-02-06T09:25:23Z</time>
      </trkpt>
      <trkpt lat="42.94128" lon="0.45182">
        <ele>1651</ele>
        <time>2014-02-06T09:25:27Z</time>
      </trkpt>
      <trkpt lat="42.94123" lon="0.4518">
        <ele>1649</ele>
        <time>2014-02-06T09:25:32Z</time>
      </trkpt>
      <trkpt lat="42.94118" lon="0.45179">
        <ele>1647</ele>
        <time>2014-02-06T09:25:37Z</time>
      </trkpt>
      <trkpt lat="42.94113" lon="0.45179">
        <ele>1646</ele>
        <time>2014-02-06T09:25:42Z</time>
      </trkpt>
      <trkpt lat="42.94108" lon="0.45178">
        <ele>1644</ele>
        <time>2014-02-06T09:25:47Z</time>
      </trkpt>
      <trkpt lat="42.94103" lon="0.45176">
        <ele>1643</ele>
        <time>2014-02-06T09:25:52Z</time>
      </trkpt>
      <trkpt lat="42.94098" lon="0.45176">
        <ele>1643</ele>
        <time>2014-02-06T09:25:56Z</time>
      </trkpt>
      <trkpt lat="42.94094" lon="0.45174">
        <ele>1643</ele>
        <time>2014-02-06T09:26:01Z</time>
      </trkpt>
      <trkpt lat="42.94092" lon="0.45173">
        <ele>1643</ele>
        <time>2014-02-06T09:26:12Z</time>
      </trkpt>
      <trkpt lat="42.94088" lon="0.45174">
        <ele>1642</ele>
        <time>2014-02-06T09:26:30Z</time>
      </trkpt>
      <trkpt lat="42.94083" lon="0.45177">
        <ele>1642</ele>
        <time>2014-02-06T09:26:36Z</time>
      </trkpt>
      <trkpt lat="42.94079" lon="0.4518">
        <ele>1643</ele>
        <time>2014-02-06T09:26:42Z</time>
      </trkpt>
      <trkpt lat="42.94075" lon="0.45182">
        <ele>1642</ele>
        <time>2014-02-06T09:26:47Z</time>
      </trkpt>
      <trkpt lat="42.94069" lon="0.45183">
        <ele>1641</ele>
        <time>2014-02-06T09:26:52Z</time>
      </trkpt>
      <trkpt lat="42.94064" lon="0.45185">
        <ele>1641</ele>
        <time>2014-02-06T09:26:57Z</time>
      </trkpt>
      <trkpt lat="42.94058" lon="0.45188">
        <ele>1641</ele>
        <time>2014-02-06T09:27:02Z</time>
      </trkpt>
      <trkpt lat="42.94054" lon="0.4519">
        <ele>1642</ele>
        <time>2014-02-06T09:27:07Z</time>
      </trkpt>
      <trkpt lat="42.94049" lon="0.45191">
        <ele>1643</ele>
        <time>2014-02-06T09:27:15Z</time>
      </trkpt>
      <trkpt lat="42.94045" lon="0.45194">
        <ele>1645</ele>
        <time>2014-02-06T09:27:21Z</time>
      </trkpt>
      <trkpt lat="42.94036" lon="0.45199">
        <ele>1650</ele>
        <time>2014-02-06T09:27:34Z</time>
      </trkpt>
      <trkpt lat="42.94032" lon="0.45198">
        <ele>1651</ele>
        <time>2014-02-06T09:27:41Z</time>
      </trkpt>
      <trkpt lat="42.94028" lon="0.45203">
        <ele>1653</ele>
        <time>2014-02-06T09:27:47Z</time>
      </trkpt>
      <trkpt lat="42.94024" lon="0.45207">
        <ele>1654</ele>
        <time>2014-02-06T09:27:53Z</time>
      </trkpt>
      <trkpt lat="42.94021" lon="0.45211">
        <ele>1654</ele>
        <time>2014-02-06T09:28:00Z</time>
      </trkpt>
      <trkpt lat="42.9402" lon="0.45213">
        <ele>1658</ele>
        <time>2014-02-06T09:29:17Z</time>
      </trkpt>
      <trkpt lat="42.94018" lon="0.45218">
        <ele>1659</ele>
        <time>2014-02-06T09:29:46Z</time>
      </trkpt>
      <trkpt lat="42.94015" lon="0.45216">
        <ele>1663</ele>
        <time>2014-02-06T09:31:42Z</time>
      </trkpt>
      <trkpt lat="42.94012" lon="0.45217">
        <ele>1662</ele>
        <time>2014-02-06T09:34:40Z</time>
      </trkpt>
      <trkpt lat="42.94009" lon="0.45217">
        <ele>1662</ele>
        <time>2014-02-06T09:34:51Z</time>
      </trkpt>
      <trkpt lat="42.94004" lon="0.4522">
        <ele>1664</ele>
        <time>2014-02-06T09:34:57Z</time>
      </trkpt>
      <trkpt lat="42.94" lon="0.45222">
        <ele>1666</ele>
        <time>2014-02-06T09:35:02Z</time>
      </trkpt>
      <trkpt lat="42.93995" lon="0.45223">
        <ele>1668</ele>
        <time>2014-02-06T09:35:07Z</time>
      </trkpt>
      <trkpt lat="42.9399" lon="0.45226">
        <ele>1669</ele>
        <time>2014-02-06T09:35:13Z</time>
      </trkpt>
      <trkpt lat="42.93985" lon="0.45226">
        <ele>1671</ele>
        <time>2014-02-06T09:35:20Z</time>
      </trkpt>
      <trkpt lat="42.93981" lon="0.45226">
        <ele>1673</ele>
        <time>2014-02-06T09:35:26Z</time>
      </trkpt>
      <trkpt lat="42.93976" lon="0.45228">
        <ele>1675</ele>
        <time>2014-02-06T09:35:32Z</time>
      </trkpt>
      <trkpt lat="42.93971" lon="0.45227">
        <ele>1677</ele>
        <time>2014-02-06T09:35:40Z</time>
      </trkpt>
      <trkpt lat="42.93968" lon="0.45233">
        <ele>1676</ele>
        <time>2014-02-06T09:35:49Z</time>
      </trkpt>
      <trkpt lat="42.93963" lon="0.45236">
        <ele>1675</ele>
        <time>2014-02-06T09:35:57Z</time>
      </trkpt>
      <trkpt lat="42.93959" lon="0.45239">
        <ele>1677</ele>
        <time>2014-02-06T09:36:05Z</time>
      </trkpt>
      <trkpt lat="42.93954" lon="0.45241">
        <ele>1679</ele>
        <time>2014-02-06T09:36:15Z</time>
      </trkpt>
      <trkpt lat="42.93949" lon="0.45243">
        <ele>1680</ele>
        <time>2014-02-06T09:36:24Z</time>
      </trkpt>
      <trkpt lat="42.93947" lon="0.45248">
        <ele>1680</ele>
        <time>2014-02-06T09:36:33Z</time>
      </trkpt>
      <trkpt lat="42.93941" lon="0.45253">
        <ele>1680</ele>
        <time>2014-02-06T09:36:44Z</time>
      </trkpt>
      <trkpt lat="42.93936" lon="0.45254">
        <ele>1681</ele>
        <time>2014-02-06T09:36:50Z</time>
      </trkpt>
      <trkpt lat="42.93931" lon="0.45255">
        <ele>1683</ele>
        <time>2014-02-06T09:36:57Z</time>
      </trkpt>
      <trkpt lat="42.9393" lon="0.45257">
        <ele>1686</ele>
        <time>2014-02-06T09:37:15Z</time>
      </trkpt>
      <trkpt lat="42.93927" lon="0.45256">
        <ele>1685</ele>
        <time>2014-02-06T09:40:16Z</time>
      </trkpt>
      <trkpt lat="42.93922" lon="0.45256">
        <ele>1685</ele>
        <time>2014-02-06T09:40:24Z</time>
      </trkpt>
      <trkpt lat="42.93917" lon="0.45256">
        <ele>1688</ele>
        <time>2014-02-06T09:40:30Z</time>
      </trkpt>
      <trkpt lat="42.93912" lon="0.45255">
        <ele>1690</ele>
        <time>2014-02-06T09:40:35Z</time>
      </trkpt>
      <trkpt lat="42.93907" lon="0.45254">
        <ele>1691</ele>
        <time>2014-02-06T09:40:40Z</time>
      </trkpt>
      <trkpt lat="42.93903" lon="0.45253">
        <ele>1693</ele>
        <time>2014-02-06T09:40:46Z</time>
      </trkpt>
      <trkpt lat="42.93898" lon="0.45255">
        <ele>1695</ele>
        <time>2014-02-06T09:40:54Z</time>
      </trkpt>
      <trkpt lat="42.93893" lon="0.45254">
        <ele>1697</ele>
        <time>2014-02-06T09:41:01Z</time>
      </trkpt>
      <trkpt lat="42.93888" lon="0.45255">
        <ele>1699</ele>
        <time>2014-02-06T09:41:07Z</time>
      </trkpt>
      <trkpt lat="42.93884" lon="0.45254">
        <ele>1700</ele>
        <time>2014-02-06T09:41:13Z</time>
      </trkpt>
      <trkpt lat="42.93878" lon="0.45254">
        <ele>1703</ele>
        <time>2014-02-06T09:41:19Z</time>
      </trkpt>
      <trkpt lat="42.93874" lon="0.45253">
        <ele>1705</ele>
        <time>2014-02-06T09:41:25Z</time>
      </trkpt>
      <trkpt lat="42.93869" lon="0.45253">
        <ele>1707</ele>
        <time>2014-02-06T09:41:31Z</time>
      </trkpt>
      <trkpt lat="42.93864" lon="0.45252">
        <ele>1708</ele>
        <time>2014-02-06T09:41:37Z</time>
      </trkpt>
      <trkpt lat="42.9386" lon="0.45253">
        <ele>1709</ele>
        <time>2014-02-06T09:41:43Z</time>
      </trkpt>
      <trkpt lat="42.93854" lon="0.45252">
        <ele>1711</ele>
        <time>2014-02-06T09:41:50Z</time>
      </trkpt>
      <trkpt lat="42.93849" lon="0.45252">
        <ele>1713</ele>
        <time>2014-02-06T09:41:57Z</time>
      </trkpt>
      <trkpt lat="42.93847" lon="0.4525">
        <ele>1713</ele>
        <time>2014-02-06T09:42:08Z</time>
      </trkpt>
      <trkpt lat="42.9384" lon="0.4525">
        <ele>1713</ele>
        <time>2014-02-06T09:42:21Z</time>
      </trkpt>
      <trkpt lat="42.93836" lon="0.4525">
        <ele>1715</ele>
        <time>2014-02-06T09:42:27Z</time>
      </trkpt>
      <trkpt lat="42.93831" lon="0.4525">
        <ele>1716</ele>
        <time>2014-02-06T09:42:33Z</time>
      </trkpt>
      <trkpt lat="42.93826" lon="0.45248">
        <ele>1717</ele>
        <time>2014-02-06T09:42:39Z</time>
      </trkpt>
      <trkpt lat="42.93821" lon="0.45248">
        <ele>1718</ele>
        <time>2014-02-06T09:42:45Z</time>
      </trkpt>
      <trkpt lat="42.93816" lon="0.45246">
        <ele>1720</ele>
        <time>2014-02-06T09:42:51Z</time>
      </trkpt>
      <trkpt lat="42.93811" lon="0.45245">
        <ele>1721</ele>
        <time>2014-02-06T09:42:56Z</time>
      </trkpt>
      <trkpt lat="42.93807" lon="0.45244">
        <ele>1722</ele>
        <time>2014-02-06T09:43:01Z</time>
      </trkpt>
      <trkpt lat="42.93802" lon="0.45242">
        <ele>1723</ele>
        <time>2014-02-06T09:43:07Z</time>
      </trkpt>
      <trkpt lat="42.93797" lon="0.45241">
        <ele>1724</ele>
        <time>2014-02-06T09:43:14Z</time>
      </trkpt>
      <trkpt lat="42.93792" lon="0.45239">
        <ele>1725</ele>
        <time>2014-02-06T09:43:21Z</time>
      </trkpt>
      <trkpt lat="42.93787" lon="0.45237">
        <ele>1726</ele>
        <time>2014-02-06T09:43:28Z</time>
      </trkpt>
      <trkpt lat="42.93783" lon="0.45236">
        <ele>1725</ele>
        <time>2014-02-06T09:43:35Z</time>
      </trkpt>
      <trkpt lat="42.93778" lon="0.45235">
        <ele>1725</ele>
        <time>2014-02-06T09:43:43Z</time>
      </trkpt>
      <trkpt lat="42.93773" lon="0.45234">
        <ele>1726</ele>
        <time>2014-02-06T09:43:51Z</time>
      </trkpt>
      <trkpt lat="42.93769" lon="0.45231">
        <ele>1728</ele>
        <time>2014-02-06T09:43:58Z</time>
      </trkpt>
      <trkpt lat="42.93764" lon="0.45229">
        <ele>1728</ele>
        <time>2014-02-06T09:44:06Z</time>
      </trkpt>
      <trkpt lat="42.9376" lon="0.45226">
        <ele>1730</ele>
        <time>2014-02-06T09:44:13Z</time>
      </trkpt>
      <trkpt lat="42.93756" lon="0.45223">
        <ele>1732</ele>
        <time>2014-02-06T09:44:22Z</time>
      </trkpt>
      <trkpt lat="42.93754" lon="0.4522">
        <ele>1735</ele>
        <time>2014-02-06T09:44:39Z</time>
      </trkpt>
      <trkpt lat="42.93751" lon="0.45216">
        <ele>1736</ele>
        <time>2014-02-06T09:44:52Z</time>
      </trkpt>
      <trkpt lat="42.93748" lon="0.45212">
        <ele>1736</ele>
        <time>2014-02-06T09:45:01Z</time>
      </trkpt>
      <trkpt lat="42.93744" lon="0.45204">
        <ele>1738</ele>
        <time>2014-02-06T09:45:15Z</time>
      </trkpt>
      <trkpt lat="42.93743" lon="0.45198">
        <ele>1741</ele>
        <time>2014-02-06T09:45:24Z</time>
      </trkpt>
      <trkpt lat="42.93742" lon="0.45192">
        <ele>1741</ele>
        <time>2014-02-06T09:45:32Z</time>
      </trkpt>
      <trkpt lat="42.93743" lon="0.45185">
        <ele>1745</ele>
        <time>2014-02-06T09:45:51Z</time>
      </trkpt>
      <trkpt lat="42.93742" lon="0.45181">
        <ele>1747</ele>
        <time>2014-02-06T09:51:33Z</time>
      </trkpt>
      <trkpt lat="42.93741" lon="0.45175">
        <ele>1747</ele>
        <time>2014-02-06T09:51:40Z</time>
      </trkpt>
      <trkpt lat="42.93743" lon="0.45172">
        <ele>1747</ele>
        <time>2014-02-06T09:51:58Z</time>
      </trkpt>
      <trkpt lat="42.93743" lon="0.45169">
        <ele>1748</ele>
        <time>2014-02-06T09:52:05Z</time>
      </trkpt>
      <trkpt lat="42.93743" lon="0.45162">
        <ele>1749</ele>
        <time>2014-02-06T09:52:11Z</time>
      </trkpt>
      <trkpt lat="42.93744" lon="0.45156">
        <ele>1750</ele>
        <time>2014-02-06T09:52:15Z</time>
      </trkpt>
      <trkpt lat="42.93745" lon="0.45149">
        <ele>1752</ele>
        <time>2014-02-06T09:52:20Z</time>
      </trkpt>
      <trkpt lat="42.93745" lon="0.45143">
        <ele>1754</ele>
        <time>2014-02-06T09:52:26Z</time>
      </trkpt>
      <trkpt lat="42.93745" lon="0.45137">
        <ele>1755</ele>
        <time>2014-02-06T09:52:32Z</time>
      </trkpt>
      <trkpt lat="42.93746" lon="0.4513">
        <ele>1755</ele>
        <time>2014-02-06T09:52:40Z</time>
      </trkpt>
      <trkpt lat="42.93747" lon="0.45122">
        <ele>1754</ele>
        <time>2014-02-06T09:52:53Z</time>
      </trkpt>
      <trkpt lat="42.93749" lon="0.45116">
        <ele>1754</ele>
        <time>2014-02-06T09:53:01Z</time>
      </trkpt>
      <trkpt lat="42.93749" lon="0.45109">
        <ele>1753</ele>
        <time>2014-02-06T09:53:08Z</time>
      </trkpt>
      <trkpt lat="42.93747" lon="0.45103">
        <ele>1753</ele>
        <time>2014-02-06T09:53:14Z</time>
      </trkpt>
      <trkpt lat="42.93744" lon="0.45098">
        <ele>1751</ele>
        <time>2014-02-06T09:53:21Z</time>
      </trkpt>
      <trkpt lat="42.9374" lon="0.45096">
        <ele>1750</ele>
        <time>2014-02-06T09:53:26Z</time>
      </trkpt>
      <trkpt lat="42.93735" lon="0.45095">
        <ele>1749</ele>
        <time>2014-02-06T09:53:32Z</time>
      </trkpt>
      <trkpt lat="42.93734" lon="0.45099">
        <ele>1747</ele>
        <time>2014-02-06T09:54:01Z</time>
      </trkpt>
      <trkpt lat="42.93741" lon="0.451">
        <ele>1747</ele>
        <time>2014-02-06T09:54:27Z</time>
      </trkpt>
      <trkpt lat="42.93744" lon="0.451">
        <ele>1747</ele>
        <time>2014-02-06T09:54:54Z</time>
      </trkpt>
      <trkpt lat="42.93747" lon="0.45101">
        <ele>1747</ele>
        <time>2014-02-06T09:55:02Z</time>
      </trkpt>
      <trkpt lat="42.93742" lon="0.45107">
        <ele>1747</ele>
        <time>2014-02-06T09:56:00Z</time>
      </trkpt>
      <trkpt lat="42.93744" lon="0.45104">
        <ele>1750</ele>
        <time>2014-02-06T09:57:55Z</time>
      </trkpt>
      <trkpt lat="42.93744" lon="0.45101">
        <ele>1751</ele>
        <time>2014-02-06T09:58:59Z</time>
      </trkpt>
      <trkpt lat="42.93746" lon="0.45095">
        <ele>1750</ele>
        <time>2014-02-06T10:00:05Z</time>
      </trkpt>
      <trkpt lat="42.93752" lon="0.45096">
        <ele>1750</ele>
        <time>2014-02-06T10:00:18Z</time>
      </trkpt>
      <trkpt lat="42.93756" lon="0.45095">
        <ele>1749</ele>
        <time>2014-02-06T10:00:27Z</time>
      </trkpt>
      <trkpt lat="42.93756" lon="0.45089">
        <ele>1749</ele>
        <time>2014-02-06T10:01:14Z</time>
      </trkpt>
      <trkpt lat="42.93758" lon="0.45082">
        <ele>1750</ele>
        <time>2014-02-06T10:01:21Z</time>
      </trkpt>
      <trkpt lat="42.93759" lon="0.45075">
        <ele>1752</ele>
        <time>2014-02-06T10:01:27Z</time>
      </trkpt>
      <trkpt lat="42.9376" lon="0.45069">
        <ele>1753</ele>
        <time>2014-02-06T10:01:32Z</time>
      </trkpt>
      <trkpt lat="42.93763" lon="0.45063">
        <ele>1754</ele>
        <time>2014-02-06T10:01:39Z</time>
      </trkpt>
      <trkpt lat="42.93765" lon="0.45055">
        <ele>1754</ele>
        <time>2014-02-06T10:01:58Z</time>
      </trkpt>
      <trkpt lat="42.93768" lon="0.45049">
        <ele>1752</ele>
        <time>2014-02-06T10:02:08Z</time>
      </trkpt>
      <trkpt lat="42.9377" lon="0.45043">
        <ele>1751</ele>
        <time>2014-02-06T10:02:16Z</time>
      </trkpt>
      <trkpt lat="42.93771" lon="0.45037">
        <ele>1751</ele>
        <time>2014-02-06T10:02:22Z</time>
      </trkpt>
      <trkpt lat="42.93773" lon="0.45031">
        <ele>1749</ele>
        <time>2014-02-06T10:02:28Z</time>
      </trkpt>
      <trkpt lat="42.93775" lon="0.45025">
        <ele>1748</ele>
        <time>2014-02-06T10:02:34Z</time>
      </trkpt>
      <trkpt lat="42.93777" lon="0.4502">
        <ele>1746</ele>
        <time>2014-02-06T10:02:41Z</time>
      </trkpt>
      <trkpt lat="42.9378" lon="0.45014">
        <ele>1746</ele>
        <time>2014-02-06T10:02:48Z</time>
      </trkpt>
      <trkpt lat="42.93783" lon="0.45012">
        <ele>1748</ele>
        <time>2014-02-06T10:03:20Z</time>
      </trkpt>
      <trkpt lat="42.93786" lon="0.45006">
        <ele>1748</ele>
        <time>2014-02-06T10:03:29Z</time>
      </trkpt>
      <trkpt lat="42.93788" lon="0.45">
        <ele>1747</ele>
        <time>2014-02-06T10:03:35Z</time>
      </trkpt>
      <trkpt lat="42.93791" lon="0.44995">
        <ele>1747</ele>
        <time>2014-02-06T10:03:40Z</time>
      </trkpt>
      <trkpt lat="42.93794" lon="0.44989">
        <ele>1747</ele>
        <time>2014-02-06T10:03:46Z</time>
      </trkpt>
      <trkpt lat="42.93796" lon="0.44983">
        <ele>1746</ele>
        <time>2014-02-06T10:03:52Z</time>
      </trkpt>
      <trkpt lat="42.93799" lon="0.44978">
        <ele>1746</ele>
        <time>2014-02-06T10:04:00Z</time>
      </trkpt>
      <trkpt lat="42.93803" lon="0.44975">
        <ele>1746</ele>
        <time>2014-02-06T10:04:13Z</time>
      </trkpt>
      <trkpt lat="42.93806" lon="0.4497">
        <ele>1746</ele>
        <time>2014-02-06T10:04:19Z</time>
      </trkpt>
      <trkpt lat="42.93809" lon="0.44965">
        <ele>1745</ele>
        <time>2014-02-06T10:04:24Z</time>
      </trkpt>
      <trkpt lat="42.93813" lon="0.44962">
        <ele>1744</ele>
        <time>2014-02-06T10:04:30Z</time>
      </trkpt>
      <trkpt lat="42.93816" lon="0.44957">
        <ele>1743</ele>
        <time>2014-02-06T10:04:36Z</time>
      </trkpt>
      <trkpt lat="42.9382" lon="0.44953">
        <ele>1741</ele>
        <time>2014-02-06T10:04:44Z</time>
      </trkpt>
      <trkpt lat="42.93824" lon="0.4495">
        <ele>1740</ele>
        <time>2014-02-06T10:04:52Z</time>
      </trkpt>
      <trkpt lat="42.93829" lon="0.44948">
        <ele>1739</ele>
        <time>2014-02-06T10:04:59Z</time>
      </trkpt>
      <trkpt lat="42.93833" lon="0.44948">
        <ele>1738</ele>
        <time>2014-02-06T10:05:06Z</time>
      </trkpt>
      <trkpt lat="42.93838" lon="0.44945">
        <ele>1737</ele>
        <time>2014-02-06T10:05:13Z</time>
      </trkpt>
      <trkpt lat="42.93842" lon="0.44943">
        <ele>1735</ele>
        <time>2014-02-06T10:05:18Z</time>
      </trkpt>
      <trkpt lat="42.93847" lon="0.4494">
        <ele>1733</ele>
        <time>2014-02-06T10:05:23Z</time>
      </trkpt>
      <trkpt lat="42.93852" lon="0.44936">
        <ele>1732</ele>
        <time>2014-02-06T10:05:28Z</time>
      </trkpt>
      <trkpt lat="42.93856" lon="0.44932">
        <ele>1731</ele>
        <time>2014-02-06T10:05:33Z</time>
      </trkpt>
      <trkpt lat="42.93861" lon="0.44929">
        <ele>1730</ele>
        <time>2014-02-06T10:05:38Z</time>
      </trkpt>
      <trkpt lat="42.93866" lon="0.44927">
        <ele>1729</ele>
        <time>2014-02-06T10:05:42Z</time>
      </trkpt>
      <trkpt lat="42.93871" lon="0.44925">
        <ele>1726</ele>
        <time>2014-02-06T10:05:47Z</time>
      </trkpt>
      <trkpt lat="42.93875" lon="0.44923">
        <ele>1725</ele>
        <time>2014-02-06T10:05:54Z</time>
      </trkpt>
      <trkpt lat="42.9388" lon="0.44918">
        <ele>1724</ele>
        <time>2014-02-06T10:06:06Z</time>
      </trkpt>
      <trkpt lat="42.93885" lon="0.44916">
        <ele>1723</ele>
        <time>2014-02-06T10:06:12Z</time>
      </trkpt>
      <trkpt lat="42.9389" lon="0.44914">
        <ele>1723</ele>
        <time>2014-02-06T10:06:17Z</time>
      </trkpt>
      <trkpt lat="42.93895" lon="0.44912">
        <ele>1723</ele>
        <time>2014-02-06T10:06:22Z</time>
      </trkpt>
      <trkpt lat="42.939" lon="0.44912">
        <ele>1722</ele>
        <time>2014-02-06T10:06:27Z</time>
      </trkpt>
      <trkpt lat="42.93904" lon="0.44912">
        <ele>1721</ele>
        <time>2014-02-06T10:06:33Z</time>
      </trkpt>
      <trkpt lat="42.93908" lon="0.44917">
        <ele>1719</ele>
        <time>2014-02-06T10:06:58Z</time>
      </trkpt>
      <trkpt lat="42.93912" lon="0.44919">
        <ele>1717</ele>
        <time>2014-02-06T10:07:04Z</time>
      </trkpt>
      <trkpt lat="42.93917" lon="0.4492">
        <ele>1716</ele>
        <time>2014-02-06T10:07:09Z</time>
      </trkpt>
      <trkpt lat="42.93922" lon="0.44922">
        <ele>1714</ele>
        <time>2014-02-06T10:07:14Z</time>
      </trkpt>
      <trkpt lat="42.93927" lon="0.44923">
        <ele>1712</ele>
        <time>2014-02-06T10:07:18Z</time>
      </trkpt>
      <trkpt lat="42.93933" lon="0.44925">
        <ele>1710</ele>
        <time>2014-02-06T10:07:22Z</time>
      </trkpt>
      <trkpt lat="42.93938" lon="0.44925">
        <ele>1709</ele>
        <time>2014-02-06T10:07:25Z</time>
      </trkpt>
      <trkpt lat="42.93942" lon="0.44926">
        <ele>1708</ele>
        <time>2014-02-06T10:07:28Z</time>
      </trkpt>
      <trkpt lat="42.93947" lon="0.44926">
        <ele>1707</ele>
        <time>2014-02-06T10:07:31Z</time>
      </trkpt>
      <trkpt lat="42.93952" lon="0.44925">
        <ele>1706</ele>
        <time>2014-02-06T10:07:34Z</time>
      </trkpt>
      <trkpt lat="42.93957" lon="0.44925">
        <ele>1706</ele>
        <time>2014-02-06T10:07:37Z</time>
      </trkpt>
      <trkpt lat="42.93961" lon="0.44924">
        <ele>1705</ele>
        <time>2014-02-06T10:07:40Z</time>
      </trkpt>
      <trkpt lat="42.93967" lon="0.44924">
        <ele>1703</ele>
        <time>2014-02-06T10:07:43Z</time>
      </trkpt>
      <trkpt lat="42.93972" lon="0.44925">
        <ele>1701</ele>
        <time>2014-02-06T10:07:46Z</time>
      </trkpt>
      <trkpt lat="42.93977" lon="0.44924">
        <ele>1699</ele>
        <time>2014-02-06T10:07:49Z</time>
      </trkpt>
      <trkpt lat="42.93981" lon="0.44925">
        <ele>1698</ele>
        <time>2014-02-06T10:07:52Z</time>
      </trkpt>
      <trkpt lat="42.93986" lon="0.44924">
        <ele>1696</ele>
        <time>2014-02-06T10:07:55Z</time>
      </trkpt>
      <trkpt lat="42.93991" lon="0.44923">
        <ele>1695</ele>
        <time>2014-02-06T10:07:58Z</time>
      </trkpt>
      <trkpt lat="42.93996" lon="0.44923">
        <ele>1695</ele>
        <time>2014-02-06T10:08:01Z</time>
      </trkpt>
      <trkpt lat="42.93999" lon="0.44924">
        <ele>1694</ele>
        <time>2014-02-06T10:08:07Z</time>
      </trkpt>
      <trkpt lat="42.94002" lon="0.44924">
        <ele>1696</ele>
        <time>2014-02-06T10:09:17Z</time>
      </trkpt>
      <trkpt lat="42.94005" lon="0.44922">
        <ele>1695</ele>
        <time>2014-02-06T10:09:44Z</time>
      </trkpt>
      <trkpt lat="42.94005" lon="0.44918">
        <ele>1693</ele>
        <time>2014-02-06T10:12:56Z</time>
      </trkpt>
      <trkpt lat="42.9401" lon="0.44917">
        <ele>1694</ele>
        <time>2014-02-06T10:14:06Z</time>
      </trkpt>
      <trkpt lat="42.94014" lon="0.44913">
        <ele>1694</ele>
        <time>2014-02-06T10:14:11Z</time>
      </trkpt>
      <trkpt lat="42.94018" lon="0.44909">
        <ele>1693</ele>
        <time>2014-02-06T10:14:16Z</time>
      </trkpt>
      <trkpt lat="42.94023" lon="0.44907">
        <ele>1692</ele>
        <time>2014-02-06T10:14:21Z</time>
      </trkpt>
      <trkpt lat="42.94025" lon="0.44908">
        <ele>1691</ele>
        <time>2014-02-06T10:14:38Z</time>
      </trkpt>
      <trkpt lat="42.94031" lon="0.44904">
        <ele>1689</ele>
        <time>2014-02-06T10:15:15Z</time>
      </trkpt>
      <trkpt lat="42.94035" lon="0.44899">
        <ele>1689</ele>
        <time>2014-02-06T10:15:27Z</time>
      </trkpt>
      <trkpt lat="42.94038" lon="0.44894">
        <ele>1687</ele>
        <time>2014-02-06T10:15:32Z</time>
      </trkpt>
      <trkpt lat="42.94042" lon="0.4489">
        <ele>1686</ele>
        <time>2014-02-06T10:15:38Z</time>
      </trkpt>
      <trkpt lat="42.94046" lon="0.44886">
        <ele>1686</ele>
        <time>2014-02-06T10:15:44Z</time>
      </trkpt>
      <trkpt lat="42.9405" lon="0.44882">
        <ele>1687</ele>
        <time>2014-02-06T10:15:49Z</time>
      </trkpt>
      <trkpt lat="42.94054" lon="0.44878">
        <ele>1687</ele>
        <time>2014-02-06T10:15:54Z</time>
      </trkpt>
      <trkpt lat="42.94058" lon="0.44875">
        <ele>1687</ele>
        <time>2014-02-06T10:15:59Z</time>
      </trkpt>
      <trkpt lat="42.94062" lon="0.44872">
        <ele>1687</ele>
        <time>2014-02-06T10:16:05Z</time>
      </trkpt>
      <trkpt lat="42.94067" lon="0.44872">
        <ele>1686</ele>
        <time>2014-02-06T10:16:10Z</time>
      </trkpt>
      <trkpt lat="42.94072" lon="0.4487">
        <ele>1686</ele>
        <time>2014-02-06T10:16:16Z</time>
      </trkpt>
      <trkpt lat="42.94076" lon="0.4487">
        <ele>1686</ele>
        <time>2014-02-06T10:16:29Z</time>
      </trkpt>
      <trkpt lat="42.94082" lon="0.44874">
        <ele>1686</ele>
        <time>2014-02-06T10:16:39Z</time>
      </trkpt>
      <trkpt lat="42.94086" lon="0.44878">
        <ele>1686</ele>
        <time>2014-02-06T10:16:44Z</time>
      </trkpt>
      <trkpt lat="42.94088" lon="0.44884">
        <ele>1686</ele>
        <time>2014-02-06T10:16:50Z</time>
      </trkpt>
      <trkpt lat="42.94088" lon="0.4489">
        <ele>1686</ele>
        <time>2014-02-06T10:16:56Z</time>
      </trkpt>
      <trkpt lat="42.94089" lon="0.44896">
        <ele>1687</ele>
        <time>2014-02-06T10:17:01Z</time>
      </trkpt>
      <trkpt lat="42.94088" lon="0.44903">
        <ele>1688</ele>
        <time>2014-02-06T10:17:06Z</time>
      </trkpt>
      <trkpt lat="42.94084" lon="0.44908">
        <ele>1689</ele>
        <time>2014-02-06T10:17:12Z</time>
      </trkpt>
      <trkpt lat="42.94082" lon="0.44914">
        <ele>1690</ele>
        <time>2014-02-06T10:17:19Z</time>
      </trkpt>
      <trkpt lat="42.9408" lon="0.4492">
        <ele>1690</ele>
        <time>2014-02-06T10:17:26Z</time>
      </trkpt>
      <trkpt lat="42.94077" lon="0.44926">
        <ele>1690</ele>
        <time>2014-02-06T10:17:32Z</time>
      </trkpt>
      <trkpt lat="42.94072" lon="0.44929">
        <ele>1689</ele>
        <time>2014-02-06T10:17:39Z</time>
      </trkpt>
      <trkpt lat="42.9407" lon="0.44934">
        <ele>1687</ele>
        <time>2014-02-06T10:17:47Z</time>
      </trkpt>
      <trkpt lat="42.94066" lon="0.44934">
        <ele>1685</ele>
        <time>2014-02-06T10:17:57Z</time>
      </trkpt>
      <trkpt lat="42.94061" lon="0.44934">
        <ele>1684</ele>
        <time>2014-02-06T10:18:05Z</time>
      </trkpt>
      <trkpt lat="42.94056" lon="0.44937">
        <ele>1682</ele>
        <time>2014-02-06T10:18:13Z</time>
      </trkpt>
      <trkpt lat="42.94052" lon="0.44942">
        <ele>1681</ele>
        <time>2014-02-06T10:18:20Z</time>
      </trkpt>
      <trkpt lat="42.94048" lon="0.44943">
        <ele>1680</ele>
        <time>2014-02-06T10:18:27Z</time>
      </trkpt>
      <trkpt lat="42.94048" lon="0.44945">
        <ele>1681</ele>
        <time>2014-02-06T10:19:08Z</time>
      </trkpt>
      <trkpt lat="42.94046" lon="0.44951">
        <ele>1684</ele>
        <time>2014-02-06T10:19:18Z</time>
      </trkpt>
      <trkpt lat="42.94046" lon="0.44958">
        <ele>1684</ele>
        <time>2014-02-06T10:19:24Z</time>
      </trkpt>
      <trkpt lat="42.94046" lon="0.44963">
        <ele>1683</ele>
        <time>2014-02-06T10:19:34Z</time>
      </trkpt>
      <trkpt lat="42.94046" lon="0.4497">
        <ele>1683</ele>
        <time>2014-02-06T10:19:41Z</time>
      </trkpt>
      <trkpt lat="42.94046" lon="0.44976">
        <ele>1681</ele>
        <time>2014-02-06T10:19:49Z</time>
      </trkpt>
      <trkpt lat="42.94047" lon="0.44983">
        <ele>1680</ele>
        <time>2014-02-06T10:19:56Z</time>
      </trkpt>
      <trkpt lat="42.9405" lon="0.44988">
        <ele>1680</ele>
        <time>2014-02-06T10:20:02Z</time>
      </trkpt>
      <trkpt lat="42.94051" lon="0.44995">
        <ele>1679</ele>
        <time>2014-02-06T10:20:07Z</time>
      </trkpt>
      <trkpt lat="42.94053" lon="0.45002">
        <ele>1678</ele>
        <time>2014-02-06T10:20:12Z</time>
      </trkpt>
      <trkpt lat="42.94055" lon="0.45008">
        <ele>1678</ele>
        <time>2014-02-06T10:20:19Z</time>
      </trkpt>
      <trkpt lat="42.94057" lon="0.45013">
        <ele>1678</ele>
        <time>2014-02-06T10:20:26Z</time>
      </trkpt>
      <trkpt lat="42.94059" lon="0.4502">
        <ele>1677</ele>
        <time>2014-02-06T10:20:31Z</time>
      </trkpt>
      <trkpt lat="42.94062" lon="0.45026">
        <ele>1676</ele>
        <time>2014-02-06T10:20:36Z</time>
      </trkpt>
      <trkpt lat="42.94063" lon="0.45033">
        <ele>1675</ele>
        <time>2014-02-06T10:20:42Z</time>
      </trkpt>
      <trkpt lat="42.94064" lon="0.45039">
        <ele>1674</ele>
        <time>2014-02-06T10:20:47Z</time>
      </trkpt>
      <trkpt lat="42.94066" lon="0.45046">
        <ele>1674</ele>
        <time>2014-02-06T10:20:52Z</time>
      </trkpt>
      <trkpt lat="42.94067" lon="0.45053">
        <ele>1675</ele>
        <time>2014-02-06T10:20:57Z</time>
      </trkpt>
      <trkpt lat="42.94067" lon="0.4506">
        <ele>1675</ele>
        <time>2014-02-06T10:21:02Z</time>
      </trkpt>
      <trkpt lat="42.94068" lon="0.45067">
        <ele>1675</ele>
        <time>2014-02-06T10:21:07Z</time>
      </trkpt>
      <trkpt lat="42.94068" lon="0.45073">
        <ele>1674</ele>
        <time>2014-02-06T10:21:12Z</time>
      </trkpt>
      <trkpt lat="42.94069" lon="0.4508">
        <ele>1673</ele>
        <time>2014-02-06T10:21:17Z</time>
      </trkpt>
      <trkpt lat="42.94071" lon="0.45085">
        <ele>1672</ele>
        <time>2014-02-06T10:21:23Z</time>
      </trkpt>
      <trkpt lat="42.94074" lon="0.4509">
        <ele>1672</ele>
        <time>2014-02-06T10:22:12Z</time>
      </trkpt>
      <trkpt lat="42.94077" lon="0.45096">
        <ele>1670</ele>
        <time>2014-02-06T10:22:20Z</time>
      </trkpt>
      <trkpt lat="42.94078" lon="0.45102">
        <ele>1668</ele>
        <time>2014-02-06T10:22:27Z</time>
      </trkpt>
      <trkpt lat="42.94079" lon="0.45108">
        <ele>1666</ele>
        <time>2014-02-06T10:22:34Z</time>
      </trkpt>
      <trkpt lat="42.94082" lon="0.45114">
        <ele>1664</ele>
        <time>2014-02-06T10:22:41Z</time>
      </trkpt>
      <trkpt lat="42.94084" lon="0.4512">
        <ele>1662</ele>
        <time>2014-02-06T10:22:48Z</time>
      </trkpt>
      <trkpt lat="42.94087" lon="0.45125">
        <ele>1661</ele>
        <time>2014-02-06T10:22:54Z</time>
      </trkpt>
      <trkpt lat="42.94089" lon="0.45131">
        <ele>1659</ele>
        <time>2014-02-06T10:23:00Z</time>
      </trkpt>
      <trkpt lat="42.94091" lon="0.45137">
        <ele>1658</ele>
        <time>2014-02-06T10:23:06Z</time>
      </trkpt>
      <trkpt lat="42.94092" lon="0.45143">
        <ele>1658</ele>
        <time>2014-02-06T10:23:12Z</time>
      </trkpt>
      <trkpt lat="42.94095" lon="0.45149">
        <ele>1658</ele>
        <time>2014-02-06T10:23:19Z</time>
      </trkpt>
      <trkpt lat="42.94098" lon="0.45155">
        <ele>1660</ele>
        <time>2014-02-06T10:23:25Z</time>
      </trkpt>
      <trkpt lat="42.941" lon="0.45161">
        <ele>1660</ele>
        <time>2014-02-06T10:23:30Z</time>
      </trkpt>
      <trkpt lat="42.94102" lon="0.45167">
        <ele>1660</ele>
        <time>2014-02-06T10:23:35Z</time>
      </trkpt>
      <trkpt lat="42.94102" lon="0.45173">
        <ele>1660</ele>
        <time>2014-02-06T10:23:41Z</time>
      </trkpt>
      <trkpt lat="42.94101" lon="0.45176">
        <ele>1658</ele>
        <time>2014-02-06T10:27:31Z</time>
      </trkpt>
      <trkpt lat="42.94106" lon="0.45178">
        <ele>1657</ele>
        <time>2014-02-06T10:27:43Z</time>
      </trkpt>
      <trkpt lat="42.94111" lon="0.45179">
        <ele>1657</ele>
        <time>2014-02-06T10:27:49Z</time>
      </trkpt>
      <trkpt lat="42.94116" lon="0.45182">
        <ele>1656</ele>
        <time>2014-02-06T10:27:54Z</time>
      </trkpt>
      <trkpt lat="42.9412" lon="0.45182">
        <ele>1656</ele>
        <time>2014-02-06T10:28:02Z</time>
      </trkpt>
      <trkpt lat="42.94125" lon="0.45185">
        <ele>1657</ele>
        <time>2014-02-06T10:28:10Z</time>
      </trkpt>
      <trkpt lat="42.9413" lon="0.45187">
        <ele>1657</ele>
        <time>2014-02-06T10:28:15Z</time>
      </trkpt>
      <trkpt lat="42.94135" lon="0.4519">
        <ele>1657</ele>
        <time>2014-02-06T10:28:20Z</time>
      </trkpt>
      <trkpt lat="42.94139" lon="0.45193">
        <ele>1658</ele>
        <time>2014-02-06T10:28:25Z</time>
      </trkpt>
      <trkpt lat="42.94142" lon="0.45197">
        <ele>1660</ele>
        <time>2014-02-06T10:28:30Z</time>
      </trkpt>
      <trkpt lat="42.94147" lon="0.45201">
        <ele>1661</ele>
        <time>2014-02-06T10:28:42Z</time>
      </trkpt>
      <trkpt lat="42.9415" lon="0.45205">
        <ele>1661</ele>
        <time>2014-02-06T10:28:48Z</time>
      </trkpt>
      <trkpt lat="42.94154" lon="0.45209">
        <ele>1660</ele>
        <time>2014-02-06T10:28:54Z</time>
      </trkpt>
      <trkpt lat="42.94158" lon="0.45214">
        <ele>1659</ele>
        <time>2014-02-06T10:29:00Z</time>
      </trkpt>
      <trkpt lat="42.94161" lon="0.4522">
        <ele>1658</ele>
        <time>2014-02-06T10:29:05Z</time>
      </trkpt>
      <trkpt lat="42.94163" lon="0.45226">
        <ele>1658</ele>
        <time>2014-02-06T10:29:10Z</time>
      </trkpt>
      <trkpt lat="42.94167" lon="0.45231">
        <ele>1657</ele>
        <time>2014-02-06T10:29:15Z</time>
      </trkpt>
      <trkpt lat="42.94169" lon="0.45236">
        <ele>1656</ele>
        <time>2014-02-06T10:29:22Z</time>
      </trkpt>
      <trkpt lat="42.94173" lon="0.45239">
        <ele>1654</ele>
        <time>2014-02-06T10:29:30Z</time>
      </trkpt>
      <trkpt lat="42.94179" lon="0.45239">
        <ele>1652</ele>
        <time>2014-02-06T10:29:44Z</time>
      </trkpt>
      <trkpt lat="42.94183" lon="0.45236">
        <ele>1649</ele>
        <time>2014-02-06T10:29:51Z</time>
      </trkpt>
      <trkpt lat="42.94187" lon="0.45234">
        <ele>1649</ele>
        <time>2014-02-06T10:29:57Z</time>
      </trkpt>
      <trkpt lat="42.94192" lon="0.45234">
        <ele>1647</ele>
        <time>2014-02-06T10:30:06Z</time>
      </trkpt>
      <trkpt lat="42.94197" lon="0.45234">
        <ele>1646</ele>
        <time>2014-02-06T10:30:13Z</time>
      </trkpt>
      <trkpt lat="42.94201" lon="0.45232">
        <ele>1645</ele>
        <time>2014-02-06T10:30:19Z</time>
      </trkpt>
      <trkpt lat="42.94206" lon="0.45231">
        <ele>1646</ele>
        <time>2014-02-06T10:30:25Z</time>
      </trkpt>
      <trkpt lat="42.94208" lon="0.45232">
        <ele>1639</ele>
        <time>2014-02-06T10:32:42Z</time>
      </trkpt>
      <trkpt lat="42.94212" lon="0.45231">
        <ele>1638</ele>
        <time>2014-02-06T10:32:47Z</time>
      </trkpt>
      <trkpt lat="42.94218" lon="0.4523">
        <ele>1634</ele>
        <time>2014-02-06T10:32:51Z</time>
      </trkpt>
      <trkpt lat="42.94226" lon="0.45236">
        <ele>1626</ele>
        <time>2014-02-06T10:32:57Z</time>
      </trkpt>
      <trkpt lat="42.94229" lon="0.45242">
        <ele>1624</ele>
        <time>2014-02-06T10:33:01Z</time>
      </trkpt>
      <trkpt lat="42.94229" lon="0.45249">
        <ele>1623</ele>
        <time>2014-02-06T10:33:06Z</time>
      </trkpt>
      <trkpt lat="42.94231" lon="0.45255">
        <ele>1622</ele>
        <time>2014-02-06T10:33:12Z</time>
      </trkpt>
      <trkpt lat="42.94234" lon="0.45262">
        <ele>1621</ele>
        <time>2014-02-06T10:33:16Z</time>
      </trkpt>
      <trkpt lat="42.94235" lon="0.45268">
        <ele>1621</ele>
        <time>2014-02-06T10:33:19Z</time>
      </trkpt>
      <trkpt lat="42.94237" lon="0.45274">
        <ele>1621</ele>
        <time>2014-02-06T10:33:23Z</time>
      </trkpt>
      <trkpt lat="42.9424" lon="0.4528">
        <ele>1620</ele>
        <time>2014-02-06T10:33:29Z</time>
      </trkpt>
      <trkpt lat="42.9424" lon="0.45286">
        <ele>1618</ele>
        <time>2014-02-06T10:33:33Z</time>
      </trkpt>
      <trkpt lat="42.94242" lon="0.45292">
        <ele>1617</ele>
        <time>2014-02-06T10:33:36Z</time>
      </trkpt>
      <trkpt lat="42.94245" lon="0.45298">
        <ele>1618</ele>
        <time>2014-02-06T10:33:39Z</time>
      </trkpt>
      <trkpt lat="42.94247" lon="0.45303">
        <ele>1618</ele>
        <time>2014-02-06T10:33:42Z</time>
      </trkpt>
      <trkpt lat="42.9425" lon="0.45308">
        <ele>1618</ele>
        <time>2014-02-06T10:33:46Z</time>
      </trkpt>
      <trkpt lat="42.94254" lon="0.45313">
        <ele>1618</ele>
        <time>2014-02-06T10:33:52Z</time>
      </trkpt>
      <trkpt lat="42.94257" lon="0.45315">
        <ele>1617</ele>
        <time>2014-02-06T10:34:00Z</time>
      </trkpt>
      <trkpt lat="42.94259" lon="0.45319">
        <ele>1616</ele>
        <time>2014-02-06T10:35:03Z</time>
      </trkpt>
      <trkpt lat="42.94263" lon="0.45321">
        <ele>1616</ele>
        <time>2014-02-06T10:35:08Z</time>
      </trkpt>
      <trkpt lat="42.94267" lon="0.45326">
        <ele>1617</ele>
        <time>2014-02-06T10:35:13Z</time>
      </trkpt>
      <trkpt lat="42.9427" lon="0.4533">
        <ele>1617</ele>
        <time>2014-02-06T10:35:19Z</time>
      </trkpt>
      <trkpt lat="42.94273" lon="0.45335">
        <ele>1617</ele>
        <time>2014-02-06T10:35:26Z</time>
      </trkpt>
      <trkpt lat="42.94275" lon="0.45341">
        <ele>1617</ele>
        <time>2014-02-06T10:35:31Z</time>
      </trkpt>
      <trkpt lat="42.94276" lon="0.45349">
        <ele>1616</ele>
        <time>2014-02-06T10:35:35Z</time>
      </trkpt>
      <trkpt lat="42.94277" lon="0.45356">
        <ele>1615</ele>
        <time>2014-02-06T10:35:40Z</time>
      </trkpt>
      <trkpt lat="42.94276" lon="0.4536">
        <ele>1613</ele>
        <time>2014-02-06T10:35:52Z</time>
      </trkpt>
      <trkpt lat="42.94278" lon="0.45367">
        <ele>1612</ele>
        <time>2014-02-06T10:35:59Z</time>
      </trkpt>
      <trkpt lat="42.9428" lon="0.45372">
        <ele>1611</ele>
        <time>2014-02-06T10:36:05Z</time>
      </trkpt>
      <trkpt lat="42.9428" lon="0.45367">
        <ele>1605</ele>
        <time>2014-02-06T10:38:12Z</time>
      </trkpt>
      <trkpt lat="42.94285" lon="0.45363">
        <ele>1605</ele>
        <time>2014-02-06T10:38:21Z</time>
      </trkpt>
      <trkpt lat="42.94293" lon="0.45339">
        <ele>1593</ele>
        <time>2014-02-06T10:38:58Z</time>
      </trkpt>
      <trkpt lat="42.94294" lon="0.45332">
        <ele>1591</ele>
        <time>2014-02-06T10:39:05Z</time>
      </trkpt>
      <trkpt lat="42.94296" lon="0.45326">
        <ele>1589</ele>
        <time>2014-02-06T10:39:12Z</time>
      </trkpt>
      <trkpt lat="42.94297" lon="0.45319">
        <ele>1586</ele>
        <time>2014-02-06T10:39:18Z</time>
      </trkpt>
      <trkpt lat="42.94297" lon="0.45313">
        <ele>1585</ele>
        <time>2014-02-06T10:39:23Z</time>
      </trkpt>
      <trkpt lat="42.94299" lon="0.45306">
        <ele>1584</ele>
        <time>2014-02-06T10:39:28Z</time>
      </trkpt>
      <trkpt lat="42.94301" lon="0.453">
        <ele>1584</ele>
        <time>2014-02-06T10:39:32Z</time>
      </trkpt>
      <trkpt lat="42.94304" lon="0.45294">
        <ele>1584</ele>
        <time>2014-02-06T10:39:37Z</time>
      </trkpt>
      <trkpt lat="42.94306" lon="0.45288">
        <ele>1585</ele>
        <time>2014-02-06T10:39:43Z</time>
      </trkpt>
      <trkpt lat="42.94309" lon="0.45281">
        <ele>1586</ele>
        <time>2014-02-06T10:39:49Z</time>
      </trkpt>
      <trkpt lat="42.94309" lon="0.45275">
        <ele>1587</ele>
        <time>2014-02-06T10:39:56Z</time>
      </trkpt>
      <trkpt lat="42.94312" lon="0.45269">
        <ele>1589</ele>
        <time>2014-02-06T10:40:04Z</time>
      </trkpt>
      <trkpt lat="42.94315" lon="0.45266">
        <ele>1589</ele>
        <time>2014-02-06T10:40:12Z</time>
      </trkpt>
      <trkpt lat="42.94317" lon="0.45259">
        <ele>1589</ele>
        <time>2014-02-06T10:40:19Z</time>
      </trkpt>
      <trkpt lat="42.9432" lon="0.45253">
        <ele>1588</ele>
        <time>2014-02-06T10:40:26Z</time>
      </trkpt>
      <trkpt lat="42.94323" lon="0.45248">
        <ele>1588</ele>
        <time>2014-02-06T10:40:32Z</time>
      </trkpt>
      <trkpt lat="42.94326" lon="0.45242">
        <ele>1588</ele>
        <time>2014-02-06T10:40:39Z</time>
      </trkpt>
      <trkpt lat="42.9433" lon="0.45237">
        <ele>1589</ele>
        <time>2014-02-06T10:40:45Z</time>
      </trkpt>
      <trkpt lat="42.94333" lon="0.45232">
        <ele>1590</ele>
        <time>2014-02-06T10:40:50Z</time>
      </trkpt>
      <trkpt lat="42.94336" lon="0.45227">
        <ele>1591</ele>
        <time>2014-02-06T10:40:54Z</time>
      </trkpt>
      <trkpt lat="42.94338" lon="0.45221">
        <ele>1591</ele>
        <time>2014-02-06T10:40:59Z</time>
      </trkpt>
      <trkpt lat="42.94342" lon="0.45217">
        <ele>1593</ele>
        <time>2014-02-06T10:41:06Z</time>
      </trkpt>
      <trkpt lat="42.94346" lon="0.45212">
        <ele>1594</ele>
        <time>2014-02-06T10:41:12Z</time>
      </trkpt>
      <trkpt lat="42.94349" lon="0.45208">
        <ele>1595</ele>
        <time>2014-02-06T10:41:18Z</time>
      </trkpt>
      <trkpt lat="42.94352" lon="0.45203">
        <ele>1597</ele>
        <time>2014-02-06T10:41:23Z</time>
      </trkpt>
      <trkpt lat="42.94354" lon="0.45197">
        <ele>1597</ele>
        <time>2014-02-06T10:41:33Z</time>
      </trkpt>
      <trkpt lat="42.94357" lon="0.45191">
        <ele>1599</ele>
        <time>2014-02-06T10:41:40Z</time>
      </trkpt>
      <trkpt lat="42.94361" lon="0.4519">
        <ele>1600</ele>
        <time>2014-02-06T10:41:47Z</time>
      </trkpt>
      <trkpt lat="42.94367" lon="0.45194">
        <ele>1602</ele>
        <time>2014-02-06T10:41:57Z</time>
      </trkpt>
      <trkpt lat="42.94372" lon="0.45192">
        <ele>1605</ele>
        <time>2014-02-06T10:42:03Z</time>
      </trkpt>
      <trkpt lat="42.94393" lon="0.45177">
        <ele>1615</ele>
        <time>2014-02-06T10:42:34Z</time>
      </trkpt>
      <trkpt lat="42.94397" lon="0.45176">
        <ele>1618</ele>
        <time>2014-02-06T10:42:44Z</time>
      </trkpt>
      <trkpt lat="42.94402" lon="0.45172">
        <ele>1620</ele>
        <time>2014-02-06T10:42:52Z</time>
      </trkpt>
      <trkpt lat="42.94406" lon="0.45169">
        <ele>1621</ele>
        <time>2014-02-06T10:42:59Z</time>
      </trkpt>
      <trkpt lat="42.94413" lon="0.4517">
        <ele>1626</ele>
        <time>2014-02-06T10:43:20Z</time>
      </trkpt>
      <trkpt lat="42.94412" lon="0.45164">
        <ele>1628</ele>
        <time>2014-02-06T10:43:25Z</time>
      </trkpt>
      <trkpt lat="42.94416" lon="0.45161">
        <ele>1629</ele>
        <time>2014-02-06T10:43:31Z</time>
      </trkpt>
      <trkpt lat="42.94421" lon="0.45158">
        <ele>1631</ele>
        <time>2014-02-06T10:43:38Z</time>
      </trkpt>
      <trkpt lat="42.94426" lon="0.45158">
        <ele>1633</ele>
        <time>2014-02-06T10:43:46Z</time>
      </trkpt>
      <trkpt lat="42.94431" lon="0.45156">
        <ele>1633</ele>
        <time>2014-02-06T10:43:54Z</time>
      </trkpt>
      <trkpt lat="42.94437" lon="0.45153">
        <ele>1633</ele>
        <time>2014-02-06T10:44:01Z</time>
      </trkpt>
      <trkpt lat="42.94441" lon="0.45153">
        <ele>1633</ele>
        <time>2014-02-06T10:44:09Z</time>
      </trkpt>
      <trkpt lat="42.94446" lon="0.45151">
        <ele>1633</ele>
        <time>2014-02-06T10:44:19Z</time>
      </trkpt>
      <trkpt lat="42.94453" lon="0.45149">
        <ele>1633</ele>
        <time>2014-02-06T10:44:34Z</time>
      </trkpt>
      <trkpt lat="42.94455" lon="0.45147">
        <ele>1635</ele>
        <time>2014-02-06T10:44:45Z</time>
      </trkpt>
      <trkpt lat="42.94462" lon="0.45144">
        <ele>1636</ele>
        <time>2014-02-06T10:45:04Z</time>
      </trkpt>
      <trkpt lat="42.94466" lon="0.4514">
        <ele>1638</ele>
        <time>2014-02-06T10:45:09Z</time>
      </trkpt>
      <trkpt lat="42.94471" lon="0.45139">
        <ele>1639</ele>
        <time>2014-02-06T10:45:16Z</time>
      </trkpt>
      <trkpt lat="42.94474" lon="0.45136">
        <ele>1640</ele>
        <time>2014-02-06T10:45:27Z</time>
      </trkpt>
      <trkpt lat="42.94477" lon="0.45138">
        <ele>1642</ele>
        <time>2014-02-06T10:45:39Z</time>
      </trkpt>
      <trkpt lat="42.94481" lon="0.45135">
        <ele>1645</ele>
        <time>2014-02-06T10:45:47Z</time>
      </trkpt>
      <trkpt lat="42.94488" lon="0.45121">
        <ele>1655</ele>
        <time>2014-02-06T10:46:16Z</time>
      </trkpt>
      <trkpt lat="42.9449" lon="0.45115">
        <ele>1655</ele>
        <time>2014-02-06T10:46:21Z</time>
      </trkpt>
      <trkpt lat="42.9449" lon="0.4511">
        <ele>1655</ele>
        <time>2014-02-06T10:46:31Z</time>
      </trkpt>
      <trkpt lat="42.94487" lon="0.4511">
        <ele>1655</ele>
        <time>2014-02-06T10:47:00Z</time>
      </trkpt>
      <trkpt lat="42.94486" lon="0.45114">
        <ele>1655</ele>
        <time>2014-02-06T10:47:32Z</time>
      </trkpt>
      <trkpt lat="42.94486" lon="0.45115">
        <ele>1651</ele>
        <time>2014-02-06T10:48:56Z</time>
      </trkpt>
      <trkpt lat="42.94487" lon="0.45106">
        <ele>1650</ele>
        <time>2014-02-06T10:49:11Z</time>
      </trkpt>
      <trkpt lat="42.94486" lon="0.45102">
        <ele>1651</ele>
        <time>2014-02-06T10:49:28Z</time>
      </trkpt>
      <trkpt lat="42.94488" lon="0.45107">
        <ele>1649</ele>
        <time>2014-02-06T10:50:30Z</time>
      </trkpt>
      <trkpt lat="42.94491" lon="0.45104">
        <ele>1649</ele>
        <time>2014-02-06T10:52:12Z</time>
      </trkpt>
      <trkpt lat="42.94494" lon="0.45097">
        <ele>1649</ele>
        <time>2014-02-06T10:52:19Z</time>
      </trkpt>
      <trkpt lat="42.94496" lon="0.45092">
        <ele>1650</ele>
        <time>2014-02-06T10:52:26Z</time>
      </trkpt>
      <trkpt lat="42.94499" lon="0.45089">
        <ele>1650</ele>
        <time>2014-02-06T10:52:38Z</time>
      </trkpt>
      <trkpt lat="42.94504" lon="0.4509">
        <ele>1652</ele>
        <time>2014-02-06T10:52:44Z</time>
      </trkpt>
      <trkpt lat="42.94509" lon="0.4509">
        <ele>1654</ele>
        <time>2014-02-06T10:52:53Z</time>
      </trkpt>
      <trkpt lat="42.94513" lon="0.45087">
        <ele>1653</ele>
        <time>2014-02-06T10:53:02Z</time>
      </trkpt>
      <trkpt lat="42.94518" lon="0.45085">
        <ele>1653</ele>
        <time>2014-02-06T10:53:11Z</time>
      </trkpt>
      <trkpt lat="42.9452" lon="0.45084">
        <ele>1654</ele>
        <time>2014-02-06T10:53:17Z</time>
      </trkpt>
      <trkpt lat="42.94522" lon="0.45082">
        <ele>1654</ele>
        <time>2014-02-06T10:53:23Z</time>
      </trkpt>
      <trkpt lat="42.94527" lon="0.45082">
        <ele>1654</ele>
        <time>2014-02-06T10:53:31Z</time>
      </trkpt>
      <trkpt lat="42.94533" lon="0.45081">
        <ele>1656</ele>
        <time>2014-02-06T10:53:46Z</time>
      </trkpt>
      <trkpt lat="42.94538" lon="0.4508">
        <ele>1656</ele>
        <time>2014-02-06T10:53:53Z</time>
      </trkpt>
      <trkpt lat="42.94543" lon="0.45077">
        <ele>1658</ele>
        <time>2014-02-06T10:54:00Z</time>
      </trkpt>
      <trkpt lat="42.94548" lon="0.45076">
        <ele>1658</ele>
        <time>2014-02-06T10:54:05Z</time>
      </trkpt>
      <trkpt lat="42.94552" lon="0.45076">
        <ele>1658</ele>
        <time>2014-02-06T10:54:09Z</time>
      </trkpt>
      <trkpt lat="42.94557" lon="0.45074">
        <ele>1658</ele>
        <time>2014-02-06T10:54:14Z</time>
      </trkpt>
      <trkpt lat="42.94562" lon="0.45072">
        <ele>1657</ele>
        <time>2014-02-06T10:54:20Z</time>
      </trkpt>
      <trkpt lat="42.94567" lon="0.45072">
        <ele>1658</ele>
        <time>2014-02-06T10:54:28Z</time>
      </trkpt>
      <trkpt lat="42.94571" lon="0.45069">
        <ele>1658</ele>
        <time>2014-02-06T10:54:34Z</time>
      </trkpt>
      <trkpt lat="42.94576" lon="0.45067">
        <ele>1660</ele>
        <time>2014-02-06T10:54:37Z</time>
      </trkpt>
      <trkpt lat="42.9458" lon="0.45066">
        <ele>1658</ele>
        <time>2014-02-06T10:56:13Z</time>
      </trkpt>
      <trkpt lat="42.94585" lon="0.45068">
        <ele>1657</ele>
        <time>2014-02-06T10:56:19Z</time>
      </trkpt>
      <trkpt lat="42.9459" lon="0.45067">
        <ele>1659</ele>
        <time>2014-02-06T10:56:28Z</time>
      </trkpt>
      <trkpt lat="42.94594" lon="0.45066">
        <ele>1661</ele>
        <time>2014-02-06T10:56:35Z</time>
      </trkpt>
      <trkpt lat="42.94599" lon="0.45065">
        <ele>1663</ele>
        <time>2014-02-06T10:56:44Z</time>
      </trkpt>
      <trkpt lat="42.94604" lon="0.45064">
        <ele>1663</ele>
        <time>2014-02-06T10:56:50Z</time>
      </trkpt>
      <trkpt lat="42.94607" lon="0.4506">
        <ele>1663</ele>
        <time>2014-02-06T10:56:59Z</time>
      </trkpt>
      <trkpt lat="42.94612" lon="0.4506">
        <ele>1662</ele>
        <time>2014-02-06T10:57:06Z</time>
      </trkpt>
      <trkpt lat="42.94617" lon="0.45059">
        <ele>1661</ele>
        <time>2014-02-06T10:57:12Z</time>
      </trkpt>
      <trkpt lat="42.94622" lon="0.45056">
        <ele>1661</ele>
        <time>2014-02-06T10:57:17Z</time>
      </trkpt>
      <trkpt lat="42.94626" lon="0.45055">
        <ele>1661</ele>
        <time>2014-02-06T10:57:23Z</time>
      </trkpt>
      <trkpt lat="42.94631" lon="0.45055">
        <ele>1658</ele>
        <time>2014-02-06T10:57:30Z</time>
      </trkpt>
      <trkpt lat="42.94636" lon="0.45052">
        <ele>1657</ele>
        <time>2014-02-06T10:57:36Z</time>
      </trkpt>
      <trkpt lat="42.9464" lon="0.45049">
        <ele>1658</ele>
        <time>2014-02-06T10:57:43Z</time>
      </trkpt>
      <trkpt lat="42.94645" lon="0.45048">
        <ele>1660</ele>
        <time>2014-02-06T10:57:49Z</time>
      </trkpt>
      <trkpt lat="42.94648" lon="0.45042">
        <ele>1660</ele>
        <time>2014-02-06T10:57:57Z</time>
      </trkpt>
      <trkpt lat="42.9466" lon="0.45035">
        <ele>1669</ele>
        <time>2014-02-06T10:58:21Z</time>
      </trkpt>
      <trkpt lat="42.94664" lon="0.45031">
        <ele>1670</ele>
        <time>2014-02-06T10:58:26Z</time>
      </trkpt>
      <trkpt lat="42.9467" lon="0.45028">
        <ele>1669</ele>
        <time>2014-02-06T10:58:33Z</time>
      </trkpt>
      <trkpt lat="42.94674" lon="0.45025">
        <ele>1669</ele>
        <time>2014-02-06T10:58:37Z</time>
      </trkpt>
      <trkpt lat="42.94679" lon="0.45023">
        <ele>1669</ele>
        <time>2014-02-06T10:58:42Z</time>
      </trkpt>
      <trkpt lat="42.94682" lon="0.45018">
        <ele>1669</ele>
        <time>2014-02-06T10:58:51Z</time>
      </trkpt>
      <trkpt lat="42.94687" lon="0.45018">
        <ele>1671</ele>
        <time>2014-02-06T10:59:00Z</time>
      </trkpt>
      <trkpt lat="42.94692" lon="0.45019">
        <ele>1672</ele>
        <time>2014-02-06T10:59:07Z</time>
      </trkpt>
      <trkpt lat="42.94696" lon="0.45017">
        <ele>1672</ele>
        <time>2014-02-06T10:59:14Z</time>
      </trkpt>
      <trkpt lat="42.94699" lon="0.45015">
        <ele>1672</ele>
        <time>2014-02-06T10:59:29Z</time>
      </trkpt>
      <trkpt lat="42.94703" lon="0.45016">
        <ele>1671</ele>
        <time>2014-02-06T10:59:38Z</time>
      </trkpt>
      <trkpt lat="42.94707" lon="0.45014">
        <ele>1673</ele>
        <time>2014-02-06T10:59:46Z</time>
      </trkpt>
      <trkpt lat="42.94712" lon="0.45014">
        <ele>1674</ele>
        <time>2014-02-06T10:59:56Z</time>
      </trkpt>
      <trkpt lat="42.94711" lon="0.45009">
        <ele>1674</ele>
        <time>2014-02-06T11:00:07Z</time>
      </trkpt>
      <trkpt lat="42.94713" lon="0.45003">
        <ele>1676</ele>
        <time>2014-02-06T11:00:20Z</time>
      </trkpt>
      <trkpt lat="42.9471" lon="0.45005">
        <ele>1675</ele>
        <time>2014-02-06T11:01:56Z</time>
      </trkpt>
      <trkpt lat="42.9471" lon="0.45009">
        <ele>1675</ele>
        <time>2014-02-06T11:02:04Z</time>
      </trkpt>
      <trkpt lat="42.94712" lon="0.45008">
        <ele>1677</ele>
        <time>2014-02-06T11:03:17Z</time>
      </trkpt>
      <trkpt lat="42.94716" lon="0.45002">
        <ele>1677</ele>
        <time>2014-02-06T11:03:20Z</time>
      </trkpt>
      <trkpt lat="42.9472" lon="0.44997">
        <ele>1677</ele>
        <time>2014-02-06T11:03:24Z</time>
      </trkpt>
      <trkpt lat="42.94723" lon="0.44992">
        <ele>1678</ele>
        <time>2014-02-06T11:03:30Z</time>
      </trkpt>
      <trkpt lat="42.94725" lon="0.44985">
        <ele>1679</ele>
        <time>2014-02-06T11:03:36Z</time>
      </trkpt>
      <trkpt lat="42.94728" lon="0.4498">
        <ele>1680</ele>
        <time>2014-02-06T11:03:41Z</time>
      </trkpt>
      <trkpt lat="42.94732" lon="0.44975">
        <ele>1681</ele>
        <time>2014-02-06T11:03:48Z</time>
      </trkpt>
      <trkpt lat="42.94734" lon="0.44969">
        <ele>1681</ele>
        <time>2014-02-06T11:03:53Z</time>
      </trkpt>
      <trkpt lat="42.94736" lon="0.44963">
        <ele>1681</ele>
        <time>2014-02-06T11:03:58Z</time>
      </trkpt>
      <trkpt lat="42.94739" lon="0.44959">
        <ele>1681</ele>
        <time>2014-02-06T11:04:05Z</time>
      </trkpt>
      <trkpt lat="42.94744" lon="0.44952">
        <ele>1682</ele>
        <time>2014-02-06T11:04:23Z</time>
      </trkpt>
      <trkpt lat="42.94748" lon="0.44948">
        <ele>1684</ele>
        <time>2014-02-06T11:04:30Z</time>
      </trkpt>
      <trkpt lat="42.94752" lon="0.44945">
        <ele>1686</ele>
        <time>2014-02-06T11:04:35Z</time>
      </trkpt>
      <trkpt lat="42.94755" lon="0.44948">
        <ele>1689</ele>
        <time>2014-02-06T11:05:40Z</time>
      </trkpt>
      <trkpt lat="42.94758" lon="0.44944">
        <ele>1689</ele>
        <time>2014-02-06T11:05:43Z</time>
      </trkpt>
      <trkpt lat="42.94763" lon="0.44938">
        <ele>1690</ele>
        <time>2014-02-06T11:05:45Z</time>
      </trkpt>
      <trkpt lat="42.94765" lon="0.44935">
        <ele>1690</ele>
        <time>2014-02-06T11:05:46Z</time>
      </trkpt>
      <trkpt lat="42.94767" lon="0.44932">
        <ele>1691</ele>
        <time>2014-02-06T11:05:47Z</time>
      </trkpt>
      <trkpt lat="42.94769" lon="0.44929">
        <ele>1691</ele>
        <time>2014-02-06T11:05:48Z</time>
      </trkpt>
      <trkpt lat="42.94771" lon="0.44927">
        <ele>1692</ele>
        <time>2014-02-06T11:05:49Z</time>
      </trkpt>
      <trkpt lat="42.94773" lon="0.44923">
        <ele>1692</ele>
        <time>2014-02-06T11:05:51Z</time>
      </trkpt>
      <trkpt lat="42.94779" lon="0.44917">
        <ele>1693</ele>
        <time>2014-02-06T11:06:05Z</time>
      </trkpt>
      <trkpt lat="42.94783" lon="0.44913">
        <ele>1693</ele>
        <time>2014-02-06T11:06:11Z</time>
      </trkpt>
      <trkpt lat="42.94787" lon="0.44909">
        <ele>1694</ele>
        <time>2014-02-06T11:06:16Z</time>
      </trkpt>
      <trkpt lat="42.94789" lon="0.44904">
        <ele>1696</ele>
        <time>2014-02-06T11:06:21Z</time>
      </trkpt>
      <trkpt lat="42.94792" lon="0.44903">
        <ele>1696</ele>
        <time>2014-02-06T11:06:36Z</time>
      </trkpt>
      <trkpt lat="42.94795" lon="0.44898">
        <ele>1695</ele>
        <time>2014-02-06T11:06:42Z</time>
      </trkpt>
      <trkpt lat="42.94799" lon="0.44895">
        <ele>1694</ele>
        <time>2014-02-06T11:06:46Z</time>
      </trkpt>
      <trkpt lat="42.94804" lon="0.44892">
        <ele>1695</ele>
        <time>2014-02-06T11:06:51Z</time>
      </trkpt>
      <trkpt lat="42.94808" lon="0.44888">
        <ele>1695</ele>
        <time>2014-02-06T11:06:56Z</time>
      </trkpt>
      <trkpt lat="42.94812" lon="0.44883">
        <ele>1693</ele>
        <time>2014-02-06T11:07:01Z</time>
      </trkpt>
      <trkpt lat="42.94816" lon="0.44879">
        <ele>1692</ele>
        <time>2014-02-06T11:07:06Z</time>
      </trkpt>
      <trkpt lat="42.9482" lon="0.44877">
        <ele>1691</ele>
        <time>2014-02-06T11:07:11Z</time>
      </trkpt>
      <trkpt lat="42.94825" lon="0.44876">
        <ele>1691</ele>
        <time>2014-02-06T11:07:16Z</time>
      </trkpt>
      <trkpt lat="42.94829" lon="0.44873">
        <ele>1690</ele>
        <time>2014-02-06T11:07:21Z</time>
      </trkpt>
      <trkpt lat="42.94835" lon="0.44872">
        <ele>1690</ele>
        <time>2014-02-06T11:07:27Z</time>
      </trkpt>
      <trkpt lat="42.94839" lon="0.44868">
        <ele>1692</ele>
        <time>2014-02-06T11:07:32Z</time>
      </trkpt>
      <trkpt lat="42.94843" lon="0.44865">
        <ele>1693</ele>
        <time>2014-02-06T11:07:36Z</time>
      </trkpt>
      <trkpt lat="42.94847" lon="0.44861">
        <ele>1694</ele>
        <time>2014-02-06T11:07:40Z</time>
      </trkpt>
      <trkpt lat="42.94849" lon="0.44856">
        <ele>1694</ele>
        <time>2014-02-06T11:08:03Z</time>
      </trkpt>
      <trkpt lat="42.94851" lon="0.44851">
        <ele>1694</ele>
        <time>2014-02-06T11:08:09Z</time>
      </trkpt>
      <trkpt lat="42.94855" lon="0.44846">
        <ele>1694</ele>
        <time>2014-02-06T11:08:16Z</time>
      </trkpt>
      <trkpt lat="42.94858" lon="0.44853">
        <ele>1693</ele>
        <time>2014-02-06T11:08:46Z</time>
      </trkpt>
      <trkpt lat="42.94861" lon="0.44858">
        <ele>1697</ele>
        <time>2014-02-06T11:10:38Z</time>
      </trkpt>
      <trkpt lat="42.94859" lon="0.4486">
        <ele>1697</ele>
        <time>2014-02-06T11:11:15Z</time>
      </trkpt>
      <trkpt lat="42.94858" lon="0.44863">
        <ele>1697</ele>
        <time>2014-02-06T11:12:34Z</time>
      </trkpt>
      <trkpt lat="42.94853" lon="0.44865">
        <ele>1697</ele>
        <time>2014-02-06T11:12:41Z</time>
      </trkpt>
      <trkpt lat="42.94848" lon="0.44868">
        <ele>1696</ele>
        <time>2014-02-06T11:12:47Z</time>
      </trkpt>
      <trkpt lat="42.94844" lon="0.44872">
        <ele>1695</ele>
        <time>2014-02-06T11:12:52Z</time>
      </trkpt>
      <trkpt lat="42.94839" lon="0.44874">
        <ele>1695</ele>
        <time>2014-02-06T11:12:56Z</time>
      </trkpt>
      <trkpt lat="42.94835" lon="0.44876">
        <ele>1694</ele>
        <time>2014-02-06T11:13:01Z</time>
      </trkpt>
      <trkpt lat="42.9483" lon="0.44881">
        <ele>1693</ele>
        <time>2014-02-06T11:13:06Z</time>
      </trkpt>
      <trkpt lat="42.94826" lon="0.44883">
        <ele>1692</ele>
        <time>2014-02-06T11:13:11Z</time>
      </trkpt>
      <trkpt lat="42.9482" lon="0.44884">
        <ele>1692</ele>
        <time>2014-02-06T11:13:16Z</time>
      </trkpt>
      <trkpt lat="42.94815" lon="0.44885">
        <ele>1691</ele>
        <time>2014-02-06T11:13:20Z</time>
      </trkpt>
      <trkpt lat="42.94811" lon="0.44887">
        <ele>1691</ele>
        <time>2014-02-06T11:13:24Z</time>
      </trkpt>
      <trkpt lat="42.94806" lon="0.44889">
        <ele>1689</ele>
        <time>2014-02-06T11:13:31Z</time>
      </trkpt>
      <trkpt lat="42.94801" lon="0.44896">
        <ele>1689</ele>
        <time>2014-02-06T11:13:43Z</time>
      </trkpt>
      <trkpt lat="42.94798" lon="0.44902">
        <ele>1689</ele>
        <time>2014-02-06T11:13:48Z</time>
      </trkpt>
      <trkpt lat="42.94795" lon="0.44907">
        <ele>1688</ele>
        <time>2014-02-06T11:13:53Z</time>
      </trkpt>
      <trkpt lat="42.94791" lon="0.44911">
        <ele>1687</ele>
        <time>2014-02-06T11:14:00Z</time>
      </trkpt>
      <trkpt lat="42.94788" lon="0.44916">
        <ele>1688</ele>
        <time>2014-02-06T11:14:10Z</time>
      </trkpt>
      <trkpt lat="42.94785" lon="0.44921">
        <ele>1689</ele>
        <time>2014-02-06T11:14:14Z</time>
      </trkpt>
      <trkpt lat="42.9478" lon="0.44924">
        <ele>1691</ele>
        <time>2014-02-06T11:14:19Z</time>
      </trkpt>
      <trkpt lat="42.94776" lon="0.44927">
        <ele>1691</ele>
        <time>2014-02-06T11:14:24Z</time>
      </trkpt>
      <trkpt lat="42.94772" lon="0.44931">
        <ele>1690</ele>
        <time>2014-02-06T11:14:29Z</time>
      </trkpt>
      <trkpt lat="42.94768" lon="0.44935">
        <ele>1689</ele>
        <time>2014-02-06T11:14:34Z</time>
      </trkpt>
      <trkpt lat="42.94764" lon="0.44938">
        <ele>1687</ele>
        <time>2014-02-06T11:14:40Z</time>
      </trkpt>
      <trkpt lat="42.94759" lon="0.44941">
        <ele>1687</ele>
        <time>2014-02-06T11:14:46Z</time>
      </trkpt>
      <trkpt lat="42.94758" lon="0.44946">
        <ele>1688</ele>
        <time>2014-02-06T11:15:04Z</time>
      </trkpt>
      <trkpt lat="42.94753" lon="0.44948">
        <ele>1688</ele>
        <time>2014-02-06T11:15:12Z</time>
      </trkpt>
      <trkpt lat="42.9475" lon="0.44953">
        <ele>1686</ele>
        <time>2014-02-06T11:15:19Z</time>
      </trkpt>
      <trkpt lat="42.94745" lon="0.44955">
        <ele>1685</ele>
        <time>2014-02-06T11:15:25Z</time>
      </trkpt>
      <trkpt lat="42.94741" lon="0.44957">
        <ele>1684</ele>
        <time>2014-02-06T11:15:31Z</time>
      </trkpt>
      <trkpt lat="42.94737" lon="0.44961">
        <ele>1682</ele>
        <time>2014-02-06T11:15:38Z</time>
      </trkpt>
      <trkpt lat="42.94734" lon="0.44962">
        <ele>1681</ele>
        <time>2014-02-06T11:15:49Z</time>
      </trkpt>
      <trkpt lat="42.94729" lon="0.44969">
        <ele>1680</ele>
        <time>2014-02-06T11:16:01Z</time>
      </trkpt>
      <trkpt lat="42.94727" lon="0.44975">
        <ele>1680</ele>
        <time>2014-02-06T11:16:08Z</time>
      </trkpt>
      <trkpt lat="42.94724" lon="0.4498">
        <ele>1679</ele>
        <time>2014-02-06T11:16:13Z</time>
      </trkpt>
      <trkpt lat="42.9472" lon="0.44985">
        <ele>1679</ele>
        <time>2014-02-06T11:16:18Z</time>
      </trkpt>
      <trkpt lat="42.94716" lon="0.44991">
        <ele>1679</ele>
        <time>2014-02-06T11:16:23Z</time>
      </trkpt>
      <trkpt lat="42.94714" lon="0.44996">
        <ele>1679</ele>
        <time>2014-02-06T11:16:27Z</time>
      </trkpt>
      <trkpt lat="42.94711" lon="0.45002">
        <ele>1679</ele>
        <time>2014-02-06T11:16:31Z</time>
      </trkpt>
      <trkpt lat="42.9471" lon="0.45009">
        <ele>1678</ele>
        <time>2014-02-06T11:16:36Z</time>
      </trkpt>
      <trkpt lat="42.94708" lon="0.45016">
        <ele>1676</ele>
        <time>2014-02-06T11:16:41Z</time>
      </trkpt>
      <trkpt lat="42.94706" lon="0.45023">
        <ele>1674</ele>
        <time>2014-02-06T11:16:46Z</time>
      </trkpt>
      <trkpt lat="42.94703" lon="0.45029">
        <ele>1673</ele>
        <time>2014-02-06T11:16:50Z</time>
      </trkpt>
      <trkpt lat="42.94701" lon="0.45035">
        <ele>1673</ele>
        <time>2014-02-06T11:16:54Z</time>
      </trkpt>
      <trkpt lat="42.94699" lon="0.45041">
        <ele>1673</ele>
        <time>2014-02-06T11:16:58Z</time>
      </trkpt>
      <trkpt lat="42.94698" lon="0.45047">
        <ele>1672</ele>
        <time>2014-02-06T11:17:02Z</time>
      </trkpt>
      <trkpt lat="42.94696" lon="0.45053">
        <ele>1672</ele>
        <time>2014-02-06T11:17:06Z</time>
      </trkpt>
      <trkpt lat="42.94694" lon="0.45059">
        <ele>1673</ele>
        <time>2014-02-06T11:17:10Z</time>
      </trkpt>
      <trkpt lat="42.94692" lon="0.45065">
        <ele>1673</ele>
        <time>2014-02-06T11:17:14Z</time>
      </trkpt>
      <trkpt lat="42.94688" lon="0.4507">
        <ele>1673</ele>
        <time>2014-02-06T11:17:19Z</time>
      </trkpt>
      <trkpt lat="42.94684" lon="0.45075">
        <ele>1673</ele>
        <time>2014-02-06T11:17:24Z</time>
      </trkpt>
      <trkpt lat="42.9468" lon="0.4508">
        <ele>1671</ele>
        <time>2014-02-06T11:17:29Z</time>
      </trkpt>
      <trkpt lat="42.94677" lon="0.45084">
        <ele>1669</ele>
        <time>2014-02-06T11:17:34Z</time>
      </trkpt>
      <trkpt lat="42.94671" lon="0.45085">
        <ele>1669</ele>
        <time>2014-02-06T11:17:39Z</time>
      </trkpt>
      <trkpt lat="42.94666" lon="0.45085">
        <ele>1669</ele>
        <time>2014-02-06T11:17:44Z</time>
      </trkpt>
      <trkpt lat="42.94662" lon="0.45084">
        <ele>1668</ele>
        <time>2014-02-06T11:17:48Z</time>
      </trkpt>
      <trkpt lat="42.94657" lon="0.45083">
        <ele>1667</ele>
        <time>2014-02-06T11:17:52Z</time>
      </trkpt>
      <trkpt lat="42.94652" lon="0.45084">
        <ele>1667</ele>
        <time>2014-02-06T11:17:57Z</time>
      </trkpt>
      <trkpt lat="42.94646" lon="0.45083">
        <ele>1665</ele>
        <time>2014-02-06T11:18:02Z</time>
      </trkpt>
      <trkpt lat="42.94642" lon="0.45083">
        <ele>1664</ele>
        <time>2014-02-06T11:18:06Z</time>
      </trkpt>
      <trkpt lat="42.94637" lon="0.45082">
        <ele>1664</ele>
        <time>2014-02-06T11:18:10Z</time>
      </trkpt>
      <trkpt lat="42.94633" lon="0.45079">
        <ele>1664</ele>
        <time>2014-02-06T11:18:14Z</time>
      </trkpt>
      <trkpt lat="42.94628" lon="0.45077">
        <ele>1663</ele>
        <time>2014-02-06T11:18:19Z</time>
      </trkpt>
      <trkpt lat="42.94623" lon="0.45077">
        <ele>1663</ele>
        <time>2014-02-06T11:18:23Z</time>
      </trkpt>
      <trkpt lat="42.94618" lon="0.45076">
        <ele>1663</ele>
        <time>2014-02-06T11:18:27Z</time>
      </trkpt>
      <trkpt lat="42.94614" lon="0.45076">
        <ele>1664</ele>
        <time>2014-02-06T11:18:31Z</time>
      </trkpt>
      <trkpt lat="42.94609" lon="0.45076">
        <ele>1663</ele>
        <time>2014-02-06T11:18:35Z</time>
      </trkpt>
      <trkpt lat="42.94604" lon="0.45076">
        <ele>1662</ele>
        <time>2014-02-06T11:18:39Z</time>
      </trkpt>
      <trkpt lat="42.94599" lon="0.45076">
        <ele>1660</ele>
        <time>2014-02-06T11:18:44Z</time>
      </trkpt>
      <trkpt lat="42.94594" lon="0.45075">
        <ele>1660</ele>
        <time>2014-02-06T11:18:49Z</time>
      </trkpt>
      <trkpt lat="42.94589" lon="0.45077">
        <ele>1659</ele>
        <time>2014-02-06T11:18:53Z</time>
      </trkpt>
      <trkpt lat="42.94584" lon="0.45077">
        <ele>1658</ele>
        <time>2014-02-06T11:18:57Z</time>
      </trkpt>
      <trkpt lat="42.94579" lon="0.45079">
        <ele>1658</ele>
        <time>2014-02-06T11:19:02Z</time>
      </trkpt>
      <trkpt lat="42.94574" lon="0.4508">
        <ele>1658</ele>
        <time>2014-02-06T11:19:06Z</time>
      </trkpt>
      <trkpt lat="42.94569" lon="0.4508">
        <ele>1658</ele>
        <time>2014-02-06T11:19:10Z</time>
      </trkpt>
      <trkpt lat="42.94564" lon="0.45083">
        <ele>1658</ele>
        <time>2014-02-06T11:19:14Z</time>
      </trkpt>
      <trkpt lat="42.9456" lon="0.45083">
        <ele>1657</ele>
        <time>2014-02-06T11:19:18Z</time>
      </trkpt>
      <trkpt lat="42.94555" lon="0.45084">
        <ele>1656</ele>
        <time>2014-02-06T11:19:22Z</time>
      </trkpt>
      <trkpt lat="42.94551" lon="0.45084">
        <ele>1654</ele>
        <time>2014-02-06T11:19:26Z</time>
      </trkpt>
      <trkpt lat="42.94546" lon="0.45085">
        <ele>1652</ele>
        <time>2014-02-06T11:19:30Z</time>
      </trkpt>
      <trkpt lat="42.94541" lon="0.45088">
        <ele>1650</ele>
        <time>2014-02-06T11:19:34Z</time>
      </trkpt>
      <trkpt lat="42.94537" lon="0.45089">
        <ele>1649</ele>
        <time>2014-02-06T11:19:38Z</time>
      </trkpt>
      <trkpt lat="42.94531" lon="0.4509">
        <ele>1648</ele>
        <time>2014-02-06T11:19:43Z</time>
      </trkpt>
      <trkpt lat="42.94526" lon="0.4509">
        <ele>1647</ele>
        <time>2014-02-06T11:19:48Z</time>
      </trkpt>
      <trkpt lat="42.94521" lon="0.45091">
        <ele>1646</ele>
        <time>2014-02-06T11:19:53Z</time>
      </trkpt>
      <trkpt lat="42.94516" lon="0.4509">
        <ele>1644</ele>
        <time>2014-02-06T11:19:58Z</time>
      </trkpt>
      <trkpt lat="42.94511" lon="0.45091">
        <ele>1643</ele>
        <time>2014-02-06T11:20:03Z</time>
      </trkpt>
      <trkpt lat="42.94507" lon="0.45095">
        <ele>1642</ele>
        <time>2014-02-06T11:20:07Z</time>
      </trkpt>
      <trkpt lat="42.94504" lon="0.451">
        <ele>1642</ele>
        <time>2014-02-06T11:20:11Z</time>
      </trkpt>
      <trkpt lat="42.94499" lon="0.45102">
        <ele>1641</ele>
        <time>2014-02-06T11:20:15Z</time>
      </trkpt>
      <trkpt lat="42.94494" lon="0.45102">
        <ele>1639</ele>
        <time>2014-02-06T11:20:20Z</time>
      </trkpt>
      <trkpt lat="42.94489" lon="0.45101">
        <ele>1639</ele>
        <time>2014-02-06T11:20:24Z</time>
      </trkpt>
      <trkpt lat="42.94485" lon="0.45105">
        <ele>1638</ele>
        <time>2014-02-06T11:20:29Z</time>
      </trkpt>
      <trkpt lat="42.94483" lon="0.45112">
        <ele>1639</ele>
        <time>2014-02-06T11:20:33Z</time>
      </trkpt>
      <trkpt lat="42.94481" lon="0.45117">
        <ele>1638</ele>
        <time>2014-02-06T11:20:38Z</time>
      </trkpt>
      <trkpt lat="42.94478" lon="0.45122">
        <ele>1637</ele>
        <time>2014-02-06T11:20:44Z</time>
      </trkpt>
      <trkpt lat="42.94474" lon="0.45126">
        <ele>1636</ele>
        <time>2014-02-06T11:20:50Z</time>
      </trkpt>
      <trkpt lat="42.94469" lon="0.45126">
        <ele>1637</ele>
        <time>2014-02-06T11:20:59Z</time>
      </trkpt>
      <trkpt lat="42.94467" lon="0.4513">
        <ele>1638</ele>
        <time>2014-02-06T11:21:10Z</time>
      </trkpt>
      <trkpt lat="42.94468" lon="0.45133">
        <ele>1638</ele>
        <time>2014-02-06T11:21:23Z</time>
      </trkpt>
      <trkpt lat="42.94462" lon="0.45135">
        <ele>1639</ele>
        <time>2014-02-06T11:22:11Z</time>
      </trkpt>
      <trkpt lat="42.94458" lon="0.45137">
        <ele>1639</ele>
        <time>2014-02-06T11:22:14Z</time>
      </trkpt>
      <trkpt lat="42.94453" lon="0.4514">
        <ele>1639</ele>
        <time>2014-02-06T11:22:17Z</time>
      </trkpt>
      <trkpt lat="42.94448" lon="0.45143">
        <ele>1639</ele>
        <time>2014-02-06T11:22:21Z</time>
      </trkpt>
      <trkpt lat="42.94444" lon="0.45145">
        <ele>1639</ele>
        <time>2014-02-06T11:22:24Z</time>
      </trkpt>
      <trkpt lat="42.94439" lon="0.45147">
        <ele>1638</ele>
        <time>2014-02-06T11:22:29Z</time>
      </trkpt>
      <trkpt lat="42.94434" lon="0.45149">
        <ele>1637</ele>
        <time>2014-02-06T11:22:33Z</time>
      </trkpt>
      <trkpt lat="42.94428" lon="0.4515">
        <ele>1637</ele>
        <time>2014-02-06T11:22:36Z</time>
      </trkpt>
      <trkpt lat="42.94423" lon="0.45153">
        <ele>1636</ele>
        <time>2014-02-06T11:22:39Z</time>
      </trkpt>
      <trkpt lat="42.94419" lon="0.45156">
        <ele>1635</ele>
        <time>2014-02-06T11:22:42Z</time>
      </trkpt>
      <trkpt lat="42.94414" lon="0.45158">
        <ele>1634</ele>
        <time>2014-02-06T11:22:45Z</time>
      </trkpt>
      <trkpt lat="42.94408" lon="0.45159">
        <ele>1632</ele>
        <time>2014-02-06T11:22:48Z</time>
      </trkpt>
      <trkpt lat="42.94408" lon="0.45163">
        <ele>1629</ele>
        <time>2014-02-06T11:22:56Z</time>
      </trkpt>
      <trkpt lat="42.94404" lon="0.45166">
        <ele>1627</ele>
        <time>2014-02-06T11:23:02Z</time>
      </trkpt>
      <trkpt lat="42.94399" lon="0.45167">
        <ele>1626</ele>
        <time>2014-02-06T11:23:06Z</time>
      </trkpt>
      <trkpt lat="42.94393" lon="0.45168">
        <ele>1625</ele>
        <time>2014-02-06T11:23:10Z</time>
      </trkpt>
      <trkpt lat="42.94389" lon="0.45169">
        <ele>1624</ele>
        <time>2014-02-06T11:23:13Z</time>
      </trkpt>
      <trkpt lat="42.94384" lon="0.45172">
        <ele>1623</ele>
        <time>2014-02-06T11:23:16Z</time>
      </trkpt>
      <trkpt lat="42.94379" lon="0.45176">
        <ele>1622</ele>
        <time>2014-02-06T11:23:19Z</time>
      </trkpt>
      <trkpt lat="42.94373" lon="0.45178">
        <ele>1621</ele>
        <time>2014-02-06T11:23:22Z</time>
      </trkpt>
      <trkpt lat="42.94367" lon="0.45178">
        <ele>1620</ele>
        <time>2014-02-06T11:23:25Z</time>
      </trkpt>
      <trkpt lat="42.94363" lon="0.45182">
        <ele>1620</ele>
        <time>2014-02-06T11:23:28Z</time>
      </trkpt>
      <trkpt lat="42.94362" lon="0.45188">
        <ele>1620</ele>
        <time>2014-02-06T11:23:33Z</time>
      </trkpt>
      <trkpt lat="42.94364" lon="0.45189">
        <ele>1619</ele>
        <time>2014-02-06T11:23:45Z</time>
      </trkpt>
      <trkpt lat="42.94363" lon="0.45195">
        <ele>1617</ele>
        <time>2014-02-06T11:23:55Z</time>
      </trkpt>
      <trkpt lat="42.9436" lon="0.45195">
        <ele>1616</ele>
        <time>2014-02-06T11:24:01Z</time>
      </trkpt>
      <trkpt lat="42.94356" lon="0.45198">
        <ele>1616</ele>
        <time>2014-02-06T11:24:07Z</time>
      </trkpt>
      <trkpt lat="42.9435" lon="0.45203">
        <ele>1616</ele>
        <time>2014-02-06T11:24:10Z</time>
      </trkpt>
      <trkpt lat="42.94346" lon="0.45208">
        <ele>1616</ele>
        <time>2014-02-06T11:24:12Z</time>
      </trkpt>
      <trkpt lat="42.94342" lon="0.45212">
        <ele>1615</ele>
        <time>2014-02-06T11:24:14Z</time>
      </trkpt>
      <trkpt lat="42.94337" lon="0.45216">
        <ele>1615</ele>
        <time>2014-02-06T11:24:16Z</time>
      </trkpt>
      <trkpt lat="42.94333" lon="0.45219">
        <ele>1615</ele>
        <time>2014-02-06T11:24:18Z</time>
      </trkpt>
      <trkpt lat="42.94328" lon="0.45222">
        <ele>1615</ele>
        <time>2014-02-06T11:24:20Z</time>
      </trkpt>
      <trkpt lat="42.94326" lon="0.45224">
        <ele>1615</ele>
        <time>2014-02-06T11:24:21Z</time>
      </trkpt>
      <trkpt lat="42.94324" lon="0.45225">
        <ele>1615</ele>
        <time>2014-02-06T11:24:22Z</time>
      </trkpt>
      <trkpt lat="42.94322" lon="0.45227">
        <ele>1615</ele>
        <time>2014-02-06T11:24:23Z</time>
      </trkpt>
      <trkpt lat="42.9432" lon="0.45229">
        <ele>1615</ele>
        <time>2014-02-06T11:24:24Z</time>
      </trkpt>
      <trkpt lat="42.94318" lon="0.45234">
        <ele>1614</ele>
        <time>2014-02-06T11:24:26Z</time>
      </trkpt>
      <trkpt lat="42.94317" lon="0.45239">
        <ele>1614</ele>
        <time>2014-02-06T11:24:28Z</time>
      </trkpt>
      <trkpt lat="42.94317" lon="0.45242">
        <ele>1612</ele>
        <time>2014-02-06T11:24:30Z</time>
      </trkpt>
      <trkpt lat="42.94317" lon="0.45254">
        <ele>1607</ele>
        <time>2014-02-06T11:24:37Z</time>
      </trkpt>
      <trkpt lat="42.9431" lon="0.45281">
        <ele>1598</ele>
        <time>2014-02-06T11:24:57Z</time>
      </trkpt>
      <trkpt lat="42.94309" lon="0.45288">
        <ele>1597</ele>
        <time>2014-02-06T11:25:02Z</time>
      </trkpt>
      <trkpt lat="42.94308" lon="0.45295">
        <ele>1596</ele>
        <time>2014-02-06T11:25:07Z</time>
      </trkpt>
      <trkpt lat="42.94305" lon="0.45301">
        <ele>1595</ele>
        <time>2014-02-06T11:25:12Z</time>
      </trkpt>
      <trkpt lat="42.94302" lon="0.45307">
        <ele>1595</ele>
        <time>2014-02-06T11:25:17Z</time>
      </trkpt>
      <trkpt lat="42.94301" lon="0.45313">
        <ele>1595</ele>
        <time>2014-02-06T11:25:21Z</time>
      </trkpt>
      <trkpt lat="42.94299" lon="0.4532">
        <ele>1594</ele>
        <time>2014-02-06T11:25:26Z</time>
      </trkpt>
      <trkpt lat="42.94297" lon="0.45326">
        <ele>1593</ele>
        <time>2014-02-06T11:25:30Z</time>
      </trkpt>
      <trkpt lat="42.94296" lon="0.45332">
        <ele>1593</ele>
        <time>2014-02-06T11:25:34Z</time>
      </trkpt>
      <trkpt lat="42.94296" lon="0.45339">
        <ele>1592</ele>
        <time>2014-02-06T11:25:38Z</time>
      </trkpt>
      <trkpt lat="42.94295" lon="0.45346">
        <ele>1592</ele>
        <time>2014-02-06T11:25:42Z</time>
      </trkpt>
      <trkpt lat="42.94294" lon="0.45353">
        <ele>1590</ele>
        <time>2014-02-06T11:25:46Z</time>
      </trkpt>
      <trkpt lat="42.94292" lon="0.45358">
        <ele>1590</ele>
        <time>2014-02-06T11:25:50Z</time>
      </trkpt>
      <trkpt lat="42.94289" lon="0.45363">
        <ele>1589</ele>
        <time>2014-02-06T11:25:54Z</time>
      </trkpt>
      <trkpt lat="42.94287" lon="0.45369">
        <ele>1589</ele>
        <time>2014-02-06T11:25:58Z</time>
      </trkpt>
      <trkpt lat="42.94286" lon="0.45375">
        <ele>1588</ele>
        <time>2014-02-06T11:26:02Z</time>
      </trkpt>
      <trkpt lat="42.94288" lon="0.45382">
        <ele>1588</ele>
        <time>2014-02-06T11:26:06Z</time>
      </trkpt>
      <trkpt lat="42.9429" lon="0.45383">
        <ele>1588</ele>
        <time>2014-02-06T11:26:12Z</time>
      </trkpt>
      <trkpt lat="42.94293" lon="0.45388">
        <ele>1587</ele>
        <time>2014-02-06T11:26:19Z</time>
      </trkpt>
      <trkpt lat="42.94295" lon="0.45393">
        <ele>1587</ele>
        <time>2014-02-06T11:26:25Z</time>
      </trkpt>
      <trkpt lat="42.94298" lon="0.45399">
        <ele>1589</ele>
        <time>2014-02-06T11:26:31Z</time>
      </trkpt>
      <trkpt lat="42.943" lon="0.45405">
        <ele>1590</ele>
        <time>2014-02-06T11:26:37Z</time>
      </trkpt>
      <trkpt lat="42.94305" lon="0.45409">
        <ele>1592</ele>
        <time>2014-02-06T11:26:42Z</time>
      </trkpt>
      <trkpt lat="42.94309" lon="0.4541">
        <ele>1593</ele>
        <time>2014-02-06T11:26:46Z</time>
      </trkpt>
      <trkpt lat="42.94314" lon="0.45413">
        <ele>1594</ele>
        <time>2014-02-06T11:26:51Z</time>
      </trkpt>
      <trkpt lat="42.94318" lon="0.45416">
        <ele>1595</ele>
        <time>2014-02-06T11:26:56Z</time>
      </trkpt>
      <trkpt lat="42.94323" lon="0.45419">
        <ele>1597</ele>
        <time>2014-02-06T11:27:04Z</time>
      </trkpt>
      <trkpt lat="42.94327" lon="0.45422">
        <ele>1599</ele>
        <time>2014-02-06T11:27:11Z</time>
      </trkpt>
      <trkpt lat="42.9433" lon="0.45427">
        <ele>1600</ele>
        <time>2014-02-06T11:27:17Z</time>
      </trkpt>
      <trkpt lat="42.94334" lon="0.45431">
        <ele>1600</ele>
        <time>2014-02-06T11:27:24Z</time>
      </trkpt>
      <trkpt lat="42.94339" lon="0.45434">
        <ele>1601</ele>
        <time>2014-02-06T11:27:30Z</time>
      </trkpt>
      <trkpt lat="42.94344" lon="0.45433">
        <ele>1600</ele>
        <time>2014-02-06T11:27:34Z</time>
      </trkpt>
      <trkpt lat="42.94348" lon="0.45434">
        <ele>1600</ele>
        <time>2014-02-06T11:27:38Z</time>
      </trkpt>
      <trkpt lat="42.94352" lon="0.45439">
        <ele>1599</ele>
        <time>2014-02-06T11:27:43Z</time>
      </trkpt>
      <trkpt lat="42.94352" lon="0.45445">
        <ele>1598</ele>
        <time>2014-02-06T11:27:48Z</time>
      </trkpt>
      <trkpt lat="42.94352" lon="0.45452">
        <ele>1597</ele>
        <time>2014-02-06T11:27:53Z</time>
      </trkpt>
      <trkpt lat="42.94351" lon="0.45459">
        <ele>1597</ele>
        <time>2014-02-06T11:27:59Z</time>
      </trkpt>
      <trkpt lat="42.94354" lon="0.45464">
        <ele>1596</ele>
        <time>2014-02-06T11:28:05Z</time>
      </trkpt>
      <trkpt lat="42.94356" lon="0.45467">
        <ele>1594</ele>
        <time>2014-02-06T11:28:23Z</time>
      </trkpt>
      <trkpt lat="42.94358" lon="0.4547">
        <ele>1583</ele>
        <time>2014-02-06T11:30:53Z</time>
      </trkpt>
      <trkpt lat="42.94364" lon="0.45471">
        <ele>1583</ele>
        <time>2014-02-06T11:31:46Z</time>
      </trkpt>
      <trkpt lat="42.94367" lon="0.45471">
        <ele>1579</ele>
        <time>2014-02-06T11:33:45Z</time>
      </trkpt>
      <trkpt lat="42.9437" lon="0.45474">
        <ele>1579</ele>
        <time>2014-02-06T11:33:53Z</time>
      </trkpt>
      <trkpt lat="42.94369" lon="0.45482">
        <ele>1580</ele>
        <time>2014-02-06T11:34:14Z</time>
      </trkpt>
      <trkpt lat="42.94374" lon="0.45489">
        <ele>1580</ele>
        <time>2014-02-06T11:34:27Z</time>
      </trkpt>
      <trkpt lat="42.94374" lon="0.45495">
        <ele>1581</ele>
        <time>2014-02-06T11:34:37Z</time>
      </trkpt>
      <trkpt lat="42.94378" lon="0.45514">
        <ele>1589</ele>
        <time>2014-02-06T11:34:59Z</time>
      </trkpt>
      <trkpt lat="42.9438" lon="0.4552">
        <ele>1590</ele>
        <time>2014-02-06T11:35:05Z</time>
      </trkpt>
      <trkpt lat="42.94381" lon="0.45527">
        <ele>1589</ele>
        <time>2014-02-06T11:35:11Z</time>
      </trkpt>
      <trkpt lat="42.94382" lon="0.45534">
        <ele>1587</ele>
        <time>2014-02-06T11:35:17Z</time>
      </trkpt>
      <trkpt lat="42.94383" lon="0.4554">
        <ele>1587</ele>
        <time>2014-02-06T11:35:21Z</time>
      </trkpt>
      <trkpt lat="42.94385" lon="0.45546">
        <ele>1585</ele>
        <time>2014-02-06T11:35:25Z</time>
      </trkpt>
      <trkpt lat="42.94386" lon="0.45553">
        <ele>1583</ele>
        <time>2014-02-06T11:35:31Z</time>
      </trkpt>
      <trkpt lat="42.94387" lon="0.45561">
        <ele>1581</ele>
        <time>2014-02-06T11:35:36Z</time>
      </trkpt>
      <trkpt lat="42.94391" lon="0.45588">
        <ele>1570</ele>
        <time>2014-02-06T11:35:59Z</time>
      </trkpt>
      <trkpt lat="42.94391" lon="0.45595">
        <ele>1570</ele>
        <time>2014-02-06T11:36:06Z</time>
      </trkpt>
      <trkpt lat="42.94392" lon="0.45601">
        <ele>1571</ele>
        <time>2014-02-06T11:36:14Z</time>
      </trkpt>
      <trkpt lat="42.94392" lon="0.45607">
        <ele>1571</ele>
        <time>2014-02-06T11:36:22Z</time>
      </trkpt>
      <trkpt lat="42.94396" lon="0.45611">
        <ele>1570</ele>
        <time>2014-02-06T11:36:30Z</time>
      </trkpt>
      <trkpt lat="42.944" lon="0.45614">
        <ele>1579</ele>
        <time>2014-02-06T11:38:40Z</time>
      </trkpt>
      <trkpt lat="42.94401" lon="0.4562">
        <ele>1581</ele>
        <time>2014-02-06T11:38:45Z</time>
      </trkpt>
      <trkpt lat="42.944" lon="0.45627">
        <ele>1582</ele>
        <time>2014-02-06T11:38:50Z</time>
      </trkpt>
      <trkpt lat="42.94402" lon="0.45633">
        <ele>1584</ele>
        <time>2014-02-06T11:38:55Z</time>
      </trkpt>
      <trkpt lat="42.94405" lon="0.45639">
        <ele>1584</ele>
        <time>2014-02-06T11:39:00Z</time>
      </trkpt>
      <trkpt lat="42.94406" lon="0.45646">
        <ele>1582</ele>
        <time>2014-02-06T11:39:05Z</time>
      </trkpt>
      <trkpt lat="42.94405" lon="0.45652">
        <ele>1581</ele>
        <time>2014-02-06T11:39:10Z</time>
      </trkpt>
      <trkpt lat="42.94406" lon="0.45666">
        <ele>1576</ele>
        <time>2014-02-06T11:39:22Z</time>
      </trkpt>
      <trkpt lat="42.94403" lon="0.45671">
        <ele>1575</ele>
        <time>2014-02-06T11:39:29Z</time>
      </trkpt>
      <trkpt lat="42.94402" lon="0.45677">
        <ele>1576</ele>
        <time>2014-02-06T11:39:37Z</time>
      </trkpt>
      <trkpt lat="42.94403" lon="0.45681">
        <ele>1574</ele>
        <time>2014-02-06T11:39:45Z</time>
      </trkpt>
      <trkpt lat="42.94401" lon="0.45684">
        <ele>1574</ele>
        <time>2014-02-06T11:39:51Z</time>
      </trkpt>
      <trkpt lat="42.94398" lon="0.45691">
        <ele>1572</ele>
        <time>2014-02-06T11:40:17Z</time>
      </trkpt>
      <trkpt lat="42.94394" lon="0.45697">
        <ele>1572</ele>
        <time>2014-02-06T11:40:21Z</time>
      </trkpt>
      <trkpt lat="42.94397" lon="0.45699">
        <ele>1571</ele>
        <time>2014-02-06T11:41:00Z</time>
      </trkpt>
      <trkpt lat="42.944" lon="0.45692">
        <ele>1571</ele>
        <time>2014-02-06T11:41:05Z</time>
      </trkpt>
      <trkpt lat="42.944" lon="0.45684">
        <ele>1570</ele>
        <time>2014-02-06T11:41:10Z</time>
      </trkpt>
      <trkpt lat="42.94399" lon="0.45685">
        <ele>1574</ele>
        <time>2014-02-06T11:42:43Z</time>
      </trkpt>
      <trkpt lat="42.94396" lon="0.45682">
        <ele>1575</ele>
        <time>2014-02-06T11:42:55Z</time>
      </trkpt>
      <trkpt lat="42.94398" lon="0.45682">
        <ele>1576</ele>
        <time>2014-02-06T11:43:35Z</time>
      </trkpt>
      <trkpt lat="42.94401" lon="0.45684">
        <ele>1577</ele>
        <time>2014-02-06T11:45:12Z</time>
      </trkpt>
      <trkpt lat="42.944" lon="0.45682">
        <ele>1577</ele>
        <time>2014-02-06T11:46:00Z</time>
      </trkpt>
      <trkpt lat="42.94403" lon="0.45679">
        <ele>1577</ele>
        <time>2014-02-06T11:46:08Z</time>
      </trkpt>
      <trkpt lat="42.94405" lon="0.45672">
        <ele>1577</ele>
        <time>2014-02-06T11:46:24Z</time>
      </trkpt>
      <trkpt lat="42.94408" lon="0.45666">
        <ele>1578</ele>
        <time>2014-02-06T11:46:29Z</time>
      </trkpt>
      <trkpt lat="42.94409" lon="0.45659">
        <ele>1579</ele>
        <time>2014-02-06T11:46:34Z</time>
      </trkpt>
      <trkpt lat="42.9441" lon="0.45653">
        <ele>1579</ele>
        <time>2014-02-06T11:46:38Z</time>
      </trkpt>
      <trkpt lat="42.94411" lon="0.45646">
        <ele>1580</ele>
        <time>2014-02-06T11:46:42Z</time>
      </trkpt>
      <trkpt lat="42.94412" lon="0.45639">
        <ele>1581</ele>
        <time>2014-02-06T11:46:46Z</time>
      </trkpt>
      <trkpt lat="42.94412" lon="0.45633">
        <ele>1583</ele>
        <time>2014-02-06T11:46:51Z</time>
      </trkpt>
      <trkpt lat="42.94411" lon="0.45626">
        <ele>1583</ele>
        <time>2014-02-06T11:46:57Z</time>
      </trkpt>
      <trkpt lat="42.94406" lon="0.45624">
        <ele>1587</ele>
        <time>2014-02-06T11:47:14Z</time>
      </trkpt>
      <trkpt lat="42.94401" lon="0.45618">
        <ele>1592</ele>
        <time>2014-02-06T11:47:28Z</time>
      </trkpt>
      <trkpt lat="42.94397" lon="0.45619">
        <ele>1593</ele>
        <time>2014-02-06T11:47:40Z</time>
      </trkpt>
      <trkpt lat="42.94403" lon="0.4561">
        <ele>1593</ele>
        <time>2014-02-06T11:48:08Z</time>
      </trkpt>
      <trkpt lat="42.94408" lon="0.45606">
        <ele>1590</ele>
        <time>2014-02-06T11:51:16Z</time>
      </trkpt>
      <trkpt lat="42.94407" lon="0.45606">
        <ele>1593</ele>
        <time>2014-02-06T12:19:51Z</time>
      </trkpt>
      <trkpt lat="42.94414" lon="0.45615">
        <ele>1598</ele>
        <time>2014-02-06T12:28:51Z</time>
      </trkpt>
      <trkpt lat="42.9441" lon="0.45612">
        <ele>1598</ele>
        <time>2014-02-06T12:28:53Z</time>
      </trkpt>
      <trkpt lat="42.94408" lon="0.45609">
        <ele>1603</ele>
        <time>2014-02-06T12:30:33Z</time>
      </trkpt>
      <trkpt lat="42.94407" lon="0.45612">
        <ele>1604</ele>
        <time>2014-02-06T12:34:50Z</time>
      </trkpt>
      <trkpt lat="42.94405" lon="0.45615">
        <ele>1605</ele>
        <time>2014-02-06T12:35:16Z</time>
      </trkpt>
      <trkpt lat="42.94403" lon="0.45618">
        <ele>1604</ele>
        <time>2014-02-06T12:35:38Z</time>
      </trkpt>
      <trkpt lat="42.94403" lon="0.45617">
        <ele>1599</ele>
        <time>2014-02-06T12:36:32Z</time>
      </trkpt>
      <trkpt lat="42.94401" lon="0.45624">
        <ele>1595</ele>
        <time>2014-02-06T12:37:01Z</time>
      </trkpt>
      <trkpt lat="42.94404" lon="0.45629">
        <ele>1594</ele>
        <time>2014-02-06T12:37:08Z</time>
      </trkpt>
      <trkpt lat="42.94405" lon="0.45637">
        <ele>1595</ele>
        <time>2014-02-06T12:37:14Z</time>
      </trkpt>
      <trkpt lat="42.94406" lon="0.45643">
        <ele>1595</ele>
        <time>2014-02-06T12:37:19Z</time>
      </trkpt>
      <trkpt lat="42.94407" lon="0.4565">
        <ele>1595</ele>
        <time>2014-02-06T12:37:24Z</time>
      </trkpt>
      <trkpt lat="42.94406" lon="0.45657">
        <ele>1594</ele>
        <time>2014-02-06T12:37:31Z</time>
      </trkpt>
      <trkpt lat="42.94406" lon="0.45664">
        <ele>1593</ele>
        <time>2014-02-06T12:37:37Z</time>
      </trkpt>
      <trkpt lat="42.94405" lon="0.45669">
        <ele>1592</ele>
        <time>2014-02-06T12:37:43Z</time>
      </trkpt>
      <trkpt lat="42.94402" lon="0.45679">
        <ele>1587</ele>
        <time>2014-02-06T12:37:55Z</time>
      </trkpt>
      <trkpt lat="42.94405" lon="0.4568">
        <ele>1587</ele>
        <time>2014-02-06T12:38:34Z</time>
      </trkpt>
      <trkpt lat="42.94403" lon="0.45676">
        <ele>1587</ele>
        <time>2014-02-06T12:38:54Z</time>
      </trkpt>
      <trkpt lat="42.94398" lon="0.45682">
        <ele>1589</ele>
        <time>2014-02-06T12:39:29Z</time>
      </trkpt>
      <trkpt lat="42.94403" lon="0.4568">
        <ele>1588</ele>
        <time>2014-02-06T12:40:29Z</time>
      </trkpt>
      <trkpt lat="42.94404" lon="0.4568">
        <ele>1584</ele>
        <time>2014-02-06T12:41:52Z</time>
      </trkpt>
      <trkpt lat="42.94408" lon="0.45677">
        <ele>1583</ele>
        <time>2014-02-06T12:42:38Z</time>
      </trkpt>
      <trkpt lat="42.9441" lon="0.45675">
        <ele>1584</ele>
        <time>2014-02-06T12:42:49Z</time>
      </trkpt>
      <trkpt lat="42.94412" lon="0.45668">
        <ele>1584</ele>
        <time>2014-02-06T12:42:58Z</time>
      </trkpt>
      <trkpt lat="42.94414" lon="0.45662">
        <ele>1584</ele>
        <time>2014-02-06T12:43:05Z</time>
      </trkpt>
      <trkpt lat="42.94411" lon="0.45662">
        <ele>1583</ele>
        <time>2014-02-06T12:43:18Z</time>
      </trkpt>
      <trkpt lat="42.94414" lon="0.45656">
        <ele>1584</ele>
        <time>2014-02-06T12:43:35Z</time>
      </trkpt>
      <trkpt lat="42.94415" lon="0.4565">
        <ele>1586</ele>
        <time>2014-02-06T12:43:40Z</time>
      </trkpt>
      <trkpt lat="42.94416" lon="0.45644">
        <ele>1586</ele>
        <time>2014-02-06T12:43:45Z</time>
      </trkpt>
      <trkpt lat="42.94415" lon="0.45638">
        <ele>1586</ele>
        <time>2014-02-06T12:43:50Z</time>
      </trkpt>
      <trkpt lat="42.94411" lon="0.45634">
        <ele>1587</ele>
        <time>2014-02-06T12:43:55Z</time>
      </trkpt>
      <trkpt lat="42.94411" lon="0.45628">
        <ele>1587</ele>
        <time>2014-02-06T12:44:04Z</time>
      </trkpt>
      <trkpt lat="42.94411" lon="0.45622">
        <ele>1588</ele>
        <time>2014-02-06T12:44:10Z</time>
      </trkpt>
      <trkpt lat="42.9441" lon="0.45616">
        <ele>1587</ele>
        <time>2014-02-06T12:44:15Z</time>
      </trkpt>
      <trkpt lat="42.9441" lon="0.45612">
        <ele>1586</ele>
        <time>2014-02-06T12:44:22Z</time>
      </trkpt>
      <trkpt lat="42.94405" lon="0.4561">
        <ele>1585</ele>
        <time>2014-02-06T12:44:27Z</time>
      </trkpt>
      <trkpt lat="42.94401" lon="0.45607">
        <ele>1584</ele>
        <time>2014-02-06T12:44:32Z</time>
      </trkpt>
      <trkpt lat="42.94398" lon="0.45603">
        <ele>1584</ele>
        <time>2014-02-06T12:44:42Z</time>
      </trkpt>
      <trkpt lat="42.94397" lon="0.45608">
        <ele>1588</ele>
        <time>2014-02-06T12:48:01Z</time>
      </trkpt>
      <trkpt lat="42.94394" lon="0.45606">
        <ele>1587</ele>
        <time>2014-02-06T12:48:23Z</time>
      </trkpt>
      <trkpt lat="42.94394" lon="0.456">
        <ele>1587</ele>
        <time>2014-02-06T12:48:28Z</time>
      </trkpt>
      <trkpt lat="42.94396" lon="0.45594">
        <ele>1587</ele>
        <time>2014-02-06T12:48:35Z</time>
      </trkpt>
      <trkpt lat="42.94397" lon="0.45586">
        <ele>1582</ele>
        <time>2014-02-06T12:48:55Z</time>
      </trkpt>
      <trkpt lat="42.94395" lon="0.45587">
        <ele>1585</ele>
        <time>2014-02-06T12:51:36Z</time>
      </trkpt>
      <trkpt lat="42.94394" lon="0.45581">
        <ele>1588</ele>
        <time>2014-02-06T12:52:49Z</time>
      </trkpt>
      <trkpt lat="42.94393" lon="0.45575">
        <ele>1589</ele>
        <time>2014-02-06T12:52:53Z</time>
      </trkpt>
      <trkpt lat="42.94392" lon="0.45568">
        <ele>1589</ele>
        <time>2014-02-06T12:52:57Z</time>
      </trkpt>
      <trkpt lat="42.94393" lon="0.45562">
        <ele>1590</ele>
        <time>2014-02-06T12:53:01Z</time>
      </trkpt>
      <trkpt lat="42.94393" lon="0.45555">
        <ele>1590</ele>
        <time>2014-02-06T12:53:06Z</time>
      </trkpt>
      <trkpt lat="42.94392" lon="0.45549">
        <ele>1589</ele>
        <time>2014-02-06T12:53:11Z</time>
      </trkpt>
      <trkpt lat="42.94389" lon="0.45543">
        <ele>1589</ele>
        <time>2014-02-06T12:53:17Z</time>
      </trkpt>
      <trkpt lat="42.94389" lon="0.45537">
        <ele>1588</ele>
        <time>2014-02-06T12:53:22Z</time>
      </trkpt>
      <trkpt lat="42.94391" lon="0.45531">
        <ele>1588</ele>
        <time>2014-02-06T12:53:40Z</time>
      </trkpt>
      <trkpt lat="42.94388" lon="0.45529">
        <ele>1587</ele>
        <time>2014-02-06T12:54:17Z</time>
      </trkpt>
      <trkpt lat="42.94389" lon="0.4552">
        <ele>1586</ele>
        <time>2014-02-06T12:54:39Z</time>
      </trkpt>
      <trkpt lat="42.94386" lon="0.45514">
        <ele>1584</ele>
        <time>2014-02-06T12:54:43Z</time>
      </trkpt>
      <trkpt lat="42.94387" lon="0.45508">
        <ele>1583</ele>
        <time>2014-02-06T12:54:49Z</time>
      </trkpt>
      <trkpt lat="42.94389" lon="0.45501">
        <ele>1582</ele>
        <time>2014-02-06T12:54:55Z</time>
      </trkpt>
      <trkpt lat="42.94387" lon="0.45496">
        <ele>1581</ele>
        <time>2014-02-06T12:55:00Z</time>
      </trkpt>
      <trkpt lat="42.94383" lon="0.45492">
        <ele>1581</ele>
        <time>2014-02-06T12:55:04Z</time>
      </trkpt>
      <trkpt lat="42.94379" lon="0.45488">
        <ele>1582</ele>
        <time>2014-02-06T12:55:08Z</time>
      </trkpt>
      <trkpt lat="42.94375" lon="0.45481">
        <ele>1582</ele>
        <time>2014-02-06T12:55:13Z</time>
      </trkpt>
      <trkpt lat="42.94372" lon="0.45476">
        <ele>1582</ele>
        <time>2014-02-06T12:55:17Z</time>
      </trkpt>
      <trkpt lat="42.9437" lon="0.4547">
        <ele>1582</ele>
        <time>2014-02-06T12:55:22Z</time>
      </trkpt>
      <trkpt lat="42.94366" lon="0.45466">
        <ele>1583</ele>
        <time>2014-02-06T12:55:26Z</time>
      </trkpt>
      <trkpt lat="42.94363" lon="0.4546">
        <ele>1583</ele>
        <time>2014-02-06T12:55:31Z</time>
      </trkpt>
      <trkpt lat="42.94364" lon="0.45453">
        <ele>1583</ele>
        <time>2014-02-06T12:55:37Z</time>
      </trkpt>
      <trkpt lat="42.94365" lon="0.45447">
        <ele>1584</ele>
        <time>2014-02-06T12:55:43Z</time>
      </trkpt>
      <trkpt lat="42.94363" lon="0.4544">
        <ele>1583</ele>
        <time>2014-02-06T12:55:49Z</time>
      </trkpt>
      <trkpt lat="42.9436" lon="0.45435">
        <ele>1583</ele>
        <time>2014-02-06T12:55:55Z</time>
      </trkpt>
      <trkpt lat="42.94356" lon="0.45431">
        <ele>1582</ele>
        <time>2014-02-06T12:56:01Z</time>
      </trkpt>
      <trkpt lat="42.94351" lon="0.45429">
        <ele>1581</ele>
        <time>2014-02-06T12:56:08Z</time>
      </trkpt>
      <trkpt lat="42.94348" lon="0.4543">
        <ele>1583</ele>
        <time>2014-02-06T12:56:15Z</time>
      </trkpt>
      <trkpt lat="42.94345" lon="0.45426">
        <ele>1584</ele>
        <time>2014-02-06T12:56:23Z</time>
      </trkpt>
      <trkpt lat="42.94342" lon="0.45421">
        <ele>1586</ele>
        <time>2014-02-06T12:56:30Z</time>
      </trkpt>
      <trkpt lat="42.94338" lon="0.45416">
        <ele>1587</ele>
        <time>2014-02-06T12:56:36Z</time>
      </trkpt>
      <trkpt lat="42.94334" lon="0.45413">
        <ele>1589</ele>
        <time>2014-02-06T12:56:43Z</time>
      </trkpt>
      <trkpt lat="42.94329" lon="0.45411">
        <ele>1590</ele>
        <time>2014-02-06T12:56:49Z</time>
      </trkpt>
      <trkpt lat="42.94324" lon="0.4541">
        <ele>1590</ele>
        <time>2014-02-06T12:56:55Z</time>
      </trkpt>
      <trkpt lat="42.94319" lon="0.45408">
        <ele>1591</ele>
        <time>2014-02-06T12:57:03Z</time>
      </trkpt>
      <trkpt lat="42.94313" lon="0.45406">
        <ele>1592</ele>
        <time>2014-02-06T12:57:15Z</time>
      </trkpt>
      <trkpt lat="42.94309" lon="0.45402">
        <ele>1592</ele>
        <time>2014-02-06T12:57:21Z</time>
      </trkpt>
      <trkpt lat="42.94305" lon="0.45406">
        <ele>1592</ele>
        <time>2014-02-06T12:57:27Z</time>
      </trkpt>
      <trkpt lat="42.943" lon="0.45409">
        <ele>1592</ele>
        <time>2014-02-06T12:57:33Z</time>
      </trkpt>
      <trkpt lat="42.94296" lon="0.45412">
        <ele>1592</ele>
        <time>2014-02-06T12:57:40Z</time>
      </trkpt>
      <trkpt lat="42.94293" lon="0.45412">
        <ele>1596</ele>
        <time>2014-02-06T12:58:27Z</time>
      </trkpt>
      <trkpt lat="42.94286" lon="0.45413">
        <ele>1597</ele>
        <time>2014-02-06T12:58:46Z</time>
      </trkpt>
      <trkpt lat="42.94282" lon="0.45417">
        <ele>1597</ele>
        <time>2014-02-06T12:58:52Z</time>
      </trkpt>
      <trkpt lat="42.94276" lon="0.45423">
        <ele>1598</ele>
        <time>2014-02-06T12:59:03Z</time>
      </trkpt>
      <trkpt lat="42.94273" lon="0.45429">
        <ele>1598</ele>
        <time>2014-02-06T12:59:09Z</time>
      </trkpt>
      <trkpt lat="42.9427" lon="0.45434">
        <ele>1598</ele>
        <time>2014-02-06T12:59:13Z</time>
      </trkpt>
      <trkpt lat="42.94266" lon="0.45439">
        <ele>1598</ele>
        <time>2014-02-06T12:59:18Z</time>
      </trkpt>
      <trkpt lat="42.94266" lon="0.45445">
        <ele>1599</ele>
        <time>2014-02-06T12:59:21Z</time>
      </trkpt>
      <trkpt lat="42.94265" lon="0.45452">
        <ele>1599</ele>
        <time>2014-02-06T12:59:25Z</time>
      </trkpt>
      <trkpt lat="42.94263" lon="0.45458">
        <ele>1598</ele>
        <time>2014-02-06T12:59:30Z</time>
      </trkpt>
      <trkpt lat="42.94261" lon="0.45465">
        <ele>1598</ele>
        <time>2014-02-06T12:59:34Z</time>
      </trkpt>
      <trkpt lat="42.94258" lon="0.4547">
        <ele>1598</ele>
        <time>2014-02-06T12:59:39Z</time>
      </trkpt>
      <trkpt lat="42.94255" lon="0.45476">
        <ele>1598</ele>
        <time>2014-02-06T12:59:44Z</time>
      </trkpt>
      <trkpt lat="42.94253" lon="0.45481">
        <ele>1599</ele>
        <time>2014-02-06T12:59:49Z</time>
      </trkpt>
      <trkpt lat="42.94252" lon="0.45488">
        <ele>1600</ele>
        <time>2014-02-06T12:59:55Z</time>
      </trkpt>
      <trkpt lat="42.94252" lon="0.45495">
        <ele>1601</ele>
        <time>2014-02-06T13:00:01Z</time>
      </trkpt>
      <trkpt lat="42.9425" lon="0.45501">
        <ele>1600</ele>
        <time>2014-02-06T13:00:08Z</time>
      </trkpt>
      <trkpt lat="42.94247" lon="0.45507">
        <ele>1600</ele>
        <time>2014-02-06T13:00:15Z</time>
      </trkpt>
      <trkpt lat="42.94247" lon="0.45514">
        <ele>1598</ele>
        <time>2014-02-06T13:00:21Z</time>
      </trkpt>
      <trkpt lat="42.94247" lon="0.45521">
        <ele>1597</ele>
        <time>2014-02-06T13:00:26Z</time>
      </trkpt>
      <trkpt lat="42.94244" lon="0.45527">
        <ele>1597</ele>
        <time>2014-02-06T13:00:30Z</time>
      </trkpt>
      <trkpt lat="42.94241" lon="0.45532">
        <ele>1598</ele>
        <time>2014-02-06T13:00:34Z</time>
      </trkpt>
      <trkpt lat="42.94237" lon="0.45534">
        <ele>1597</ele>
        <time>2014-02-06T13:00:42Z</time>
      </trkpt>
      <trkpt lat="42.94236" lon="0.45541">
        <ele>1597</ele>
        <time>2014-02-06T13:00:49Z</time>
      </trkpt>
      <trkpt lat="42.94233" lon="0.45546">
        <ele>1597</ele>
        <time>2014-02-06T13:00:56Z</time>
      </trkpt>
      <trkpt lat="42.94231" lon="0.45552">
        <ele>1597</ele>
        <time>2014-02-06T13:01:03Z</time>
      </trkpt>
      <trkpt lat="42.9423" lon="0.45559">
        <ele>1598</ele>
        <time>2014-02-06T13:01:10Z</time>
      </trkpt>
      <trkpt lat="42.94231" lon="0.45566">
        <ele>1597</ele>
        <time>2014-02-06T13:01:16Z</time>
      </trkpt>
      <trkpt lat="42.94231" lon="0.45573">
        <ele>1598</ele>
        <time>2014-02-06T13:01:22Z</time>
      </trkpt>
      <trkpt lat="42.9423" lon="0.4558">
        <ele>1598</ele>
        <time>2014-02-06T13:01:27Z</time>
      </trkpt>
      <trkpt lat="42.94228" lon="0.45586">
        <ele>1598</ele>
        <time>2014-02-06T13:01:34Z</time>
      </trkpt>
      <trkpt lat="42.94226" lon="0.45593">
        <ele>1598</ele>
        <time>2014-02-06T13:01:40Z</time>
      </trkpt>
      <trkpt lat="42.94225" lon="0.45599">
        <ele>1598</ele>
        <time>2014-02-06T13:01:44Z</time>
      </trkpt>
      <trkpt lat="42.94225" lon="0.45606">
        <ele>1600</ele>
        <time>2014-02-06T13:01:50Z</time>
      </trkpt>
      <trkpt lat="42.94224" lon="0.45612">
        <ele>1601</ele>
        <time>2014-02-06T13:01:57Z</time>
      </trkpt>
      <trkpt lat="42.94224" lon="0.45637">
        <ele>1615</ele>
        <time>2014-02-06T13:02:33Z</time>
      </trkpt>
      <trkpt lat="42.94225" lon="0.45644">
        <ele>1616</ele>
        <time>2014-02-06T13:02:41Z</time>
      </trkpt>
      <trkpt lat="42.94228" lon="0.45646">
        <ele>1619</ele>
        <time>2014-02-06T13:02:49Z</time>
      </trkpt>
      <trkpt lat="42.94228" lon="0.45651">
        <ele>1622</ele>
        <time>2014-02-06T13:04:35Z</time>
      </trkpt>
      <trkpt lat="42.94224" lon="0.45655">
        <ele>1622</ele>
        <time>2014-02-06T13:04:57Z</time>
      </trkpt>
      <trkpt lat="42.94221" lon="0.45658">
        <ele>1619</ele>
        <time>2014-02-06T13:05:37Z</time>
      </trkpt>
      <trkpt lat="42.94219" lon="0.45664">
        <ele>1617</ele>
        <time>2014-02-06T13:05:46Z</time>
      </trkpt>
      <trkpt lat="42.94219" lon="0.45668">
        <ele>1616</ele>
        <time>2014-02-06T13:05:54Z</time>
      </trkpt>
      <trkpt lat="42.94218" lon="0.45672">
        <ele>1616</ele>
        <time>2014-02-06T13:06:01Z</time>
      </trkpt>
      <trkpt lat="42.94218" lon="0.45678">
        <ele>1616</ele>
        <time>2014-02-06T13:06:09Z</time>
      </trkpt>
      <trkpt lat="42.94215" lon="0.4568">
        <ele>1618</ele>
        <time>2014-02-06T13:06:43Z</time>
      </trkpt>
      <trkpt lat="42.94213" lon="0.45686">
        <ele>1619</ele>
        <time>2014-02-06T13:06:48Z</time>
      </trkpt>
      <trkpt lat="42.94211" lon="0.45692">
        <ele>1620</ele>
        <time>2014-02-06T13:06:56Z</time>
      </trkpt>
      <trkpt lat="42.94206" lon="0.45693">
        <ele>1620</ele>
        <time>2014-02-06T13:07:04Z</time>
      </trkpt>
      <trkpt lat="42.94202" lon="0.45691">
        <ele>1622</ele>
        <time>2014-02-06T13:08:43Z</time>
      </trkpt>
      <trkpt lat="42.94199" lon="0.45694">
        <ele>1624</ele>
        <time>2014-02-06T13:08:54Z</time>
      </trkpt>
      <trkpt lat="42.94198" lon="0.457">
        <ele>1625</ele>
        <time>2014-02-06T13:09:03Z</time>
      </trkpt>
      <trkpt lat="42.94198" lon="0.45705">
        <ele>1625</ele>
        <time>2014-02-06T13:09:14Z</time>
      </trkpt>
      <trkpt lat="42.94197" lon="0.45709">
        <ele>1627</ele>
        <time>2014-02-06T13:09:35Z</time>
      </trkpt>
      <trkpt lat="42.94195" lon="0.45713">
        <ele>1629</ele>
        <time>2014-02-06T13:09:47Z</time>
      </trkpt>
      <trkpt lat="42.94191" lon="0.45713">
        <ele>1632</ele>
        <time>2014-02-06T13:09:54Z</time>
      </trkpt>
      <trkpt lat="42.94189" lon="0.45714">
        <ele>1633</ele>
        <time>2014-02-06T13:11:35Z</time>
      </trkpt>
      <trkpt lat="42.94185" lon="0.45717">
        <ele>1631</ele>
        <time>2014-02-06T13:12:32Z</time>
      </trkpt>
      <trkpt lat="42.9418" lon="0.45719">
        <ele>1630</ele>
        <time>2014-02-06T13:12:39Z</time>
      </trkpt>
      <trkpt lat="42.94174" lon="0.45721">
        <ele>1629</ele>
        <time>2014-02-06T13:12:44Z</time>
      </trkpt>
      <trkpt lat="42.9417" lon="0.45723">
        <ele>1629</ele>
        <time>2014-02-06T13:12:49Z</time>
      </trkpt>
      <trkpt lat="42.94165" lon="0.45727">
        <ele>1631</ele>
        <time>2014-02-06T13:13:11Z</time>
      </trkpt>
      <trkpt lat="42.94159" lon="0.4573">
        <ele>1631</ele>
        <time>2014-02-06T13:13:24Z</time>
      </trkpt>
      <trkpt lat="42.94154" lon="0.45732">
        <ele>1630</ele>
        <time>2014-02-06T13:13:30Z</time>
      </trkpt>
      <trkpt lat="42.94153" lon="0.45736">
        <ele>1630</ele>
        <time>2014-02-06T13:13:37Z</time>
      </trkpt>
      <trkpt lat="42.9415" lon="0.45739">
        <ele>1630</ele>
        <time>2014-02-06T13:13:50Z</time>
      </trkpt>
      <trkpt lat="42.94147" lon="0.45744">
        <ele>1630</ele>
        <time>2014-02-06T13:13:56Z</time>
      </trkpt>
      <trkpt lat="42.94144" lon="0.45748">
        <ele>1629</ele>
        <time>2014-02-06T13:14:05Z</time>
      </trkpt>
      <trkpt lat="42.94144" lon="0.4575">
        <ele>1629</ele>
        <time>2014-02-06T13:15:42Z</time>
      </trkpt>
      <trkpt lat="42.94142" lon="0.45755">
        <ele>1629</ele>
        <time>2014-02-06T13:15:46Z</time>
      </trkpt>
      <trkpt lat="42.9414" lon="0.45761">
        <ele>1632</ele>
        <time>2014-02-06T13:15:53Z</time>
      </trkpt>
      <trkpt lat="42.94138" lon="0.45764">
        <ele>1634</ele>
        <time>2014-02-06T13:16:21Z</time>
      </trkpt>
      <trkpt lat="42.94133" lon="0.45765">
        <ele>1634</ele>
        <time>2014-02-06T13:16:26Z</time>
      </trkpt>
      <trkpt lat="42.94129" lon="0.45768">
        <ele>1633</ele>
        <time>2014-02-06T13:16:31Z</time>
      </trkpt>
      <trkpt lat="42.94125" lon="0.45772">
        <ele>1633</ele>
        <time>2014-02-06T13:16:35Z</time>
      </trkpt>
      <trkpt lat="42.94121" lon="0.45778">
        <ele>1633</ele>
        <time>2014-02-06T13:16:39Z</time>
      </trkpt>
      <trkpt lat="42.94119" lon="0.45784">
        <ele>1633</ele>
        <time>2014-02-06T13:16:44Z</time>
      </trkpt>
      <trkpt lat="42.94118" lon="0.45791">
        <ele>1632</ele>
        <time>2014-02-06T13:16:49Z</time>
      </trkpt>
      <trkpt lat="42.94114" lon="0.45796">
        <ele>1630</ele>
        <time>2014-02-06T13:16:55Z</time>
      </trkpt>
      <trkpt lat="42.94109" lon="0.45798">
        <ele>1630</ele>
        <time>2014-02-06T13:17:01Z</time>
      </trkpt>
      <trkpt lat="42.94106" lon="0.45802">
        <ele>1630</ele>
        <time>2014-02-06T13:17:08Z</time>
      </trkpt>
      <trkpt lat="42.94103" lon="0.45807">
        <ele>1631</ele>
        <time>2014-02-06T13:17:15Z</time>
      </trkpt>
      <trkpt lat="42.94098" lon="0.4581">
        <ele>1630</ele>
        <time>2014-02-06T13:17:21Z</time>
      </trkpt>
      <trkpt lat="42.94094" lon="0.45814">
        <ele>1628</ele>
        <time>2014-02-06T13:17:28Z</time>
      </trkpt>
      <trkpt lat="42.94091" lon="0.4582">
        <ele>1628</ele>
        <time>2014-02-06T13:17:40Z</time>
      </trkpt>
      <trkpt lat="42.94091" lon="0.45824">
        <ele>1630</ele>
        <time>2014-02-06T13:17:47Z</time>
      </trkpt>
      <trkpt lat="42.94089" lon="0.45829">
        <ele>1629</ele>
        <time>2014-02-06T13:17:55Z</time>
      </trkpt>
      <trkpt lat="42.94085" lon="0.45834">
        <ele>1630</ele>
        <time>2014-02-06T13:18:03Z</time>
      </trkpt>
      <trkpt lat="42.94082" lon="0.45837">
        <ele>1631</ele>
        <time>2014-02-06T13:18:09Z</time>
      </trkpt>
      <trkpt lat="42.94077" lon="0.45838">
        <ele>1634</ele>
        <time>2014-02-06T13:18:15Z</time>
      </trkpt>
      <trkpt lat="42.94073" lon="0.45842">
        <ele>1635</ele>
        <time>2014-02-06T13:18:21Z</time>
      </trkpt>
      <trkpt lat="42.9407" lon="0.45848">
        <ele>1636</ele>
        <time>2014-02-06T13:18:27Z</time>
      </trkpt>
      <trkpt lat="42.94067" lon="0.45852">
        <ele>1637</ele>
        <time>2014-02-06T13:18:33Z</time>
      </trkpt>
      <trkpt lat="42.94065" lon="0.45858">
        <ele>1639</ele>
        <time>2014-02-06T13:18:40Z</time>
      </trkpt>
      <trkpt lat="42.9406" lon="0.4586">
        <ele>1641</ele>
        <time>2014-02-06T13:18:47Z</time>
      </trkpt>
      <trkpt lat="42.9406" lon="0.45868">
        <ele>1644</ele>
        <time>2014-02-06T13:18:59Z</time>
      </trkpt>
      <trkpt lat="42.94058" lon="0.45872">
        <ele>1645</ele>
        <time>2014-02-06T13:19:07Z</time>
      </trkpt>
      <trkpt lat="42.94054" lon="0.45875">
        <ele>1645</ele>
        <time>2014-02-06T13:19:23Z</time>
      </trkpt>
      <trkpt lat="42.94051" lon="0.4588">
        <ele>1644</ele>
        <time>2014-02-06T13:19:30Z</time>
      </trkpt>
      <trkpt lat="42.9405" lon="0.45886">
        <ele>1643</ele>
        <time>2014-02-06T13:19:37Z</time>
      </trkpt>
      <trkpt lat="42.94047" lon="0.4589">
        <ele>1642</ele>
        <time>2014-02-06T13:19:44Z</time>
      </trkpt>
      <trkpt lat="42.94044" lon="0.45895">
        <ele>1641</ele>
        <time>2014-02-06T13:19:50Z</time>
      </trkpt>
      <trkpt lat="42.9404" lon="0.45899">
        <ele>1641</ele>
        <time>2014-02-06T13:19:56Z</time>
      </trkpt>
      <trkpt lat="42.94037" lon="0.45904">
        <ele>1641</ele>
        <time>2014-02-06T13:20:02Z</time>
      </trkpt>
      <trkpt lat="42.94034" lon="0.4591">
        <ele>1643</ele>
        <time>2014-02-06T13:20:09Z</time>
      </trkpt>
      <trkpt lat="42.9403" lon="0.45915">
        <ele>1643</ele>
        <time>2014-02-06T13:20:15Z</time>
      </trkpt>
      <trkpt lat="42.94026" lon="0.45917">
        <ele>1645</ele>
        <time>2014-02-06T13:20:21Z</time>
      </trkpt>
      <trkpt lat="42.94023" lon="0.45923">
        <ele>1646</ele>
        <time>2014-02-06T13:20:28Z</time>
      </trkpt>
      <trkpt lat="42.94021" lon="0.45929">
        <ele>1646</ele>
        <time>2014-02-06T13:20:34Z</time>
      </trkpt>
      <trkpt lat="42.94018" lon="0.45935">
        <ele>1646</ele>
        <time>2014-02-06T13:20:40Z</time>
      </trkpt>
      <trkpt lat="42.94014" lon="0.45939">
        <ele>1647</ele>
        <time>2014-02-06T13:20:46Z</time>
      </trkpt>
      <trkpt lat="42.94012" lon="0.45942">
        <ele>1652</ele>
        <time>2014-02-06T13:21:26Z</time>
      </trkpt>
      <trkpt lat="42.94011" lon="0.45949">
        <ele>1652</ele>
        <time>2014-02-06T13:21:31Z</time>
      </trkpt>
      <trkpt lat="42.9401" lon="0.45955">
        <ele>1654</ele>
        <time>2014-02-06T13:21:35Z</time>
      </trkpt>
      <trkpt lat="42.94009" lon="0.45961">
        <ele>1655</ele>
        <time>2014-02-06T13:21:39Z</time>
      </trkpt>
      <trkpt lat="42.94007" lon="0.45967">
        <ele>1656</ele>
        <time>2014-02-06T13:21:44Z</time>
      </trkpt>
      <trkpt lat="42.94004" lon="0.45972">
        <ele>1657</ele>
        <time>2014-02-06T13:21:50Z</time>
      </trkpt>
      <trkpt lat="42.94002" lon="0.45978">
        <ele>1657</ele>
        <time>2014-02-06T13:21:55Z</time>
      </trkpt>
      <trkpt lat="42.94001" lon="0.45984">
        <ele>1656</ele>
        <time>2014-02-06T13:22:00Z</time>
      </trkpt>
      <trkpt lat="42.93997" lon="0.45989">
        <ele>1654</ele>
        <time>2014-02-06T13:22:08Z</time>
      </trkpt>
      <trkpt lat="42.93994" lon="0.45994">
        <ele>1654</ele>
        <time>2014-02-06T13:22:15Z</time>
      </trkpt>
      <trkpt lat="42.9399" lon="0.45998">
        <ele>1654</ele>
        <time>2014-02-06T13:22:22Z</time>
      </trkpt>
      <trkpt lat="42.93986" lon="0.46">
        <ele>1654</ele>
        <time>2014-02-06T13:22:29Z</time>
      </trkpt>
      <trkpt lat="42.93984" lon="0.45997">
        <ele>1655</ele>
        <time>2014-02-06T13:22:40Z</time>
      </trkpt>
      <trkpt lat="42.93978" lon="0.45996">
        <ele>1655</ele>
        <time>2014-02-06T13:22:55Z</time>
      </trkpt>
      <trkpt lat="42.93981" lon="0.45994">
        <ele>1658</ele>
        <time>2014-02-06T13:23:57Z</time>
      </trkpt>
      <trkpt lat="42.93982" lon="0.45991">
        <ele>1659</ele>
        <time>2014-02-06T13:24:09Z</time>
      </trkpt>
      <trkpt lat="42.93984" lon="0.45984">
        <ele>1661</ele>
        <time>2014-02-06T13:24:37Z</time>
      </trkpt>
      <trkpt lat="42.93986" lon="0.45978">
        <ele>1660</ele>
        <time>2014-02-06T13:24:42Z</time>
      </trkpt>
      <trkpt lat="42.93988" lon="0.45972">
        <ele>1660</ele>
        <time>2014-02-06T13:24:47Z</time>
      </trkpt>
      <trkpt lat="42.93989" lon="0.45966">
        <ele>1660</ele>
        <time>2014-02-06T13:24:52Z</time>
      </trkpt>
      <trkpt lat="42.93992" lon="0.45961">
        <ele>1660</ele>
        <time>2014-02-06T13:24:57Z</time>
      </trkpt>
      <trkpt lat="42.93993" lon="0.45955">
        <ele>1661</ele>
        <time>2014-02-06T13:25:03Z</time>
      </trkpt>
      <trkpt lat="42.93996" lon="0.45949">
        <ele>1662</ele>
        <time>2014-02-06T13:25:09Z</time>
      </trkpt>
      <trkpt lat="42.93999" lon="0.45943">
        <ele>1662</ele>
        <time>2014-02-06T13:25:14Z</time>
      </trkpt>
      <trkpt lat="42.94" lon="0.45937">
        <ele>1661</ele>
        <time>2014-02-06T13:25:19Z</time>
      </trkpt>
      <trkpt lat="42.94002" lon="0.45931">
        <ele>1660</ele>
        <time>2014-02-06T13:25:24Z</time>
      </trkpt>
      <trkpt lat="42.94004" lon="0.45925">
        <ele>1660</ele>
        <time>2014-02-06T13:25:31Z</time>
      </trkpt>
      <trkpt lat="42.94004" lon="0.45918">
        <ele>1659</ele>
        <time>2014-02-06T13:25:37Z</time>
      </trkpt>
      <trkpt lat="42.94005" lon="0.45912">
        <ele>1658</ele>
        <time>2014-02-06T13:25:43Z</time>
      </trkpt>
      <trkpt lat="42.94008" lon="0.45908">
        <ele>1658</ele>
        <time>2014-02-06T13:25:49Z</time>
      </trkpt>
      <trkpt lat="42.9401" lon="0.45901">
        <ele>1659</ele>
        <time>2014-02-06T13:25:57Z</time>
      </trkpt>
      <trkpt lat="42.94012" lon="0.45895">
        <ele>1659</ele>
        <time>2014-02-06T13:26:03Z</time>
      </trkpt>
      <trkpt lat="42.94014" lon="0.45889">
        <ele>1655</ele>
        <time>2014-02-06T13:26:10Z</time>
      </trkpt>
      <trkpt lat="42.94017" lon="0.45884">
        <ele>1655</ele>
        <time>2014-02-06T13:26:15Z</time>
      </trkpt>
      <trkpt lat="42.94021" lon="0.45879">
        <ele>1655</ele>
        <time>2014-02-06T13:26:20Z</time>
      </trkpt>
      <trkpt lat="42.94023" lon="0.45873">
        <ele>1655</ele>
        <time>2014-02-06T13:26:26Z</time>
      </trkpt>
      <trkpt lat="42.94024" lon="0.45866">
        <ele>1654</ele>
        <time>2014-02-06T13:26:32Z</time>
      </trkpt>
      <trkpt lat="42.94025" lon="0.4586">
        <ele>1653</ele>
        <time>2014-02-06T13:26:37Z</time>
      </trkpt>
      <trkpt lat="42.94026" lon="0.45854">
        <ele>1651</ele>
        <time>2014-02-06T13:26:42Z</time>
      </trkpt>
      <trkpt lat="42.94028" lon="0.45847">
        <ele>1650</ele>
        <time>2014-02-06T13:26:48Z</time>
      </trkpt>
      <trkpt lat="42.9403" lon="0.45841">
        <ele>1651</ele>
        <time>2014-02-06T13:26:54Z</time>
      </trkpt>
      <trkpt lat="42.94031" lon="0.45837">
        <ele>1651</ele>
        <time>2014-02-06T13:27:01Z</time>
      </trkpt>
      <trkpt lat="42.94033" lon="0.45832">
        <ele>1651</ele>
        <time>2014-02-06T13:27:14Z</time>
      </trkpt>
      <trkpt lat="42.94032" lon="0.45828">
        <ele>1650</ele>
        <time>2014-02-06T13:28:13Z</time>
      </trkpt>
      <trkpt lat="42.94035" lon="0.45823">
        <ele>1650</ele>
        <time>2014-02-06T13:28:17Z</time>
      </trkpt>
      <trkpt lat="42.94037" lon="0.45818">
        <ele>1647</ele>
        <time>2014-02-06T13:28:27Z</time>
      </trkpt>
      <trkpt lat="42.94037" lon="0.45821">
        <ele>1650</ele>
        <time>2014-02-06T13:29:11Z</time>
      </trkpt>
      <trkpt lat="42.94036" lon="0.45811">
        <ele>1650</ele>
        <time>2014-02-06T13:29:25Z</time>
      </trkpt>
      <trkpt lat="42.94036" lon="0.45804">
        <ele>1652</ele>
        <time>2014-02-06T13:29:31Z</time>
      </trkpt>
      <trkpt lat="42.94034" lon="0.45798">
        <ele>1653</ele>
        <time>2014-02-06T13:29:39Z</time>
      </trkpt>
      <trkpt lat="42.94033" lon="0.45791">
        <ele>1653</ele>
        <time>2014-02-06T13:29:45Z</time>
      </trkpt>
      <trkpt lat="42.94034" lon="0.45785">
        <ele>1653</ele>
        <time>2014-02-06T13:29:55Z</time>
      </trkpt>
      <trkpt lat="42.94034" lon="0.45777">
        <ele>1652</ele>
        <time>2014-02-06T13:30:02Z</time>
      </trkpt>
      <trkpt lat="42.94035" lon="0.45769">
        <ele>1654</ele>
        <time>2014-02-06T13:30:07Z</time>
      </trkpt>
      <trkpt lat="42.94034" lon="0.45767">
        <ele>1655</ele>
        <time>2014-02-06T13:30:25Z</time>
      </trkpt>
      <trkpt lat="42.94035" lon="0.45762">
        <ele>1652</ele>
        <time>2014-02-06T13:32:06Z</time>
      </trkpt>
      <trkpt lat="42.94035" lon="0.45755">
        <ele>1651</ele>
        <time>2014-02-06T13:32:14Z</time>
      </trkpt>
      <trkpt lat="42.94037" lon="0.45749">
        <ele>1650</ele>
        <time>2014-02-06T13:32:21Z</time>
      </trkpt>
      <trkpt lat="42.94034" lon="0.45744">
        <ele>1648</ele>
        <time>2014-02-06T13:32:30Z</time>
      </trkpt>
      <trkpt lat="42.94036" lon="0.45738">
        <ele>1646</ele>
        <time>2014-02-06T13:32:59Z</time>
      </trkpt>
      <trkpt lat="42.94036" lon="0.45732">
        <ele>1646</ele>
        <time>2014-02-06T13:33:05Z</time>
      </trkpt>
      <trkpt lat="42.94036" lon="0.45725">
        <ele>1644</ele>
        <time>2014-02-06T13:33:11Z</time>
      </trkpt>
      <trkpt lat="42.94038" lon="0.4572">
        <ele>1644</ele>
        <time>2014-02-06T13:33:17Z</time>
      </trkpt>
      <trkpt lat="42.94038" lon="0.45713">
        <ele>1643</ele>
        <time>2014-02-06T13:33:23Z</time>
      </trkpt>
      <trkpt lat="42.9404" lon="0.45707">
        <ele>1644</ele>
        <time>2014-02-06T13:33:30Z</time>
      </trkpt>
      <trkpt lat="42.94041" lon="0.45701">
        <ele>1645</ele>
        <time>2014-02-06T13:33:36Z</time>
      </trkpt>
      <trkpt lat="42.94042" lon="0.45695">
        <ele>1645</ele>
        <time>2014-02-06T13:33:42Z</time>
      </trkpt>
      <trkpt lat="42.94043" lon="0.45688">
        <ele>1645</ele>
        <time>2014-02-06T13:33:48Z</time>
      </trkpt>
      <trkpt lat="42.94044" lon="0.45681">
        <ele>1645</ele>
        <time>2014-02-06T13:33:56Z</time>
      </trkpt>
      <trkpt lat="42.94044" lon="0.45675">
        <ele>1645</ele>
        <time>2014-02-06T13:34:02Z</time>
      </trkpt>
      <trkpt lat="42.94047" lon="0.45669">
        <ele>1645</ele>
        <time>2014-02-06T13:34:09Z</time>
      </trkpt>
      <trkpt lat="42.94049" lon="0.45664">
        <ele>1646</ele>
        <time>2014-02-06T13:34:14Z</time>
      </trkpt>
      <trkpt lat="42.9405" lon="0.45657">
        <ele>1646</ele>
        <time>2014-02-06T13:34:19Z</time>
      </trkpt>
      <trkpt lat="42.94052" lon="0.45651">
        <ele>1646</ele>
        <time>2014-02-06T13:34:25Z</time>
      </trkpt>
      <trkpt lat="42.94054" lon="0.45644">
        <ele>1647</ele>
        <time>2014-02-06T13:34:35Z</time>
      </trkpt>
      <trkpt lat="42.94056" lon="0.45646">
        <ele>1647</ele>
        <time>2014-02-06T13:34:42Z</time>
      </trkpt>
      <trkpt lat="42.94051" lon="0.45649">
        <ele>1647</ele>
        <time>2014-02-06T13:34:47Z</time>
      </trkpt>
      <trkpt lat="42.94047" lon="0.45644">
        <ele>1647</ele>
        <time>2014-02-06T13:35:00Z</time>
      </trkpt>
      <trkpt lat="42.94042" lon="0.45645">
        <ele>1647</ele>
        <time>2014-02-06T13:35:04Z</time>
      </trkpt>
      <trkpt lat="42.94037" lon="0.45644">
        <ele>1649</ele>
        <time>2014-02-06T13:35:12Z</time>
      </trkpt>
      <trkpt lat="42.94038" lon="0.45639">
        <ele>1651</ele>
        <time>2014-02-06T13:35:21Z</time>
      </trkpt>
      <trkpt lat="42.94038" lon="0.45643">
        <ele>1650</ele>
        <time>2014-02-06T13:35:49Z</time>
      </trkpt>
      <trkpt lat="42.94035" lon="0.45643">
        <ele>1649</ele>
        <time>2014-02-06T13:36:22Z</time>
      </trkpt>
      <trkpt lat="42.9403" lon="0.45643">
        <ele>1647</ele>
        <time>2014-02-06T13:37:02Z</time>
      </trkpt>
      <trkpt lat="42.94025" lon="0.45642">
        <ele>1647</ele>
        <time>2014-02-06T13:37:06Z</time>
      </trkpt>
      <trkpt lat="42.9402" lon="0.45642">
        <ele>1646</ele>
        <time>2014-02-06T13:37:11Z</time>
      </trkpt>
      <trkpt lat="42.94015" lon="0.45643">
        <ele>1645</ele>
        <time>2014-02-06T13:37:16Z</time>
      </trkpt>
      <trkpt lat="42.94011" lon="0.45642">
        <ele>1645</ele>
        <time>2014-02-06T13:37:23Z</time>
      </trkpt>
      <trkpt lat="42.94009" lon="0.45646">
        <ele>1646</ele>
        <time>2014-02-06T13:37:34Z</time>
      </trkpt>
      <trkpt lat="42.94004" lon="0.45643">
        <ele>1648</ele>
        <time>2014-02-06T13:37:41Z</time>
      </trkpt>
      <trkpt lat="42.94" lon="0.4564">
        <ele>1650</ele>
        <time>2014-02-06T13:37:46Z</time>
      </trkpt>
      <trkpt lat="42.93996" lon="0.45637">
        <ele>1650</ele>
        <time>2014-02-06T13:37:52Z</time>
      </trkpt>
      <trkpt lat="42.93993" lon="0.45631">
        <ele>1650</ele>
        <time>2014-02-06T13:37:57Z</time>
      </trkpt>
      <trkpt lat="42.93989" lon="0.45627">
        <ele>1651</ele>
        <time>2014-02-06T13:38:03Z</time>
      </trkpt>
      <trkpt lat="42.93987" lon="0.45621">
        <ele>1651</ele>
        <time>2014-02-06T13:38:09Z</time>
      </trkpt>
      <trkpt lat="42.93985" lon="0.45616">
        <ele>1652</ele>
        <time>2014-02-06T13:38:15Z</time>
      </trkpt>
      <trkpt lat="42.93982" lon="0.4561">
        <ele>1653</ele>
        <time>2014-02-06T13:38:21Z</time>
      </trkpt>
      <trkpt lat="42.93979" lon="0.45605">
        <ele>1654</ele>
        <time>2014-02-06T13:38:26Z</time>
      </trkpt>
      <trkpt lat="42.93978" lon="0.45598">
        <ele>1654</ele>
        <time>2014-02-06T13:38:31Z</time>
      </trkpt>
      <trkpt lat="42.93975" lon="0.45592">
        <ele>1653</ele>
        <time>2014-02-06T13:38:37Z</time>
      </trkpt>
      <trkpt lat="42.93971" lon="0.45588">
        <ele>1652</ele>
        <time>2014-02-06T13:38:43Z</time>
      </trkpt>
      <trkpt lat="42.93968" lon="0.45583">
        <ele>1651</ele>
        <time>2014-02-06T13:38:49Z</time>
      </trkpt>
      <trkpt lat="42.9397" lon="0.45576">
        <ele>1650</ele>
        <time>2014-02-06T13:38:55Z</time>
      </trkpt>
      <trkpt lat="42.93973" lon="0.45571">
        <ele>1652</ele>
        <time>2014-02-06T13:39:02Z</time>
      </trkpt>
      <trkpt lat="42.93974" lon="0.45565">
        <ele>1653</ele>
        <time>2014-02-06T13:39:10Z</time>
      </trkpt>
      <trkpt lat="42.93976" lon="0.45559">
        <ele>1655</ele>
        <time>2014-02-06T13:39:18Z</time>
      </trkpt>
      <trkpt lat="42.93979" lon="0.45553">
        <ele>1653</ele>
        <time>2014-02-06T13:39:26Z</time>
      </trkpt>
      <trkpt lat="42.93981" lon="0.45547">
        <ele>1654</ele>
        <time>2014-02-06T13:39:33Z</time>
      </trkpt>
      <trkpt lat="42.93984" lon="0.45542">
        <ele>1656</ele>
        <time>2014-02-06T13:39:42Z</time>
      </trkpt>
      <trkpt lat="42.93984" lon="0.45536">
        <ele>1657</ele>
        <time>2014-02-06T13:39:50Z</time>
      </trkpt>
      <trkpt lat="42.93983" lon="0.45533">
        <ele>1658</ele>
        <time>2014-02-06T13:39:56Z</time>
      </trkpt>
      <trkpt lat="42.93982" lon="0.4553">
        <ele>1659</ele>
        <time>2014-02-06T13:40:02Z</time>
      </trkpt>
      <trkpt lat="42.9398" lon="0.45523">
        <ele>1660</ele>
        <time>2014-02-06T13:40:11Z</time>
      </trkpt>
      <trkpt lat="42.93979" lon="0.45518">
        <ele>1661</ele>
        <time>2014-02-06T13:40:20Z</time>
      </trkpt>
      <trkpt lat="42.9398" lon="0.45512">
        <ele>1663</ele>
        <time>2014-02-06T13:40:30Z</time>
      </trkpt>
      <trkpt lat="42.9398" lon="0.45508">
        <ele>1664</ele>
        <time>2014-02-06T13:40:55Z</time>
      </trkpt>
      <trkpt lat="42.93981" lon="0.45501">
        <ele>1664</ele>
        <time>2014-02-06T13:41:01Z</time>
      </trkpt>
      <trkpt lat="42.93982" lon="0.45494">
        <ele>1663</ele>
        <time>2014-02-06T13:41:05Z</time>
      </trkpt>
      <trkpt lat="42.93984" lon="0.4549">
        <ele>1661</ele>
        <time>2014-02-06T13:41:14Z</time>
      </trkpt>
      <trkpt lat="42.93988" lon="0.45486">
        <ele>1660</ele>
        <time>2014-02-06T13:41:32Z</time>
      </trkpt>
      <trkpt lat="42.93993" lon="0.45486">
        <ele>1659</ele>
        <time>2014-02-06T13:41:37Z</time>
      </trkpt>
      <trkpt lat="42.93997" lon="0.4549">
        <ele>1658</ele>
        <time>2014-02-06T13:41:44Z</time>
      </trkpt>
      <trkpt lat="42.94001" lon="0.45494">
        <ele>1656</ele>
        <time>2014-02-06T13:41:50Z</time>
      </trkpt>
      <trkpt lat="42.94005" lon="0.45499">
        <ele>1656</ele>
        <time>2014-02-06T13:41:55Z</time>
      </trkpt>
      <trkpt lat="42.94007" lon="0.45505">
        <ele>1657</ele>
        <time>2014-02-06T13:42:00Z</time>
      </trkpt>
      <trkpt lat="42.9401" lon="0.45511">
        <ele>1657</ele>
        <time>2014-02-06T13:42:05Z</time>
      </trkpt>
      <trkpt lat="42.94013" lon="0.45516">
        <ele>1657</ele>
        <time>2014-02-06T13:42:11Z</time>
      </trkpt>
      <trkpt lat="42.94018" lon="0.45515">
        <ele>1656</ele>
        <time>2014-02-06T13:42:16Z</time>
      </trkpt>
      <trkpt lat="42.94023" lon="0.45517">
        <ele>1656</ele>
        <time>2014-02-06T13:42:22Z</time>
      </trkpt>
      <trkpt lat="42.94028" lon="0.45515">
        <ele>1655</ele>
        <time>2014-02-06T13:42:28Z</time>
      </trkpt>
      <trkpt lat="42.94033" lon="0.45515">
        <ele>1656</ele>
        <time>2014-02-06T13:42:34Z</time>
      </trkpt>
      <trkpt lat="42.94037" lon="0.45519">
        <ele>1656</ele>
        <time>2014-02-06T13:42:39Z</time>
      </trkpt>
      <trkpt lat="42.9404" lon="0.45524">
        <ele>1657</ele>
        <time>2014-02-06T13:42:44Z</time>
      </trkpt>
      <trkpt lat="42.94044" lon="0.45528">
        <ele>1657</ele>
        <time>2014-02-06T13:42:50Z</time>
      </trkpt>
      <trkpt lat="42.94047" lon="0.45534">
        <ele>1656</ele>
        <time>2014-02-06T13:42:57Z</time>
      </trkpt>
      <trkpt lat="42.94051" lon="0.45537">
        <ele>1654</ele>
        <time>2014-02-06T13:43:05Z</time>
      </trkpt>
      <trkpt lat="42.94054" lon="0.45533">
        <ele>1654</ele>
        <time>2014-02-06T13:43:10Z</time>
      </trkpt>
      <trkpt lat="42.94057" lon="0.45528">
        <ele>1653</ele>
        <time>2014-02-06T13:43:16Z</time>
      </trkpt>
      <trkpt lat="42.9406" lon="0.45522">
        <ele>1653</ele>
        <time>2014-02-06T13:43:22Z</time>
      </trkpt>
      <trkpt lat="42.94062" lon="0.45516">
        <ele>1653</ele>
        <time>2014-02-06T13:43:27Z</time>
      </trkpt>
      <trkpt lat="42.94066" lon="0.45513">
        <ele>1652</ele>
        <time>2014-02-06T13:43:32Z</time>
      </trkpt>
      <trkpt lat="42.9407" lon="0.45509">
        <ele>1652</ele>
        <time>2014-02-06T13:43:40Z</time>
      </trkpt>
      <trkpt lat="42.94072" lon="0.45505">
        <ele>1653</ele>
        <time>2014-02-06T13:43:55Z</time>
      </trkpt>
      <trkpt lat="42.94072" lon="0.45498">
        <ele>1650</ele>
        <time>2014-02-06T13:44:04Z</time>
      </trkpt>
      <trkpt lat="42.94068" lon="0.45494">
        <ele>1651</ele>
        <time>2014-02-06T13:44:13Z</time>
      </trkpt>
      <trkpt lat="42.94069" lon="0.4549">
        <ele>1659</ele>
        <time>2014-02-06T13:46:07Z</time>
      </trkpt>
      <trkpt lat="42.94069" lon="0.45485">
        <ele>1660</ele>
        <time>2014-02-06T13:46:46Z</time>
      </trkpt>
      <trkpt lat="42.94065" lon="0.45479">
        <ele>1660</ele>
        <time>2014-02-06T13:46:58Z</time>
      </trkpt>
      <trkpt lat="42.94064" lon="0.45472">
        <ele>1659</ele>
        <time>2014-02-06T13:47:03Z</time>
      </trkpt>
      <trkpt lat="42.94062" lon="0.45467">
        <ele>1658</ele>
        <time>2014-02-06T13:47:08Z</time>
      </trkpt>
      <trkpt lat="42.94058" lon="0.45462">
        <ele>1657</ele>
        <time>2014-02-06T13:47:14Z</time>
      </trkpt>
      <trkpt lat="42.94056" lon="0.45457">
        <ele>1656</ele>
        <time>2014-02-06T13:47:22Z</time>
      </trkpt>
      <trkpt lat="42.94051" lon="0.45454">
        <ele>1655</ele>
        <time>2014-02-06T13:47:29Z</time>
      </trkpt>
      <trkpt lat="42.94047" lon="0.45451">
        <ele>1657</ele>
        <time>2014-02-06T13:47:37Z</time>
      </trkpt>
      <trkpt lat="42.94043" lon="0.45449">
        <ele>1657</ele>
        <time>2014-02-06T13:47:46Z</time>
      </trkpt>
      <trkpt lat="42.94038" lon="0.45445">
        <ele>1657</ele>
        <time>2014-02-06T13:47:53Z</time>
      </trkpt>
      <trkpt lat="42.94038" lon="0.45439">
        <ele>1658</ele>
        <time>2014-02-06T13:48:01Z</time>
      </trkpt>
      <trkpt lat="42.9404" lon="0.45432">
        <ele>1657</ele>
        <time>2014-02-06T13:48:08Z</time>
      </trkpt>
      <trkpt lat="42.9404" lon="0.45426">
        <ele>1658</ele>
        <time>2014-02-06T13:48:13Z</time>
      </trkpt>
      <trkpt lat="42.9404" lon="0.4542">
        <ele>1659</ele>
        <time>2014-02-06T13:48:19Z</time>
      </trkpt>
      <trkpt lat="42.94041" lon="0.45413">
        <ele>1660</ele>
        <time>2014-02-06T13:48:26Z</time>
      </trkpt>
      <trkpt lat="42.94042" lon="0.45408">
        <ele>1662</ele>
        <time>2014-02-06T13:48:35Z</time>
      </trkpt>
      <trkpt lat="42.94041" lon="0.45401">
        <ele>1662</ele>
        <time>2014-02-06T13:48:42Z</time>
      </trkpt>
      <trkpt lat="42.94041" lon="0.45394">
        <ele>1662</ele>
        <time>2014-02-06T13:48:47Z</time>
      </trkpt>
      <trkpt lat="42.9404" lon="0.45388">
        <ele>1662</ele>
        <time>2014-02-06T13:48:52Z</time>
      </trkpt>
      <trkpt lat="42.9404" lon="0.4538">
        <ele>1661</ele>
        <time>2014-02-06T13:48:58Z</time>
      </trkpt>
      <trkpt lat="42.94038" lon="0.45374">
        <ele>1660</ele>
        <time>2014-02-06T13:49:04Z</time>
      </trkpt>
      <trkpt lat="42.94036" lon="0.45368">
        <ele>1661</ele>
        <time>2014-02-06T13:49:11Z</time>
      </trkpt>
      <trkpt lat="42.94035" lon="0.45361">
        <ele>1661</ele>
        <time>2014-02-06T13:49:18Z</time>
      </trkpt>
      <trkpt lat="42.94034" lon="0.45355">
        <ele>1662</ele>
        <time>2014-02-06T13:49:24Z</time>
      </trkpt>
      <trkpt lat="42.94032" lon="0.45349">
        <ele>1661</ele>
        <time>2014-02-06T13:49:29Z</time>
      </trkpt>
      <trkpt lat="42.94032" lon="0.45343">
        <ele>1659</ele>
        <time>2014-02-06T13:49:35Z</time>
      </trkpt>
      <trkpt lat="42.94032" lon="0.45336">
        <ele>1658</ele>
        <time>2014-02-06T13:49:41Z</time>
      </trkpt>
      <trkpt lat="42.94031" lon="0.45329">
        <ele>1657</ele>
        <time>2014-02-06T13:49:47Z</time>
      </trkpt>
      <trkpt lat="42.9403" lon="0.45322">
        <ele>1657</ele>
        <time>2014-02-06T13:49:53Z</time>
      </trkpt>
      <trkpt lat="42.94029" lon="0.45316">
        <ele>1657</ele>
        <time>2014-02-06T13:50:00Z</time>
      </trkpt>
      <trkpt lat="42.94028" lon="0.4531">
        <ele>1658</ele>
        <time>2014-02-06T13:50:07Z</time>
      </trkpt>
      <trkpt lat="42.94028" lon="0.45303">
        <ele>1659</ele>
        <time>2014-02-06T13:50:15Z</time>
      </trkpt>
      <trkpt lat="42.94027" lon="0.45297">
        <ele>1659</ele>
        <time>2014-02-06T13:50:22Z</time>
      </trkpt>
      <trkpt lat="42.94028" lon="0.45291">
        <ele>1659</ele>
        <time>2014-02-06T13:50:29Z</time>
      </trkpt>
      <trkpt lat="42.94031" lon="0.45285">
        <ele>1659</ele>
        <time>2014-02-06T13:50:36Z</time>
      </trkpt>
      <trkpt lat="42.94032" lon="0.45278">
        <ele>1662</ele>
        <time>2014-02-06T13:50:43Z</time>
      </trkpt>
      <trkpt lat="42.94031" lon="0.45266">
        <ele>1668</ele>
        <time>2014-02-06T13:50:59Z</time>
      </trkpt>
      <trkpt lat="42.94026" lon="0.45265">
        <ele>1670</ele>
        <time>2014-02-06T13:51:06Z</time>
      </trkpt>
      <trkpt lat="42.94024" lon="0.45259">
        <ele>1672</ele>
        <time>2014-02-06T13:51:13Z</time>
      </trkpt>
      <trkpt lat="42.94024" lon="0.45253">
        <ele>1672</ele>
        <time>2014-02-06T13:51:21Z</time>
      </trkpt>
      <trkpt lat="42.94021" lon="0.45248">
        <ele>1673</ele>
        <time>2014-02-06T13:51:27Z</time>
      </trkpt>
      <trkpt lat="42.94019" lon="0.45242">
        <ele>1672</ele>
        <time>2014-02-06T13:51:34Z</time>
      </trkpt>
      <trkpt lat="42.9402" lon="0.45235">
        <ele>1672</ele>
        <time>2014-02-06T13:51:42Z</time>
      </trkpt>
      <trkpt lat="42.94023" lon="0.4523">
        <ele>1672</ele>
        <time>2014-02-06T13:51:48Z</time>
      </trkpt>
      <trkpt lat="42.94025" lon="0.45223">
        <ele>1671</ele>
        <time>2014-02-06T13:51:54Z</time>
      </trkpt>
      <trkpt lat="42.94028" lon="0.45217">
        <ele>1671</ele>
        <time>2014-02-06T13:52:00Z</time>
      </trkpt>
      <trkpt lat="42.94027" lon="0.45214">
        <ele>1670</ele>
        <time>2014-02-06T13:54:30Z</time>
      </trkpt>
      <trkpt lat="42.94031" lon="0.4521">
        <ele>1670</ele>
        <time>2014-02-06T13:54:34Z</time>
      </trkpt>
      <trkpt lat="42.94035" lon="0.45208">
        <ele>1670</ele>
        <time>2014-02-06T13:54:37Z</time>
      </trkpt>
      <trkpt lat="42.9404" lon="0.45204">
        <ele>1668</ele>
        <time>2014-02-06T13:54:40Z</time>
      </trkpt>
      <trkpt lat="42.94045" lon="0.45199">
        <ele>1666</ele>
        <time>2014-02-06T13:54:43Z</time>
      </trkpt>
      <trkpt lat="42.9405" lon="0.45196">
        <ele>1664</ele>
        <time>2014-02-06T13:54:46Z</time>
      </trkpt>
      <trkpt lat="42.94054" lon="0.45193">
        <ele>1662</ele>
        <time>2014-02-06T13:54:50Z</time>
      </trkpt>
      <trkpt lat="42.94059" lon="0.45191">
        <ele>1661</ele>
        <time>2014-02-06T13:54:58Z</time>
      </trkpt>
      <trkpt lat="42.94064" lon="0.45187">
        <ele>1659</ele>
        <time>2014-02-06T13:55:04Z</time>
      </trkpt>
      <trkpt lat="42.9407" lon="0.45186">
        <ele>1659</ele>
        <time>2014-02-06T13:55:07Z</time>
      </trkpt>
      <trkpt lat="42.94074" lon="0.45184">
        <ele>1660</ele>
        <time>2014-02-06T13:55:09Z</time>
      </trkpt>
      <trkpt lat="42.94079" lon="0.45182">
        <ele>1660</ele>
        <time>2014-02-06T13:55:11Z</time>
      </trkpt>
      <trkpt lat="42.94084" lon="0.4518">
        <ele>1659</ele>
        <time>2014-02-06T13:55:13Z</time>
      </trkpt>
      <trkpt lat="42.94088" lon="0.45178">
        <ele>1659</ele>
        <time>2014-02-06T13:55:15Z</time>
      </trkpt>
      <trkpt lat="42.94094" lon="0.45176">
        <ele>1659</ele>
        <time>2014-02-06T13:55:18Z</time>
      </trkpt>
      <trkpt lat="42.94096" lon="0.45178">
        <ele>1658</ele>
        <time>2014-02-06T13:55:25Z</time>
      </trkpt>
      <trkpt lat="42.941" lon="0.45175">
        <ele>1656</ele>
        <time>2014-02-06T13:55:38Z</time>
      </trkpt>
      <trkpt lat="42.94106" lon="0.45177">
        <ele>1655</ele>
        <time>2014-02-06T13:55:51Z</time>
      </trkpt>
      <trkpt lat="42.94111" lon="0.45179">
        <ele>1656</ele>
        <time>2014-02-06T13:55:57Z</time>
      </trkpt>
      <trkpt lat="42.94116" lon="0.4518">
        <ele>1656</ele>
        <time>2014-02-06T13:56:03Z</time>
      </trkpt>
      <trkpt lat="42.9412" lon="0.4518">
        <ele>1656</ele>
        <time>2014-02-06T13:56:08Z</time>
      </trkpt>
      <trkpt lat="42.94125" lon="0.45182">
        <ele>1656</ele>
        <time>2014-02-06T13:56:13Z</time>
      </trkpt>
      <trkpt lat="42.9413" lon="0.45183">
        <ele>1657</ele>
        <time>2014-02-06T13:56:19Z</time>
      </trkpt>
      <trkpt lat="42.94135" lon="0.45185">
        <ele>1657</ele>
        <time>2014-02-06T13:56:24Z</time>
      </trkpt>
      <trkpt lat="42.94139" lon="0.45187">
        <ele>1658</ele>
        <time>2014-02-06T13:56:29Z</time>
      </trkpt>
      <trkpt lat="42.94143" lon="0.45191">
        <ele>1658</ele>
        <time>2014-02-06T13:56:35Z</time>
      </trkpt>
      <trkpt lat="42.94147" lon="0.45193">
        <ele>1656</ele>
        <time>2014-02-06T13:56:40Z</time>
      </trkpt>
      <trkpt lat="42.94152" lon="0.45194">
        <ele>1655</ele>
        <time>2014-02-06T13:56:45Z</time>
      </trkpt>
      <trkpt lat="42.94156" lon="0.45198">
        <ele>1655</ele>
        <time>2014-02-06T13:56:51Z</time>
      </trkpt>
      <trkpt lat="42.94159" lon="0.45204">
        <ele>1655</ele>
        <time>2014-02-06T13:56:56Z</time>
      </trkpt>
      <trkpt lat="42.94162" lon="0.45208">
        <ele>1656</ele>
        <time>2014-02-06T13:57:02Z</time>
      </trkpt>
      <trkpt lat="42.94166" lon="0.45213">
        <ele>1655</ele>
        <time>2014-02-06T13:57:07Z</time>
      </trkpt>
      <trkpt lat="42.9417" lon="0.45218">
        <ele>1654</ele>
        <time>2014-02-06T13:57:15Z</time>
      </trkpt>
      <trkpt lat="42.94169" lon="0.4522">
        <ele>1653</ele>
        <time>2014-02-06T13:57:32Z</time>
      </trkpt>
      <trkpt lat="42.94169" lon="0.45225">
        <ele>1652</ele>
        <time>2014-02-06T13:57:41Z</time>
      </trkpt>
      <trkpt lat="42.94171" lon="0.45228">
        <ele>1651</ele>
        <time>2014-02-06T13:57:57Z</time>
      </trkpt>
      <trkpt lat="42.94171" lon="0.45234">
        <ele>1651</ele>
        <time>2014-02-06T13:58:04Z</time>
      </trkpt>
      <trkpt lat="42.94175" lon="0.45237">
        <ele>1651</ele>
        <time>2014-02-06T13:58:12Z</time>
      </trkpt>
      <trkpt lat="42.9418" lon="0.45236">
        <ele>1650</ele>
        <time>2014-02-06T13:58:18Z</time>
      </trkpt>
      <trkpt lat="42.94185" lon="0.45235">
        <ele>1649</ele>
        <time>2014-02-06T13:58:23Z</time>
      </trkpt>
      <trkpt lat="42.94189" lon="0.45237">
        <ele>1650</ele>
        <time>2014-02-06T13:58:27Z</time>
      </trkpt>
      <trkpt lat="42.94195" lon="0.45234">
        <ele>1649</ele>
        <time>2014-02-06T13:58:33Z</time>
      </trkpt>
      <trkpt lat="42.94199" lon="0.45235">
        <ele>1649</ele>
        <time>2014-02-06T13:58:38Z</time>
      </trkpt>
      <trkpt lat="42.94203" lon="0.45231">
        <ele>1646</ele>
        <time>2014-02-06T13:58:55Z</time>
      </trkpt>
      <trkpt lat="42.9421" lon="0.45228">
        <ele>1646</ele>
        <time>2014-02-06T13:59:05Z</time>
      </trkpt>
      <trkpt lat="42.94214" lon="0.45233">
        <ele>1644</ele>
        <time>2014-02-06T13:59:24Z</time>
      </trkpt>
      <trkpt lat="42.94229" lon="0.45233">
        <ele>1632</ele>
        <time>2014-02-06T13:59:46Z</time>
      </trkpt>
      <trkpt lat="42.94233" lon="0.45237">
        <ele>1630</ele>
        <time>2014-02-06T13:59:51Z</time>
      </trkpt>
      <trkpt lat="42.94238" lon="0.4525">
        <ele>1625</ele>
        <time>2014-02-06T14:01:14Z</time>
      </trkpt>
      <trkpt lat="42.9424" lon="0.45257">
        <ele>1624</ele>
        <time>2014-02-06T14:01:17Z</time>
      </trkpt>
      <trkpt lat="42.94243" lon="0.45263">
        <ele>1624</ele>
        <time>2014-02-06T14:01:20Z</time>
      </trkpt>
      <trkpt lat="42.94244" lon="0.4527">
        <ele>1624</ele>
        <time>2014-02-06T14:01:23Z</time>
      </trkpt>
      <trkpt lat="42.94246" lon="0.45277">
        <ele>1625</ele>
        <time>2014-02-06T14:01:26Z</time>
      </trkpt>
      <trkpt lat="42.94246" lon="0.45284">
        <ele>1624</ele>
        <time>2014-02-06T14:01:29Z</time>
      </trkpt>
      <trkpt lat="42.94247" lon="0.45291">
        <ele>1623</ele>
        <time>2014-02-06T14:01:33Z</time>
      </trkpt>
      <trkpt lat="42.94249" lon="0.45297">
        <ele>1623</ele>
        <time>2014-02-06T14:01:36Z</time>
      </trkpt>
      <trkpt lat="42.94253" lon="0.45302">
        <ele>1622</ele>
        <time>2014-02-06T14:01:40Z</time>
      </trkpt>
      <trkpt lat="42.94257" lon="0.45307">
        <ele>1621</ele>
        <time>2014-02-06T14:01:43Z</time>
      </trkpt>
      <trkpt lat="42.94261" lon="0.45313">
        <ele>1620</ele>
        <time>2014-02-06T14:01:46Z</time>
      </trkpt>
      <trkpt lat="42.94265" lon="0.45317">
        <ele>1618</ele>
        <time>2014-02-06T14:01:49Z</time>
      </trkpt>
      <trkpt lat="42.9427" lon="0.45323">
        <ele>1615</ele>
        <time>2014-02-06T14:01:52Z</time>
      </trkpt>
      <trkpt lat="42.94273" lon="0.45326">
        <ele>1605</ele>
        <time>2014-02-06T14:03:17Z</time>
      </trkpt>
      <trkpt lat="42.94275" lon="0.45331">
        <ele>1605</ele>
        <time>2014-02-06T14:03:21Z</time>
      </trkpt>
      <trkpt lat="42.94277" lon="0.45337">
        <ele>1604</ele>
        <time>2014-02-06T14:03:25Z</time>
      </trkpt>
      <trkpt lat="42.94279" lon="0.45344">
        <ele>1603</ele>
        <time>2014-02-06T14:03:28Z</time>
      </trkpt>
      <trkpt lat="42.9428" lon="0.4535">
        <ele>1603</ele>
        <time>2014-02-06T14:03:30Z</time>
      </trkpt>
      <trkpt lat="42.94283" lon="0.45358">
        <ele>1602</ele>
        <time>2014-02-06T14:03:33Z</time>
      </trkpt>
      <trkpt lat="42.94285" lon="0.45364">
        <ele>1602</ele>
        <time>2014-02-06T14:03:35Z</time>
      </trkpt>
      <trkpt lat="42.94287" lon="0.4537">
        <ele>1602</ele>
        <time>2014-02-06T14:03:37Z</time>
      </trkpt>
      <trkpt lat="42.94289" lon="0.45377">
        <ele>1601</ele>
        <time>2014-02-06T14:03:39Z</time>
      </trkpt>
      <trkpt lat="42.9429" lon="0.4538">
        <ele>1601</ele>
        <time>2014-02-06T14:03:40Z</time>
      </trkpt>
      <trkpt lat="42.94292" lon="0.45383">
        <ele>1601</ele>
        <time>2014-02-06T14:03:41Z</time>
      </trkpt>
      <trkpt lat="42.94293" lon="0.45386">
        <ele>1600</ele>
        <time>2014-02-06T14:03:42Z</time>
      </trkpt>
      <trkpt lat="42.94295" lon="0.45388">
        <ele>1600</ele>
        <time>2014-02-06T14:03:43Z</time>
      </trkpt>
      <trkpt lat="42.94296" lon="0.45391">
        <ele>1600</ele>
        <time>2014-02-06T14:03:44Z</time>
      </trkpt>
      <trkpt lat="42.94298" lon="0.45394">
        <ele>1600</ele>
        <time>2014-02-06T14:03:45Z</time>
      </trkpt>
      <trkpt lat="42.943" lon="0.45396">
        <ele>1600</ele>
        <time>2014-02-06T14:03:46Z</time>
      </trkpt>
      <trkpt lat="42.94301" lon="0.45398">
        <ele>1599</ele>
        <time>2014-02-06T14:03:47Z</time>
      </trkpt>
      <trkpt lat="42.94303" lon="0.45401">
        <ele>1599</ele>
        <time>2014-02-06T14:03:48Z</time>
      </trkpt>
      <trkpt lat="42.94306" lon="0.45405">
        <ele>1598</ele>
        <time>2014-02-06T14:03:50Z</time>
      </trkpt>
      <trkpt lat="42.94307" lon="0.45408">
        <ele>1598</ele>
        <time>2014-02-06T14:03:51Z</time>
      </trkpt>
      <trkpt lat="42.94309" lon="0.45413">
        <ele>1597</ele>
        <time>2014-02-06T14:03:53Z</time>
      </trkpt>
      <trkpt lat="42.94312" lon="0.45417">
        <ele>1597</ele>
        <time>2014-02-06T14:03:55Z</time>
      </trkpt>
      <trkpt lat="42.94315" lon="0.45418">
        <ele>1596</ele>
        <time>2014-02-06T14:03:57Z</time>
      </trkpt>
      <trkpt lat="42.94318" lon="0.45413">
        <ele>1596</ele>
        <time>2014-02-06T14:04:17Z</time>
      </trkpt>
      <trkpt lat="42.94321" lon="0.45418">
        <ele>1593</ele>
        <time>2014-02-06T14:04:36Z</time>
      </trkpt>
      <trkpt lat="42.94325" lon="0.45416">
        <ele>1597</ele>
        <time>2014-02-06T14:04:59Z</time>
      </trkpt>
      <trkpt lat="42.9433" lon="0.45419">
        <ele>1598</ele>
        <time>2014-02-06T14:05:07Z</time>
      </trkpt>
      <trkpt lat="42.94333" lon="0.45423">
        <ele>1600</ele>
        <time>2014-02-06T14:05:13Z</time>
      </trkpt>
      <trkpt lat="42.94338" lon="0.45424">
        <ele>1600</ele>
        <time>2014-02-06T14:05:17Z</time>
      </trkpt>
      <trkpt lat="42.94342" lon="0.45423">
        <ele>1601</ele>
        <time>2014-02-06T14:05:21Z</time>
      </trkpt>
      <trkpt lat="42.94347" lon="0.45426">
        <ele>1601</ele>
        <time>2014-02-06T14:05:27Z</time>
      </trkpt>
      <trkpt lat="42.94352" lon="0.45431">
        <ele>1600</ele>
        <time>2014-02-06T14:05:32Z</time>
      </trkpt>
      <trkpt lat="42.94356" lon="0.45434">
        <ele>1599</ele>
        <time>2014-02-06T14:05:34Z</time>
      </trkpt>
      <trkpt lat="42.9436" lon="0.45439">
        <ele>1597</ele>
        <time>2014-02-06T14:05:37Z</time>
      </trkpt>
      <trkpt lat="42.94361" lon="0.45445">
        <ele>1597</ele>
        <time>2014-02-06T14:05:39Z</time>
      </trkpt>
      <trkpt lat="42.94363" lon="0.45454">
        <ele>1596</ele>
        <time>2014-02-06T14:05:42Z</time>
      </trkpt>
      <trkpt lat="42.94364" lon="0.45459">
        <ele>1596</ele>
        <time>2014-02-06T14:05:44Z</time>
      </trkpt>
      <trkpt lat="42.94366" lon="0.45464">
        <ele>1596</ele>
        <time>2014-02-06T14:05:46Z</time>
      </trkpt>
      <trkpt lat="42.94367" lon="0.4547">
        <ele>1595</ele>
        <time>2014-02-06T14:05:48Z</time>
      </trkpt>
      <trkpt lat="42.94369" lon="0.45475">
        <ele>1594</ele>
        <time>2014-02-06T14:05:50Z</time>
      </trkpt>
      <trkpt lat="42.94372" lon="0.45479">
        <ele>1593</ele>
        <time>2014-02-06T14:05:52Z</time>
      </trkpt>
      <trkpt lat="42.94373" lon="0.45482">
        <ele>1593</ele>
        <time>2014-02-06T14:05:53Z</time>
      </trkpt>
      <trkpt lat="42.94375" lon="0.45485">
        <ele>1592</ele>
        <time>2014-02-06T14:05:54Z</time>
      </trkpt>
      <trkpt lat="42.94376" lon="0.45487">
        <ele>1592</ele>
        <time>2014-02-06T14:05:55Z</time>
      </trkpt>
      <trkpt lat="42.94378" lon="0.4549">
        <ele>1591</ele>
        <time>2014-02-06T14:05:56Z</time>
      </trkpt>
      <trkpt lat="42.9438" lon="0.45492">
        <ele>1591</ele>
        <time>2014-02-06T14:05:57Z</time>
      </trkpt>
      <trkpt lat="42.94382" lon="0.45495">
        <ele>1591</ele>
        <time>2014-02-06T14:05:58Z</time>
      </trkpt>
      <trkpt lat="42.94384" lon="0.45497">
        <ele>1590</ele>
        <time>2014-02-06T14:05:59Z</time>
      </trkpt>
      <trkpt lat="42.94386" lon="0.45499">
        <ele>1590</ele>
        <time>2014-02-06T14:06:00Z</time>
      </trkpt>
      <trkpt lat="42.94388" lon="0.45504">
        <ele>1589</ele>
        <time>2014-02-06T14:06:02Z</time>
      </trkpt>
      <trkpt lat="42.94391" lon="0.4551">
        <ele>1588</ele>
        <time>2014-02-06T14:06:04Z</time>
      </trkpt>
      <trkpt lat="42.94393" lon="0.45516">
        <ele>1587</ele>
        <time>2014-02-06T14:06:06Z</time>
      </trkpt>
      <trkpt lat="42.94396" lon="0.45522">
        <ele>1585</ele>
        <time>2014-02-06T14:06:08Z</time>
      </trkpt>
      <trkpt lat="42.94396" lon="0.45528">
        <ele>1584</ele>
        <time>2014-02-06T14:06:10Z</time>
      </trkpt>
      <trkpt lat="42.94399" lon="0.45536">
        <ele>1582</ele>
        <time>2014-02-06T14:06:13Z</time>
      </trkpt>
      <trkpt lat="42.94402" lon="0.45605">
        <ele>1563</ele>
        <time>2014-02-06T14:06:45Z</time>
      </trkpt>
      <trkpt lat="42.94408" lon="0.45605">
        <ele>1563</ele>
        <time>2014-02-06T14:06:52Z</time>
      </trkpt>
      <trkpt lat="42.94405" lon="0.45609">
        <ele>1568</ele>
        <time>2014-02-06T14:07:09Z</time>
      </trkpt>
      <trkpt lat="42.94401" lon="0.45613">
        <ele>1572</ele>
        <time>2014-02-06T14:07:14Z</time>
      </trkpt>
      <trkpt lat="42.94402" lon="0.45617">
        <ele>1576</ele>
        <time>2014-02-06T14:07:42Z</time>
      </trkpt>
      <trkpt lat="42.94405" lon="0.45612">
        <ele>1576</ele>
        <time>2014-02-06T14:07:44Z</time>
      </trkpt>
      <trkpt lat="42.94408" lon="0.45611">
        <ele>1575</ele>
        <time>2014-02-06T14:07:55Z</time>
      </trkpt>
      <trkpt lat="42.94405" lon="0.45614">
        <ele>1574</ele>
        <time>2014-02-06T14:08:48Z</time>
      </trkpt>
      <trkpt lat="42.94405" lon="0.45611">
        <ele>1575</ele>
        <time>2014-02-06T14:09:37Z</time>
      </trkpt>
      <trkpt lat="42.94406" lon="0.45614">
        <ele>1574</ele>
        <time>2014-02-06T14:10:20Z</time>
      </trkpt>
      <trkpt lat="42.94406" lon="0.45618">
        <ele>1574</ele>
        <time>2014-02-06T14:10:49Z</time>
      </trkpt>
      <trkpt lat="42.94406" lon="0.4562">
        <ele>1578</ele>
        <time>2014-02-06T14:11:58Z</time>
      </trkpt>
      <trkpt lat="42.94404" lon="0.45626">
        <ele>1581</ele>
        <time>2014-02-06T14:12:07Z</time>
      </trkpt>
      <trkpt lat="42.94409" lon="0.45633">
        <ele>1584</ele>
        <time>2014-02-06T14:12:45Z</time>
      </trkpt>
      <trkpt lat="42.94412" lon="0.45637">
        <ele>1586</ele>
        <time>2014-02-06T14:12:55Z</time>
      </trkpt>
      <trkpt lat="42.94412" lon="0.45643">
        <ele>1586</ele>
        <time>2014-02-06T14:13:02Z</time>
      </trkpt>
      <trkpt lat="42.94413" lon="0.45649">
        <ele>1586</ele>
        <time>2014-02-06T14:13:10Z</time>
      </trkpt>
      <trkpt lat="42.94415" lon="0.45655">
        <ele>1585</ele>
        <time>2014-02-06T14:13:18Z</time>
      </trkpt>
      <trkpt lat="42.94416" lon="0.45658">
        <ele>1583</ele>
        <time>2014-02-06T14:13:24Z</time>
      </trkpt>
      <trkpt lat="42.94413" lon="0.45662">
        <ele>1582</ele>
        <time>2014-02-06T14:13:32Z</time>
      </trkpt>
      <trkpt lat="42.94412" lon="0.45668">
        <ele>1583</ele>
        <time>2014-02-06T14:13:40Z</time>
      </trkpt>
      <trkpt lat="42.94409" lon="0.45673">
        <ele>1584</ele>
        <time>2014-02-06T14:13:48Z</time>
      </trkpt>
      <trkpt lat="42.94411" lon="0.45679">
        <ele>1584</ele>
        <time>2014-02-06T14:14:00Z</time>
      </trkpt>
      <trkpt lat="42.94412" lon="0.45679">
        <ele>1583</ele>
        <time>2014-02-06T14:14:55Z</time>
      </trkpt>
      <trkpt lat="42.94406" lon="0.45678">
        <ele>1583</ele>
        <time>2014-02-06T14:15:10Z</time>
      </trkpt>
    </trkseg>
  </trk>
</gpx>